PWSweather.com
Personal Weather Stations
Station Observations
HVALPSUND
Hvalpsund, FarsoeDK 9640

HvalpsundFarsoeDK 9640

Lat: 56.705311, Lon: 9.203638

Elevation: 5

Station Type: Vantage Pro2

http://hvalpsundvejr.dk

High Low Average
Temperature 48.5°F9.2°C 37.5°F3.1°C 41.3°F5.2°C
Dew Point 46.9°F8.3°C 34.5°F1.4°C 39.3°F4.1°C
Winds 17.0 mph 27.4 kmh 2.9 mph 4.7 kmh 8.0 mph SSE12.9 kmh SSE
Wind Gusts 22.0 mph35.4 kmh 4.0 mph6.4 kmh 11.0 mph17.7 kmh
Humidity 95% 88% 93%
Pressure 29.97 in1014.9 mb 29.52 in999.7 mb -
Precipitation 0.09 in2.3 mm - -
Hour Temp Dew Point Humidity Winds Wind Gusts Pressure Precip Precip Rate Daily Precip Total
12:00 AM 37.8°F3.2°C 34.9°F1.6°C 89% 6.3 mph ESE10.1 kmh ESE 8.0 mph12.9 kmh 29.97 in1014.9 mb 0.00 in0.0 mm 0.00 in0.0 mm 0.00 in0.0 mm
12:01 AM 37.8°F3.2°C 34.9°F1.6°C 89% 6.4 mph ESE10.3 kmh ESE 8.0 mph12.9 kmh 29.97 in1014.9 mb 0.00 in0.0 mm 0.00 in0.0 mm 0.00 in0.0 mm
12:02 AM 37.7°F3.2°C 34.8°F1.6°C 89% 7.8 mph ESE12.6 kmh ESE 9.0 mph14.5 kmh 29.97 in1014.9 mb 0.00 in0.0 mm 0.00 in0.0 mm 0.00 in0.0 mm
12:03 AM 37.7°F3.2°C 34.8°F1.6°C 89% 7.8 mph ESE12.6 kmh ESE 9.0 mph14.5 kmh 29.97 in1014.9 mb 0.00 in0.0 mm 0.00 in0.0 mm 0.00 in0.0 mm
12:04 AM 37.7°F3.2°C 34.8°F1.6°C 89% 7.6 mph ESE12.2 kmh ESE 9.0 mph14.5 kmh 29.97 in1014.9 mb 0.00 in0.0 mm 0.00 in0.0 mm 0.00 in0.0 mm
12:05 AM 37.6°F3.1°C 34.7°F1.5°C 89% 7.9 mph ESE12.7 kmh ESE 10.0 mph16.1 kmh 29.97 in1014.9 mb 0.00 in0.0 mm 0.00 in0.0 mm 0.00 in0.0 mm
12:06 AM 37.6°F3.1°C 34.7°F1.5°C 89% 7.7 mph ESE12.4 kmh ESE 10.0 mph16.1 kmh 29.97 in1014.9 mb 0.00 in0.0 mm 0.00 in0.0 mm 0.00 in0.0 mm
12:07 AM 37.6°F3.1°C 34.7°F1.5°C 89% 8.8 mph SE14.2 kmh SE 11.0 mph17.7 kmh 29.97 in1014.9 mb 0.00 in0.0 mm 0.00 in0.0 mm 0.00 in0.0 mm
12:08 AM 37.6°F3.1°C 34.7°F1.5°C 89% 7.8 mph ESE12.6 kmh ESE 11.0 mph17.7 kmh 29.97 in1014.9 mb 0.00 in0.0 mm 0.00 in0.0 mm 0.00 in0.0 mm
12:09 AM 37.6°F3.1°C 34.7°F1.5°C 89% 8.4 mph ESE13.5 kmh ESE 10.0 mph16.1 kmh 29.97 in1014.9 mb 0.00 in0.0 mm 0.00 in0.0 mm 0.00 in0.0 mm
12:10 AM 37.7°F3.2°C 34.8°F1.6°C 89% 7.5 mph ESE12.1 kmh ESE 10.0 mph16.1 kmh 29.97 in1014.9 mb 0.00 in0.0 mm 0.00 in0.0 mm 0.00 in0.0 mm
12:11 AM 37.7°F3.2°C 34.8°F1.6°C 89% 8.6 mph ESE13.8 kmh ESE 10.0 mph16.1 kmh 29.97 in1014.9 mb 0.00 in0.0 mm 0.00 in0.0 mm 0.00 in0.0 mm
12:12 AM 37.7°F3.2°C 34.8°F1.6°C 89% 7.6 mph ESE12.2 kmh ESE 10.0 mph16.1 kmh 29.97 in1014.9 mb 0.00 in0.0 mm 0.00 in0.0 mm 0.00 in0.0 mm
12:13 AM 37.7°F3.2°C 34.8°F1.6°C 89% 8.1 mph SE13.0 kmh SE 10.0 mph16.1 kmh 29.97 in1014.9 mb 0.00 in0.0 mm 0.00 in0.0 mm 0.00 in0.0 mm
12:14 AM 37.7°F3.2°C 34.8°F1.6°C 89% 7.0 mph ESE11.3 kmh ESE 10.0 mph16.1 kmh 29.97 in1014.9 mb 0.00 in0.0 mm 0.00 in0.0 mm 0.00 in0.0 mm
12:15 AM 37.7°F3.2°C 34.8°F1.6°C 89% 7.6 mph ESE12.2 kmh ESE 9.0 mph14.5 kmh 29.97 in1014.9 mb 0.00 in0.0 mm 0.00 in0.0 mm 0.00 in0.0 mm
12:16 AM 37.7°F3.2°C 34.8°F1.6°C 89% 7.4 mph ESE11.9 kmh ESE 9.0 mph14.5 kmh 29.97 in1014.9 mb 0.00 in0.0 mm 0.00 in0.0 mm 0.00 in0.0 mm
12:17 AM 37.8°F3.2°C 34.9°F1.6°C 89% 8.4 mph ESE13.5 kmh ESE 9.0 mph14.5 kmh 29.97 in1014.9 mb 0.00 in0.0 mm 0.00 in0.0 mm 0.00 in0.0 mm
12:18 AM 37.8°F3.2°C 34.9°F1.6°C 89% 8.8 mph ESE14.2 kmh ESE 11.0 mph17.7 kmh 29.97 in1014.9 mb 0.00 in0.0 mm 0.00 in0.0 mm 0.00 in0.0 mm
12:19 AM 37.8°F3.2°C 34.9°F1.6°C 89% 7.5 mph ESE12.1 kmh ESE 11.0 mph17.7 kmh 29.97 in1014.9 mb 0.00 in0.0 mm 0.00 in0.0 mm 0.00 in0.0 mm
12:20 AM 37.8°F3.2°C 34.9°F1.6°C 89% 6.0 mph SE9.7 kmh SE 10.0 mph16.1 kmh 29.97 in1014.9 mb 0.00 in0.0 mm 0.00 in0.0 mm 0.00 in0.0 mm
12:21 AM 37.8°F3.2°C 34.9°F1.6°C 89% 7.2 mph ESE11.6 kmh ESE 9.0 mph14.5 kmh 29.97 in1014.9 mb 0.00 in0.0 mm 0.00 in0.0 mm 0.00 in0.0 mm
12:22 AM 37.8°F3.2°C 34.9°F1.6°C 89% 5.5 mph ESE8.9 kmh ESE 9.0 mph14.5 kmh 29.97 in1014.9 mb 0.00 in0.0 mm 0.00 in0.0 mm 0.00 in0.0 mm
12:23 AM 37.8°F3.2°C 34.9°F1.6°C 89% 5.5 mph SE8.9 kmh SE 8.0 mph12.9 kmh 29.96 in1014.6 mb 0.00 in0.0 mm 0.00 in0.0 mm 0.00 in0.0 mm
12:24 AM 37.7°F3.2°C 34.8°F1.6°C 89% 6.7 mph ESE10.8 kmh ESE 8.0 mph12.9 kmh 29.97 in1014.9 mb 0.00 in0.0 mm 0.00 in0.0 mm 0.00 in0.0 mm
12:25 AM 37.8°F3.2°C 34.9°F1.6°C 89% 4.9 mph SE7.9 kmh SE 8.0 mph12.9 kmh 29.96 in1014.6 mb 0.00 in0.0 mm 0.00 in0.0 mm 0.00 in0.0 mm
12:26 AM 37.8°F3.2°C 34.9°F1.6°C 89% 6.4 mph SE10.3 kmh SE 9.0 mph14.5 kmh 29.96 in1014.6 mb 0.00 in0.0 mm 0.00 in0.0 mm 0.00 in0.0 mm
12:27 AM 37.7°F3.2°C 34.8°F1.6°C 89% 5.6 mph SE9.0 kmh SE 9.0 mph14.5 kmh 29.97 in1014.9 mb 0.00 in0.0 mm 0.00 in0.0 mm 0.00 in0.0 mm
12:28 AM 37.7°F3.2°C 34.8°F1.6°C 89% 4.8 mph SE7.7 kmh SE 8.0 mph12.9 kmh 29.96 in1014.6 mb 0.00 in0.0 mm 0.00 in0.0 mm 0.00 in0.0 mm
12:29 AM 37.8°F3.2°C 34.9°F1.6°C 89% 5.9 mph SE9.5 kmh SE 7.0 mph11.3 kmh 29.96 in1014.6 mb 0.00 in0.0 mm 0.00 in0.0 mm 0.00 in0.0 mm
12:30 AM 37.8°F3.2°C 34.9°F1.6°C 89% 6.4 mph SE10.3 kmh SE 8.0 mph12.9 kmh 29.96 in1014.6 mb 0.00 in0.0 mm 0.00 in0.0 mm 0.00 in0.0 mm
12:31 AM 37.8°F3.2°C 34.9°F1.6°C 89% 5.7 mph SE9.2 kmh SE 8.0 mph12.9 kmh 29.96 in1014.6 mb 0.00 in0.0 mm 0.00 in0.0 mm 0.00 in0.0 mm
12:32 AM 37.7°F3.2°C 34.8°F1.6°C 89% 4.9 mph ESE7.9 kmh ESE 8.0 mph12.9 kmh 29.96 in1014.6 mb 0.00 in0.0 mm 0.00 in0.0 mm 0.00 in0.0 mm
12:33 AM 37.7°F3.2°C 34.8°F1.6°C 89% 6.2 mph ESE10.0 kmh ESE 8.0 mph12.9 kmh 29.96 in1014.6 mb 0.00 in0.0 mm 0.00 in0.0 mm 0.00 in0.0 mm
12:34 AM 37.7°F3.2°C 34.8°F1.6°C 89% 6.0 mph ESE9.7 kmh ESE 8.0 mph12.9 kmh 29.96 in1014.6 mb 0.00 in0.0 mm 0.00 in0.0 mm 0.00 in0.0 mm
12:35 AM 37.7°F3.2°C 34.8°F1.6°C 89% 4.9 mph SE7.9 kmh SE 8.0 mph12.9 kmh 29.96 in1014.6 mb 0.00 in0.0 mm 0.00 in0.0 mm 0.00 in0.0 mm
12:36 AM 37.7°F3.2°C 34.8°F1.6°C 89% 5.4 mph ESE8.7 kmh ESE 8.0 mph12.9 kmh 29.96 in1014.6 mb 0.00 in0.0 mm 0.00 in0.0 mm 0.00 in0.0 mm
12:37 AM 37.7°F3.2°C 34.8°F1.6°C 89% 5.8 mph ESE9.3 kmh ESE 8.0 mph12.9 kmh 29.96 in1014.6 mb 0.00 in0.0 mm 0.00 in0.0 mm 0.00 in0.0 mm
12:38 AM 37.7°F3.2°C 34.5°F1.4°C 88% 5.4 mph SE8.7 kmh SE 7.0 mph11.3 kmh 29.96 in1014.6 mb 0.00 in0.0 mm 0.00 in0.0 mm 0.00 in0.0 mm
12:39 AM 37.7°F3.2°C 34.8°F1.6°C 89% 4.6 mph SE7.4 kmh SE 7.0 mph11.3 kmh 29.96 in1014.6 mb 0.00 in0.0 mm 0.00 in0.0 mm 0.00 in0.0 mm
12:40 AM 37.6°F3.1°C 34.7°F1.5°C 89% 4.7 mph SE7.6 kmh SE 6.0 mph9.7 kmh 29.96 in1014.6 mb 0.00 in0.0 mm 0.00 in0.0 mm 0.00 in0.0 mm
12:41 AM 37.6°F3.1°C 34.7°F1.5°C 89% 4.2 mph SE6.8 kmh SE 6.0 mph9.7 kmh 29.96 in1014.6 mb 0.00 in0.0 mm 0.00 in0.0 mm 0.00 in0.0 mm
12:42 AM 37.6°F3.1°C 34.7°F1.5°C 89% 5.2 mph SE8.4 kmh SE 7.0 mph11.3 kmh 29.96 in1014.6 mb 0.00 in0.0 mm 0.00 in0.0 mm 0.00 in0.0 mm
12:43 AM 37.7°F3.2°C 34.8°F1.6°C 89% 4.0 mph SE6.4 kmh SE 7.0 mph11.3 kmh 29.96 in1014.6 mb 0.00 in0.0 mm 0.00 in0.0 mm 0.00 in0.0 mm
12:44 AM 37.6°F3.1°C 34.7°F1.5°C 89% 4.0 mph SE6.4 kmh SE 5.0 mph8.0 kmh 29.96 in1014.6 mb 0.00 in0.0 mm 0.00 in0.0 mm 0.00 in0.0 mm
12:45 AM 37.6°F3.1°C 34.7°F1.5°C 89% 3.8 mph SE6.1 kmh SE 5.0 mph8.0 kmh 29.96 in1014.6 mb 0.00 in0.0 mm 0.00 in0.0 mm 0.00 in0.0 mm
12:46 AM 37.6°F3.1°C 34.7°F1.5°C 89% 3.3 mph SE5.3 kmh SE 5.0 mph8.0 kmh 29.96 in1014.6 mb 0.00 in0.0 mm 0.00 in0.0 mm 0.00 in0.0 mm
12:47 AM 37.6°F3.1°C 34.7°F1.5°C 89% 4.7 mph SE7.6 kmh SE 7.0 mph11.3 kmh 29.96 in1014.6 mb 0.00 in0.0 mm 0.00 in0.0 mm 0.00 in0.0 mm
12:48 AM 37.6°F3.1°C 34.7°F1.5°C 89% 3.6 mph SE5.8 kmh SE 7.0 mph11.3 kmh 29.96 in1014.6 mb 0.00 in0.0 mm 0.00 in0.0 mm 0.00 in0.0 mm
12:49 AM 37.6°F3.1°C 34.7°F1.5°C 89% 4.0 mph ESE6.4 kmh ESE 6.0 mph9.7 kmh 29.96 in1014.6 mb 0.00 in0.0 mm 0.00 in0.0 mm 0.00 in0.0 mm
12:50 AM 37.6°F3.1°C 34.7°F1.5°C 89% 4.3 mph ESE6.9 kmh ESE 6.0 mph9.7 kmh 29.96 in1014.6 mb 0.00 in0.0 mm 0.00 in0.0 mm 0.00 in0.0 mm
12:51 AM 37.6°F3.1°C 34.7°F1.5°C 89% 3.5 mph ESE5.6 kmh ESE 6.0 mph9.7 kmh 29.95 in1014.2 mb 0.00 in0.0 mm 0.00 in0.0 mm 0.00 in0.0 mm
12:52 AM 37.6°F3.1°C 34.7°F1.5°C 89% 4.6 mph ESE7.4 kmh ESE 6.0 mph9.7 kmh 29.95 in1014.2 mb 0.00 in0.0 mm 0.00 in0.0 mm 0.00 in0.0 mm
12:53 AM 37.6°F3.1°C 34.7°F1.5°C 89% 3.6 mph ESE5.8 kmh ESE 6.0 mph9.7 kmh 29.95 in1014.2 mb 0.00 in0.0 mm 0.00 in0.0 mm 0.00 in0.0 mm
12:54 AM 37.5°F3.1°C 34.6°F1.4°C 89% 4.0 mph ESE6.4 kmh ESE 6.0 mph9.7 kmh 29.95 in1014.2 mb 0.00 in0.0 mm 0.00 in0.0 mm 0.00 in0.0 mm
12:55 AM 37.6°F3.1°C 34.7°F1.5°C 89% 4.0 mph ESE6.4 kmh ESE 8.0 mph12.9 kmh 29.95 in1014.2 mb 0.00 in0.0 mm 0.00 in0.0 mm 0.00 in0.0 mm
12:56 AM 37.5°F3.1°C 34.6°F1.4°C 89% 5.0 mph ESE8.0 kmh ESE 6.0 mph9.7 kmh 29.95 in1014.2 mb 0.00 in0.0 mm 0.00 in0.0 mm 0.00 in0.0 mm
12:57 AM 37.6°F3.1°C 34.7°F1.5°C 89% 6.1 mph ESE9.8 kmh ESE 8.0 mph12.9 kmh 29.95 in1014.2 mb 0.00 in0.0 mm 0.00 in0.0 mm 0.00 in0.0 mm
12:58 AM 37.5°F3.1°C 34.6°F1.4°C 89% 5.5 mph ESE8.9 kmh ESE 8.0 mph12.9 kmh 29.95 in1014.2 mb 0.00 in0.0 mm 0.00 in0.0 mm 0.00 in0.0 mm
12:59 AM 37.6°F3.1°C 34.7°F1.5°C 89% 5.6 mph ESE9.0 kmh ESE 8.0 mph12.9 kmh 29.95 in1014.2 mb 0.00 in0.0 mm 0.00 in0.0 mm 0.00 in0.0 mm
01:00 AM 37.6°F3.1°C 34.7°F1.5°C 89% 5.5 mph ESE8.9 kmh ESE 8.0 mph12.9 kmh 29.95 in1014.2 mb 0.00 in0.0 mm 0.00 in0.0 mm 0.00 in0.0 mm
01:01 AM 37.6°F3.1°C 34.7°F1.5°C 89% 3.9 mph SE6.3 kmh SE 7.0 mph11.3 kmh 29.95 in1014.2 mb 0.00 in0.0 mm 0.00 in0.0 mm 0.00 in0.0 mm
01:02 AM 37.6°F3.1°C 34.7°F1.5°C 89% 5.9 mph SE9.5 kmh SE 7.0 mph11.3 kmh 29.95 in1014.2 mb 0.00 in0.0 mm 0.00 in0.0 mm 0.00 in0.0 mm
01:03 AM 37.6°F3.1°C 34.7°F1.5°C 89% 6.6 mph SE10.6 kmh SE 8.0 mph12.9 kmh 29.95 in1014.2 mb 0.00 in0.0 mm 0.00 in0.0 mm 0.00 in0.0 mm
01:04 AM 37.7°F3.2°C 34.8°F1.6°C 89% 6.0 mph SE9.7 kmh SE 8.0 mph12.9 kmh 29.95 in1014.2 mb 0.00 in0.0 mm 0.00 in0.0 mm 0.00 in0.0 mm
01:05 AM 37.7°F3.2°C 34.8°F1.6°C 89% 5.5 mph SE8.9 kmh SE 8.0 mph12.9 kmh 29.95 in1014.2 mb 0.00 in0.0 mm 0.00 in0.0 mm 0.00 in0.0 mm
01:06 AM 37.6°F3.1°C 34.7°F1.5°C 89% 5.5 mph SE8.9 kmh SE 8.0 mph12.9 kmh 29.95 in1014.2 mb 0.00 in0.0 mm 0.00 in0.0 mm 0.00 in0.0 mm
01:07 AM 37.7°F3.2°C 34.8°F1.6°C 89% 7.0 mph SE11.3 kmh SE 9.0 mph14.5 kmh 29.95 in1014.2 mb 0.00 in0.0 mm 0.00 in0.0 mm 0.00 in0.0 mm
01:08 AM 37.7°F3.2°C 34.8°F1.6°C 89% 5.5 mph SE8.9 kmh SE 9.0 mph14.5 kmh 29.95 in1014.2 mb 0.00 in0.0 mm 0.00 in0.0 mm 0.00 in0.0 mm
01:09 AM 37.7°F3.2°C 34.8°F1.6°C 89% 4.6 mph SE7.4 kmh SE 9.0 mph14.5 kmh 29.94 in1013.9 mb 0.00 in0.0 mm 0.00 in0.0 mm 0.00 in0.0 mm
01:10 AM 37.7°F3.2°C 34.8°F1.6°C 89% 5.4 mph SE8.7 kmh SE 8.0 mph12.9 kmh 29.94 in1013.9 mb 0.00 in0.0 mm 0.00 in0.0 mm 0.00 in0.0 mm
01:11 AM 37.7°F3.2°C 34.8°F1.6°C 89% 4.5 mph SE7.2 kmh SE 7.0 mph11.3 kmh 29.94 in1013.9 mb 0.00 in0.0 mm 0.00 in0.0 mm 0.00 in0.0 mm
01:12 AM 37.7°F3.2°C 34.8°F1.6°C 89% 4.6 mph SE7.4 kmh SE 7.0 mph11.3 kmh 29.94 in1013.9 mb 0.00 in0.0 mm 0.00 in0.0 mm 0.00 in0.0 mm
01:13 AM 37.8°F3.2°C 34.9°F1.6°C 89% 5.0 mph ESE8.0 kmh ESE 7.0 mph11.3 kmh 29.94 in1013.9 mb 0.00 in0.0 mm 0.00 in0.0 mm 0.00 in0.0 mm
01:14 AM 37.7°F3.2°C 34.8°F1.6°C 89% 3.8 mph SE6.1 kmh SE 6.0 mph9.7 kmh 29.95 in1014.2 mb 0.00 in0.0 mm 0.00 in0.0 mm 0.00 in0.0 mm
01:15 AM 37.8°F3.2°C 34.9°F1.6°C 89% 4.8 mph SE7.7 kmh SE 7.0 mph11.3 kmh 29.95 in1014.2 mb 0.00 in0.0 mm 0.00 in0.0 mm 0.00 in0.0 mm
01:16 AM 37.7°F3.2°C 34.8°F1.6°C 89% 3.5 mph SE5.6 kmh SE 7.0 mph11.3 kmh 29.95 in1014.2 mb 0.00 in0.0 mm 0.00 in0.0 mm 0.00 in0.0 mm
01:17 AM 37.8°F3.2°C 34.9°F1.6°C 89% 3.2 mph ESE5.1 kmh ESE 6.0 mph9.7 kmh 29.95 in1014.2 mb 0.00 in0.0 mm 0.00 in0.0 mm 0.00 in0.0 mm
01:18 AM 37.8°F3.2°C 34.9°F1.6°C 89% 2.9 mph ESE4.7 kmh ESE 6.0 mph9.7 kmh 29.95 in1014.2 mb 0.00 in0.0 mm 0.00 in0.0 mm 0.00 in0.0 mm
01:19 AM 37.8°F3.2°C 34.9°F1.6°C 89% 3.0 mph SE4.8 kmh SE 4.0 mph6.4 kmh 29.95 in1014.2 mb 0.00 in0.0 mm 0.00 in0.0 mm 0.00 in0.0 mm
01:20 AM 37.8°F3.2°C 34.9°F1.6°C 89% 3.5 mph SE5.6 kmh SE 5.0 mph8.0 kmh 29.95 in1014.2 mb 0.00 in0.0 mm 0.00 in0.0 mm 0.00 in0.0 mm
01:21 AM 37.8°F3.2°C 34.9°F1.6°C 89% 3.7 mph SE6.0 kmh SE 5.0 mph8.0 kmh 29.95 in1014.2 mb 0.00 in0.0 mm 0.00 in0.0 mm 0.00 in0.0 mm
01:22 AM 37.8°F3.2°C 34.9°F1.6°C 89% 3.6 mph SE5.8 kmh SE 5.0 mph8.0 kmh 29.95 in1014.2 mb 0.00 in0.0 mm 0.00 in0.0 mm 0.00 in0.0 mm
01:23 AM 37.8°F3.2°C 34.9°F1.6°C 89% 3.5 mph SE5.6 kmh SE 5.0 mph8.0 kmh 29.95 in1014.2 mb 0.00 in0.0 mm 0.00 in0.0 mm 0.00 in0.0 mm
01:24 AM 37.8°F3.2°C 34.9°F1.6°C 89% 4.4 mph SE7.1 kmh SE 7.0 mph11.3 kmh 29.95 in1014.2 mb 0.00 in0.0 mm 0.00 in0.0 mm 0.00 in0.0 mm
01:25 AM 37.8°F3.2°C 34.9°F1.6°C 89% 4.2 mph SE6.8 kmh SE 7.0 mph11.3 kmh 29.95 in1014.2 mb 0.00 in0.0 mm 0.00 in0.0 mm 0.00 in0.0 mm
01:26 AM 37.9°F3.3°C 35.0°F1.7°C 89% 4.3 mph SE6.9 kmh SE 5.0 mph8.0 kmh 29.94 in1013.9 mb 0.00 in0.0 mm 0.00 in0.0 mm 0.00 in0.0 mm
01:27 AM 37.9°F3.3°C 35.0°F1.7°C 89% 5.7 mph SE9.2 kmh SE 9.0 mph14.5 kmh 29.94 in1013.9 mb 0.00 in0.0 mm 0.00 in0.0 mm 0.00 in0.0 mm
01:28 AM 37.9°F3.3°C 35.0°F1.7°C 89% 5.1 mph SE8.2 kmh SE 9.0 mph14.5 kmh 29.94 in1013.9 mb 0.00 in0.0 mm 0.00 in0.0 mm 0.00 in0.0 mm
01:29 AM 37.9°F3.3°C 35.0°F1.7°C 89% 6.1 mph SE9.8 kmh SE 9.0 mph14.5 kmh 29.94 in1013.9 mb 0.00 in0.0 mm 0.00 in0.0 mm 0.00 in0.0 mm
01:30 AM 38.0°F3.3°C 35.1°F1.7°C 89% 4.9 mph SE7.9 kmh SE 9.0 mph14.5 kmh 29.94 in1013.9 mb 0.00 in0.0 mm 0.00 in0.0 mm 0.00 in0.0 mm
01:31 AM 38.0°F3.3°C 35.1°F1.7°C 89% 4.9 mph SE7.9 kmh SE 7.0 mph11.3 kmh 29.94 in1013.9 mb 0.00 in0.0 mm 0.00 in0.0 mm 0.00 in0.0 mm
01:32 AM 38.0°F3.3°C 35.1°F1.7°C 89% 5.4 mph SE8.7 kmh SE 8.0 mph12.9 kmh 29.94 in1013.9 mb 0.00 in0.0 mm 0.00 in0.0 mm 0.00 in0.0 mm
01:33 AM 38.0°F3.3°C 35.1°F1.7°C 89% 6.2 mph SE10.0 kmh SE 8.0 mph12.9 kmh 29.94 in1013.9 mb 0.00 in0.0 mm 0.00 in0.0 mm 0.00 in0.0 mm
01:34 AM 38.1°F3.4°C 35.2°F1.8°C 89% 5.5 mph SE8.9 kmh SE 8.0 mph12.9 kmh 29.94 in1013.9 mb 0.00 in0.0 mm 0.00 in0.0 mm 0.00 in0.0 mm
01:35 AM 38.1°F3.4°C 35.2°F1.8°C 89% 6.5 mph SE10.5 kmh SE 10.0 mph16.1 kmh 29.93 in1013.5 mb 0.00 in0.0 mm 0.00 in0.0 mm 0.00 in0.0 mm
01:36 AM 38.1°F3.4°C 35.2°F1.8°C 89% 5.6 mph SE9.0 kmh SE 10.0 mph16.1 kmh 29.93 in1013.5 mb 0.00 in0.0 mm 0.00 in0.0 mm 0.00 in0.0 mm
01:37 AM 38.1°F3.4°C 35.2°F1.8°C 89% 6.5 mph SE10.5 kmh SE 9.0 mph14.5 kmh 29.93 in1013.5 mb 0.00 in0.0 mm 0.00 in0.0 mm 0.00 in0.0 mm
01:38 AM 38.1°F3.4°C 35.2°F1.8°C 89% 4.8 mph SE7.7 kmh SE 9.0 mph14.5 kmh 29.94 in1013.9 mb 0.00 in0.0 mm 0.00 in0.0 mm 0.00 in0.0 mm
01:39 AM 38.1°F3.4°C 35.2°F1.8°C 89% 5.0 mph SE8.0 kmh SE 8.0 mph12.9 kmh 29.94 in1013.9 mb 0.00 in0.0 mm 0.00 in0.0 mm 0.00 in0.0 mm
01:40 AM 38.1°F3.4°C 35.2°F1.8°C 89% 4.4 mph SE7.1 kmh SE 7.0 mph11.3 kmh 29.94 in1013.9 mb 0.00 in0.0 mm 0.00 in0.0 mm 0.00 in0.0 mm
01:41 AM 38.1°F3.4°C 35.2°F1.8°C 89% 4.4 mph SE7.1 kmh SE 8.0 mph12.9 kmh 29.94 in1013.9 mb 0.00 in0.0 mm 0.00 in0.0 mm 0.00 in0.0 mm
01:42 AM 38.1°F3.4°C 35.2°F1.8°C 89% 6.0 mph SE9.7 kmh SE 9.0 mph14.5 kmh 29.94 in1013.9 mb 0.00 in0.0 mm 0.00 in0.0 mm 0.00 in0.0 mm
01:43 AM 38.2°F3.4°C 35.2°F1.8°C 89% 5.5 mph SE8.9 kmh SE 9.0 mph14.5 kmh 29.94 in1013.9 mb 0.00 in0.0 mm 0.00 in0.0 mm 0.00 in0.0 mm
01:44 AM 38.2°F3.4°C 35.2°F1.8°C 89% 6.4 mph SE10.3 kmh SE 8.0 mph12.9 kmh 29.94 in1013.9 mb 0.00 in0.0 mm 0.00 in0.0 mm 0.00 in0.0 mm
01:45 AM 38.1°F3.4°C 35.2°F1.8°C 89% 5.7 mph SE9.2 kmh SE 8.0 mph12.9 kmh 29.94 in1013.9 mb 0.00 in0.0 mm 0.00 in0.0 mm 0.00 in0.0 mm
01:46 AM 38.1°F3.4°C 35.2°F1.8°C 89% 5.0 mph SE8.0 kmh SE 8.0 mph12.9 kmh 29.94 in1013.9 mb 0.00 in0.0 mm 0.00 in0.0 mm 0.00 in0.0 mm
01:47 AM 38.2°F3.4°C 35.2°F1.8°C 89% 6.2 mph SE10.0 kmh SE 8.0 mph12.9 kmh 29.94 in1013.9 mb 0.00 in0.0 mm 0.00 in0.0 mm 0.00 in0.0 mm
01:48 AM 38.1°F3.4°C 35.2°F1.8°C 89% 5.9 mph SE9.5 kmh SE 8.0 mph12.9 kmh 29.94 in1013.9 mb 0.00 in0.0 mm 0.00 in0.0 mm 0.00 in0.0 mm
01:49 AM 38.2°F3.4°C 35.2°F1.8°C 89% 6.5 mph SE10.5 kmh SE 9.0 mph14.5 kmh 29.94 in1013.9 mb 0.00 in0.0 mm 0.00 in0.0 mm 0.00 in0.0 mm
01:50 AM 38.1°F3.4°C 35.2°F1.8°C 89% 4.1 mph SE6.6 kmh SE 9.0 mph14.5 kmh 29.94 in1013.9 mb 0.00 in0.0 mm 0.00 in0.0 mm 0.00 in0.0 mm
01:51 AM 38.2°F3.4°C 35.2°F1.8°C 89% 5.0 mph SE8.0 kmh SE 8.0 mph12.9 kmh 29.93 in1013.5 mb 0.00 in0.0 mm 0.00 in0.0 mm 0.00 in0.0 mm
01:52 AM 38.2°F3.4°C 35.2°F1.8°C 89% 7.9 mph SE12.7 kmh SE 10.0 mph16.1 kmh 29.93 in1013.5 mb 0.00 in0.0 mm 0.00 in0.0 mm 0.00 in0.0 mm
01:53 AM 38.1°F3.4°C 35.2°F1.8°C 89% 6.8 mph SE10.9 kmh SE 10.0 mph16.1 kmh 29.93 in1013.5 mb 0.00 in0.0 mm 0.00 in0.0 mm 0.00 in0.0 mm
01:54 AM 38.1°F3.4°C 35.2°F1.8°C 89% 6.6 mph SE10.6 kmh SE 10.0 mph16.1 kmh 29.93 in1013.5 mb 0.00 in0.0 mm 0.00 in0.0 mm 0.00 in0.0 mm
01:55 AM 38.1°F3.4°C 35.2°F1.8°C 89% 6.5 mph SE10.5 kmh SE 10.0 mph16.1 kmh 29.93 in1013.5 mb 0.00 in0.0 mm 0.00 in0.0 mm 0.00 in0.0 mm
01:56 AM 38.1°F3.4°C 35.2°F1.8°C 89% 5.9 mph SE9.5 kmh SE 9.0 mph14.5 kmh 29.93 in1013.5 mb 0.00 in0.0 mm 0.00 in0.0 mm 0.00 in0.0 mm
01:57 AM 38.1°F3.4°C 35.2°F1.8°C 89% 6.4 mph SE10.3 kmh SE 10.0 mph16.1 kmh 29.93 in1013.5 mb 0.00 in0.0 mm 0.00 in0.0 mm 0.00 in0.0 mm
01:58 AM 38.2°F3.4°C 35.2°F1.8°C 89% 4.7 mph SE7.6 kmh SE 10.0 mph16.1 kmh 29.93 in1013.5 mb 0.00 in0.0 mm 0.00 in0.0 mm 0.00 in0.0 mm
01:59 AM 38.1°F3.4°C 35.2°F1.8°C 89% 4.9 mph SE7.9 kmh SE 8.0 mph12.9 kmh 29.93 in1013.5 mb 0.00 in0.0 mm 0.00 in0.0 mm 0.00 in0.0 mm
02:00 AM 38.1°F3.4°C 35.2°F1.8°C 89% 5.9 mph SE9.5 kmh SE 8.0 mph12.9 kmh 29.93 in1013.5 mb 0.00 in0.0 mm 0.00 in0.0 mm 0.00 in0.0 mm
02:01 AM 38.1°F3.4°C 35.2°F1.8°C 89% 5.3 mph SE8.5 kmh SE 9.0 mph14.5 kmh 29.93 in1013.5 mb 0.00 in0.0 mm 0.00 in0.0 mm 0.00 in0.0 mm
02:02 AM 38.1°F3.4°C 35.2°F1.8°C 89% 6.1 mph SE9.8 kmh SE 10.0 mph16.1 kmh 29.93 in1013.5 mb 0.00 in0.0 mm 0.00 in0.0 mm 0.00 in0.0 mm
02:03 AM 38.1°F3.4°C 35.2°F1.8°C 89% 5.5 mph SE8.9 kmh SE 10.0 mph16.1 kmh 29.93 in1013.5 mb 0.00 in0.0 mm 0.00 in0.0 mm 0.00 in0.0 mm
02:04 AM 38.2°F3.4°C 35.2°F1.8°C 89% 6.0 mph SE9.7 kmh SE 9.0 mph14.5 kmh 29.93 in1013.5 mb 0.00 in0.0 mm 0.00 in0.0 mm 0.00 in0.0 mm
02:05 AM 38.2°F3.4°C 35.2°F1.8°C 89% 7.2 mph SE11.6 kmh SE 11.0 mph17.7 kmh 29.93 in1013.5 mb 0.00 in0.0 mm 0.00 in0.0 mm 0.00 in0.0 mm
02:06 AM 38.2°F3.4°C 35.2°F1.8°C 89% 6.2 mph SE10.0 kmh SE 11.0 mph17.7 kmh 29.93 in1013.5 mb 0.00 in0.0 mm 0.00 in0.0 mm 0.00 in0.0 mm
02:07 AM 38.2°F3.4°C 35.2°F1.8°C 89% 6.6 mph SE10.6 kmh SE 9.0 mph14.5 kmh 29.93 in1013.5 mb 0.00 in0.0 mm 0.00 in0.0 mm 0.00 in0.0 mm
02:08 AM 38.2°F3.4°C 35.2°F1.8°C 89% 5.1 mph SE8.2 kmh SE 9.0 mph14.5 kmh 29.93 in1013.5 mb 0.00 in0.0 mm 0.00 in0.0 mm 0.00 in0.0 mm
02:09 AM 38.1°F3.4°C 35.2°F1.8°C 89% 5.2 mph SE8.4 kmh SE 8.0 mph12.9 kmh 29.93 in1013.5 mb 0.00 in0.0 mm 0.00 in0.0 mm 0.00 in0.0 mm
02:10 AM 38.2°F3.4°C 35.2°F1.8°C 89% 5.2 mph SE8.4 kmh SE 9.0 mph14.5 kmh 29.93 in1013.5 mb 0.00 in0.0 mm 0.00 in0.0 mm 0.00 in0.0 mm
02:11 AM 38.1°F3.4°C 35.2°F1.8°C 89% 4.7 mph SE7.6 kmh SE 9.0 mph14.5 kmh 29.93 in1013.5 mb 0.00 in0.0 mm 0.00 in0.0 mm 0.00 in0.0 mm
02:12 AM 38.1°F3.4°C 35.2°F1.8°C 89% 3.1 mph SE5.0 kmh SE 8.0 mph12.9 kmh 29.93 in1013.5 mb 0.00 in0.0 mm 0.00 in0.0 mm 0.00 in0.0 mm
02:13 AM 38.2°F3.4°C 35.2°F1.8°C 89% 5.6 mph SE9.0 kmh SE 9.0 mph14.5 kmh 29.93 in1013.5 mb 0.00 in0.0 mm 0.00 in0.0 mm 0.00 in0.0 mm
02:14 AM 38.1°F3.4°C 35.2°F1.8°C 89% 6.1 mph SE9.8 kmh SE 10.0 mph16.1 kmh 29.93 in1013.5 mb 0.00 in0.0 mm 0.00 in0.0 mm 0.00 in0.0 mm
02:15 AM 38.1°F3.4°C 35.2°F1.8°C 89% 6.7 mph SE10.8 kmh SE 10.0 mph16.1 kmh 29.93 in1013.5 mb 0.00 in0.0 mm 0.00 in0.0 mm 0.00 in0.0 mm
02:16 AM 38.1°F3.4°C 35.2°F1.8°C 89% 6.5 mph SE10.5 kmh SE 9.0 mph14.5 kmh 29.93 in1013.5 mb 0.00 in0.0 mm 0.00 in0.0 mm 0.00 in0.0 mm
02:17 AM 38.2°F3.4°C 35.2°F1.8°C 89% 5.1 mph SE8.2 kmh SE 9.0 mph14.5 kmh 29.93 in1013.5 mb 0.00 in0.0 mm 0.00 in0.0 mm 0.00 in0.0 mm
02:18 AM 38.1°F3.4°C 35.2°F1.8°C 89% 5.7 mph SE9.2 kmh SE 8.0 mph12.9 kmh 29.93 in1013.5 mb 0.00 in0.0 mm 0.00 in0.0 mm 0.00 in0.0 mm
02:19 AM 38.2°F3.4°C 35.2°F1.8°C 89% 6.1 mph SE9.8 kmh SE 8.0 mph12.9 kmh 29.93 in1013.5 mb 0.00 in0.0 mm 0.00 in0.0 mm 0.00 in0.0 mm
02:20 AM 38.2°F3.4°C 35.2°F1.8°C 89% 5.2 mph SE8.4 kmh SE 8.0 mph12.9 kmh 29.93 in1013.5 mb 0.00 in0.0 mm 0.00 in0.0 mm 0.00 in0.0 mm
02:21 AM 38.2°F3.4°C 35.2°F1.8°C 89% 4.5 mph SE7.2 kmh SE 7.0 mph11.3 kmh 29.93 in1013.5 mb 0.00 in0.0 mm 0.00 in0.0 mm 0.00 in0.0 mm
02:22 AM 38.2°F3.4°C 35.2°F1.8°C 89% 5.7 mph SE9.2 kmh SE 9.0 mph14.5 kmh 29.93 in1013.5 mb 0.00 in0.0 mm 0.00 in0.0 mm 0.00 in0.0 mm
02:23 AM 38.2°F3.4°C 35.2°F1.8°C 89% 5.5 mph SE8.9 kmh SE 9.0 mph14.5 kmh 29.93 in1013.5 mb 0.00 in0.0 mm 0.00 in0.0 mm 0.00 in0.0 mm
02:24 AM 38.2°F3.4°C 35.2°F1.8°C 89% 4.3 mph SE6.9 kmh SE 8.0 mph12.9 kmh 29.93 in1013.5 mb 0.00 in0.0 mm 0.00 in0.0 mm 0.00 in0.0 mm
02:25 AM 38.1°F3.4°C 35.2°F1.8°C 89% 5.5 mph SE8.9 kmh SE 10.0 mph16.1 kmh 29.93 in1013.5 mb 0.00 in0.0 mm 0.00 in0.0 mm 0.00 in0.0 mm
02:26 AM 38.2°F3.4°C 35.2°F1.8°C 89% 6.8 mph SE10.9 kmh SE 10.0 mph16.1 kmh 29.93 in1013.5 mb 0.00 in0.0 mm 0.00 in0.0 mm 0.00 in0.0 mm
02:27 AM 38.2°F3.4°C 35.2°F1.8°C 89% 8.1 mph SE13.0 kmh SE 9.0 mph14.5 kmh 29.93 in1013.5 mb 0.00 in0.0 mm 0.00 in0.0 mm 0.00 in0.0 mm
02:28 AM 38.2°F3.4°C 35.2°F1.8°C 89% 6.3 mph SE10.1 kmh SE 10.0 mph16.1 kmh 29.93 in1013.5 mb 0.00 in0.0 mm 0.00 in0.0 mm 0.00 in0.0 mm
02:29 AM 38.2°F3.4°C 35.2°F1.8°C 89% 5.9 mph SE9.5 kmh SE 10.0 mph16.1 kmh 29.93 in1013.5 mb 0.00 in0.0 mm 0.00 in0.0 mm 0.00 in0.0 mm
02:30 AM 38.2°F3.4°C 35.2°F1.8°C 89% 5.0 mph SE8.0 kmh SE 8.0 mph12.9 kmh 29.93 in1013.5 mb 0.00 in0.0 mm 0.00 in0.0 mm 0.00 in0.0 mm
02:31 AM 38.2°F3.4°C 35.2°F1.8°C 89% 5.9 mph SE9.5 kmh SE 9.0 mph14.5 kmh 29.93 in1013.5 mb 0.00 in0.0 mm 0.00 in0.0 mm 0.00 in0.0 mm
02:32 AM 38.2°F3.4°C 35.5°F1.9°C 90% 3.7 mph SE6.0 kmh SE 9.0 mph14.5 kmh 29.93 in1013.5 mb 0.00 in0.0 mm 0.00 in0.0 mm 0.00 in0.0 mm
02:33 AM 38.2°F3.4°C 35.5°F1.9°C 90% 3.0 mph SE4.8 kmh SE 5.0 mph8.0 kmh 29.93 in1013.5 mb 0.00 in0.0 mm 0.00 in0.0 mm 0.00 in0.0 mm
02:34 AM 38.2°F3.4°C 35.5°F1.9°C 90% 6.1 mph SE9.8 kmh SE 9.0 mph14.5 kmh 29.92 in1013.2 mb 0.00 in0.0 mm 0.00 in0.0 mm 0.00 in0.0 mm
02:35 AM 38.2°F3.4°C 35.5°F1.9°C 90% 6.0 mph SE9.7 kmh SE 9.0 mph14.5 kmh 29.92 in1013.2 mb 0.00 in0.0 mm 0.00 in0.0 mm 0.00 in0.0 mm
02:36 AM 38.2°F3.4°C 35.5°F1.9°C 90% 8.3 mph SE13.4 kmh SE 10.0 mph16.1 kmh 29.92 in1013.2 mb 0.00 in0.0 mm 0.00 in0.0 mm 0.00 in0.0 mm
02:37 AM 38.2°F3.4°C 35.5°F1.9°C 90% 4.6 mph SE7.4 kmh SE 10.0 mph16.1 kmh 29.92 in1013.2 mb 0.00 in0.0 mm 0.00 in0.0 mm 0.00 in0.0 mm
02:38 AM 38.2°F3.4°C 35.5°F1.9°C 90% 4.7 mph SE7.6 kmh SE 8.0 mph12.9 kmh 29.92 in1013.2 mb 0.00 in0.0 mm 0.00 in0.0 mm 0.00 in0.0 mm
02:39 AM 38.2°F3.4°C 35.5°F1.9°C 90% 5.4 mph SE8.7 kmh SE 8.0 mph12.9 kmh 29.92 in1013.2 mb 0.00 in0.0 mm 0.00 in0.0 mm 0.00 in0.0 mm
02:40 AM 38.1°F3.4°C 35.4°F1.9°C 90% 6.4 mph SE10.3 kmh SE 9.0 mph14.5 kmh 29.92 in1013.2 mb 0.00 in0.0 mm 0.00 in0.0 mm 0.00 in0.0 mm
02:41 AM 38.1°F3.4°C 35.4°F1.9°C 90% 5.1 mph ESE8.2 kmh ESE 9.0 mph14.5 kmh 29.92 in1013.2 mb 0.00 in0.0 mm 0.00 in0.0 mm 0.00 in0.0 mm
02:42 AM 38.1°F3.4°C 35.4°F1.9°C 90% 4.4 mph SE7.1 kmh SE 8.0 mph12.9 kmh 29.92 in1013.2 mb 0.00 in0.0 mm 0.00 in0.0 mm 0.00 in0.0 mm
02:43 AM 38.1°F3.4°C 35.4°F1.9°C 90% 5.0 mph SE8.0 kmh SE 8.0 mph12.9 kmh 29.92 in1013.2 mb 0.00 in0.0 mm 0.00 in0.0 mm 0.00 in0.0 mm
02:44 AM 38.1°F3.4°C 35.2°F1.8°C 89% 4.7 mph SE7.6 kmh SE 8.0 mph12.9 kmh 29.93 in1013.5 mb 0.00 in0.0 mm 0.00 in0.0 mm 0.00 in0.0 mm
02:45 AM 38.1°F3.4°C 35.2°F1.8°C 89% 6.1 mph SE9.8 kmh SE 8.0 mph12.9 kmh 29.93 in1013.5 mb 0.00 in0.0 mm 0.00 in0.0 mm 0.00 in0.0 mm
02:46 AM 38.1°F3.4°C 35.2°F1.8°C 89% 7.4 mph SE11.9 kmh SE 9.0 mph14.5 kmh 29.93 in1013.5 mb 0.00 in0.0 mm 0.00 in0.0 mm 0.00 in0.0 mm
02:47 AM 38.1°F3.4°C 35.4°F1.9°C 90% 4.6 mph ESE7.4 kmh ESE 9.0 mph14.5 kmh 29.93 in1013.5 mb 0.00 in0.0 mm 0.00 in0.0 mm 0.00 in0.0 mm
02:48 AM 38.1°F3.4°C 35.2°F1.8°C 89% 5.0 mph SE8.0 kmh SE 8.0 mph12.9 kmh 29.92 in1013.2 mb 0.00 in0.0 mm 0.00 in0.0 mm 0.00 in0.0 mm
02:49 AM 38.1°F3.4°C 35.4°F1.9°C 90% 8.2 mph ESE13.2 kmh ESE 10.0 mph16.1 kmh 29.92 in1013.2 mb 0.00 in0.0 mm 0.00 in0.0 mm 0.00 in0.0 mm
02:50 AM 38.1°F3.4°C 35.4°F1.9°C 90% 5.9 mph ESE9.5 kmh ESE 10.0 mph16.1 kmh 29.92 in1013.2 mb 0.00 in0.0 mm 0.00 in0.0 mm 0.00 in0.0 mm
02:51 AM 38.1°F3.4°C 35.4°F1.9°C 90% 7.3 mph ESE11.7 kmh ESE 9.0 mph14.5 kmh 29.91 in1012.9 mb 0.00 in0.0 mm 0.00 in0.0 mm 0.00 in0.0 mm
02:52 AM 38.2°F3.4°C 35.5°F1.9°C 90% 6.0 mph ESE9.7 kmh ESE 8.0 mph12.9 kmh 29.91 in1012.9 mb 0.00 in0.0 mm 0.00 in0.0 mm 0.00 in0.0 mm
02:53 AM 38.1°F3.4°C 35.4°F1.9°C 90% 5.0 mph ESE8.0 kmh ESE 10.0 mph16.1 kmh 29.92 in1013.2 mb 0.00 in0.0 mm 0.00 in0.0 mm 0.00 in0.0 mm
02:54 AM 38.1°F3.4°C 35.4°F1.9°C 90% 5.8 mph SE9.3 kmh SE 7.0 mph11.3 kmh 29.92 in1013.2 mb 0.00 in0.0 mm 0.00 in0.0 mm 0.00 in0.0 mm
02:55 AM 38.2°F3.4°C 35.5°F1.9°C 90% 4.5 mph SE7.2 kmh SE 7.0 mph11.3 kmh 29.92 in1013.2 mb 0.00 in0.0 mm 0.00 in0.0 mm 0.00 in0.0 mm
02:56 AM 38.1°F3.4°C 35.4°F1.9°C 90% 6.0 mph SE9.7 kmh SE 8.0 mph12.9 kmh 29.91 in1012.9 mb 0.00 in0.0 mm 0.00 in0.0 mm 0.00 in0.0 mm
02:57 AM 38.1°F3.4°C 35.4°F1.9°C 90% 7.2 mph SE11.6 kmh SE 9.0 mph14.5 kmh 29.91 in1012.9 mb 0.00 in0.0 mm 0.00 in0.0 mm 0.00 in0.0 mm
02:58 AM 38.1°F3.4°C 35.4°F1.9°C 90% 5.8 mph SE9.3 kmh SE 9.0 mph14.5 kmh 29.91 in1012.9 mb 0.00 in0.0 mm 0.00 in0.0 mm 0.00 in0.0 mm
02:59 AM 38.1°F3.4°C 35.4°F1.9°C 90% 7.6 mph SE12.2 kmh SE 9.0 mph14.5 kmh 29.91 in1012.9 mb 0.00 in0.0 mm 0.00 in0.0 mm 0.00 in0.0 mm
03:00 AM 38.2°F3.4°C 35.5°F1.9°C 90% 8.1 mph SE13.0 kmh SE 10.0 mph16.1 kmh 29.91 in1012.9 mb 0.00 in0.0 mm 0.00 in0.0 mm 0.00 in0.0 mm
03:01 AM 38.2°F3.4°C 35.5°F1.9°C 90% 4.4 mph SE7.1 kmh SE 10.0 mph16.1 kmh 29.91 in1012.9 mb 0.00 in0.0 mm 0.00 in0.0 mm 0.00 in0.0 mm
03:02 AM 38.2°F3.4°C 35.5°F1.9°C 90% 4.4 mph SE7.1 kmh SE 8.0 mph12.9 kmh 29.91 in1012.9 mb 0.00 in0.0 mm 0.00 in0.0 mm 0.00 in0.0 mm
03:03 AM 38.1°F3.4°C 35.4°F1.9°C 90% 5.6 mph SE9.0 kmh SE 8.0 mph12.9 kmh 29.91 in1012.9 mb 0.00 in0.0 mm 0.00 in0.0 mm 0.00 in0.0 mm
03:04 AM 38.2°F3.4°C 35.5°F1.9°C 90% 6.5 mph SE10.5 kmh SE 9.0 mph14.5 kmh 29.91 in1012.9 mb 0.00 in0.0 mm 0.00 in0.0 mm 0.00 in0.0 mm
03:05 AM 38.1°F3.4°C 35.4°F1.9°C 90% 5.8 mph SE9.3 kmh SE 9.0 mph14.5 kmh 29.91 in1012.9 mb 0.00 in0.0 mm 0.00 in0.0 mm 0.00 in0.0 mm
03:06 AM 38.1°F3.4°C 35.4°F1.9°C 90% 7.0 mph SE11.3 kmh SE 10.0 mph16.1 kmh 29.91 in1012.9 mb 0.00 in0.0 mm 0.00 in0.0 mm 0.00 in0.0 mm
03:07 AM 38.1°F3.4°C 35.4°F1.9°C 90% 6.1 mph SE9.8 kmh SE 10.0 mph16.1 kmh 29.91 in1012.9 mb 0.00 in0.0 mm 0.00 in0.0 mm 0.00 in0.0 mm
03:08 AM 38.1°F3.4°C 35.4°F1.9°C 90% 5.7 mph SE9.2 kmh SE 8.0 mph12.9 kmh 29.91 in1012.9 mb 0.00 in0.0 mm 0.00 in0.0 mm 0.00 in0.0 mm
03:09 AM 38.1°F3.4°C 35.4°F1.9°C 90% 6.2 mph SE10.0 kmh SE 8.0 mph12.9 kmh 29.91 in1012.9 mb 0.00 in0.0 mm 0.00 in0.0 mm 0.00 in0.0 mm
03:10 AM 38.1°F3.4°C 35.4°F1.9°C 90% 4.4 mph ESE7.1 kmh ESE 8.0 mph12.9 kmh 29.91 in1012.9 mb 0.00 in0.0 mm 0.00 in0.0 mm 0.00 in0.0 mm
03:11 AM 38.2°F3.4°C 35.5°F1.9°C 90% 6.3 mph SE10.1 kmh SE 8.0 mph12.9 kmh 29.91 in1012.9 mb 0.00 in0.0 mm 0.00 in0.0 mm 0.00 in0.0 mm
03:12 AM 38.1°F3.4°C 35.4°F1.9°C 90% 3.9 mph SE6.3 kmh SE 8.0 mph12.9 kmh 29.91 in1012.9 mb 0.00 in0.0 mm 0.00 in0.0 mm 0.00 in0.0 mm
03:13 AM 38.1°F3.4°C 35.4°F1.9°C 90% 6.3 mph SE10.1 kmh SE 8.0 mph12.9 kmh 29.91 in1012.9 mb 0.00 in0.0 mm 0.00 in0.0 mm 0.00 in0.0 mm
03:14 AM 38.1°F3.4°C 35.4°F1.9°C 90% 7.0 mph SE11.3 kmh SE 10.0 mph16.1 kmh 29.91 in1012.9 mb 0.00 in0.0 mm 0.00 in0.0 mm 0.00 in0.0 mm
03:15 AM 38.1°F3.4°C 35.4°F1.9°C 90% 7.5 mph ESE12.1 kmh ESE 10.0 mph16.1 kmh 29.91 in1012.9 mb 0.00 in0.0 mm 0.00 in0.0 mm 0.00 in0.0 mm
03:16 AM 38.1°F3.4°C 35.4°F1.9°C 90% 7.5 mph SE12.1 kmh SE 10.0 mph16.1 kmh 29.90 in1012.5 mb 0.00 in0.0 mm 0.00 in0.0 mm 0.00 in0.0 mm
03:17 AM 38.1°F3.4°C 35.4°F1.9°C 90% 7.5 mph SE12.1 kmh SE 10.0 mph16.1 kmh 29.90 in1012.5 mb 0.00 in0.0 mm 0.00 in0.0 mm 0.00 in0.0 mm
03:18 AM 38.1°F3.4°C 35.4°F1.9°C 90% 7.9 mph SE12.7 kmh SE 10.0 mph16.1 kmh 29.90 in1012.5 mb 0.00 in0.0 mm 0.00 in0.0 mm 0.00 in0.0 mm
03:19 AM 38.1°F3.4°C 35.4°F1.9°C 90% 5.1 mph SE8.2 kmh SE 10.0 mph16.1 kmh 29.90 in1012.5 mb 0.00 in0.0 mm 0.00 in0.0 mm 0.00 in0.0 mm
03:20 AM 38.1°F3.4°C 35.4°F1.9°C 90% 6.0 mph ESE9.7 kmh ESE 8.0 mph12.9 kmh 29.90 in1012.5 mb 0.00 in0.0 mm 0.00 in0.0 mm 0.00 in0.0 mm
03:21 AM 38.1°F3.4°C 35.4°F1.9°C 90% 4.6 mph SE7.4 kmh SE 8.0 mph12.9 kmh 29.90 in1012.5 mb 0.00 in0.0 mm 0.00 in0.0 mm 0.00 in0.0 mm
03:22 AM 38.1°F3.4°C 35.4°F1.9°C 90% 6.6 mph SE10.6 kmh SE 9.0 mph14.5 kmh 29.90 in1012.5 mb 0.00 in0.0 mm 0.00 in0.0 mm 0.00 in0.0 mm
03:23 AM 38.0°F3.3°C 35.3°F1.8°C 90% 7.1 mph ESE11.4 kmh ESE 9.0 mph14.5 kmh 29.90 in1012.5 mb 0.00 in0.0 mm 0.00 in0.0 mm 0.00 in0.0 mm
03:24 AM 38.1°F3.4°C 35.4°F1.9°C 90% 6.7 mph ESE10.8 kmh ESE 9.0 mph14.5 kmh 29.90 in1012.5 mb 0.00 in0.0 mm 0.00 in0.0 mm 0.00 in0.0 mm
03:25 AM 38.0°F3.3°C 35.3°F1.8°C 90% 7.2 mph SE11.6 kmh SE 10.0 mph16.1 kmh 29.90 in1012.5 mb 0.00 in0.0 mm 0.00 in0.0 mm 0.00 in0.0 mm
03:26 AM 38.1°F3.4°C 35.4°F1.9°C 90% 7.6 mph SE12.2 kmh SE 10.0 mph16.1 kmh 29.90 in1012.5 mb 0.00 in0.0 mm 0.00 in0.0 mm 0.00 in0.0 mm
03:27 AM 38.1°F3.4°C 35.4°F1.9°C 90% 7.4 mph SE11.9 kmh SE 9.0 mph14.5 kmh 29.90 in1012.5 mb 0.00 in0.0 mm 0.00 in0.0 mm 0.00 in0.0 mm
03:28 AM 38.1°F3.4°C 35.4°F1.9°C 90% 7.0 mph ESE11.3 kmh ESE 9.0 mph14.5 kmh 29.90 in1012.5 mb 0.01 in0.3 mm 0.60 in15.2 mm 0.01 in0.3 mm
03:29 AM 38.1°F3.4°C 35.4°F1.9°C 90% 7.0 mph SE11.3 kmh SE 8.0 mph12.9 kmh 29.90 in1012.5 mb 0.01 in0.3 mm 0.00 in0.0 mm 0.01 in0.3 mm
03:30 AM 38.1°F3.4°C 35.4°F1.9°C 90% 7.0 mph SE11.3 kmh SE 8.0 mph12.9 kmh 29.90 in1012.5 mb 0.01 in0.3 mm 0.00 in0.0 mm 0.01 in0.3 mm
03:31 AM 38.1°F3.4°C 35.4°F1.9°C 90% 8.4 mph SE13.5 kmh SE 10.0 mph16.1 kmh 29.90 in1012.5 mb 0.01 in0.3 mm 0.00 in0.0 mm 0.01 in0.3 mm
03:32 AM 38.1°F3.4°C 35.4°F1.9°C 90% 8.6 mph SE13.8 kmh SE 11.0 mph17.7 kmh 29.90 in1012.5 mb 0.01 in0.3 mm 0.00 in0.0 mm 0.01 in0.3 mm
03:33 AM 38.0°F3.3°C 35.3°F1.8°C 90% 7.6 mph SE12.2 kmh SE 11.0 mph17.7 kmh 29.90 in1012.5 mb 0.01 in0.3 mm 0.00 in0.0 mm 0.01 in0.3 mm
03:34 AM 38.1°F3.4°C 35.4°F1.9°C 90% 8.1 mph SE13.0 kmh SE 11.0 mph17.7 kmh 29.90 in1012.5 mb 0.01 in0.3 mm 0.00 in0.0 mm 0.01 in0.3 mm
03:35 AM 38.1°F3.4°C 35.4°F1.9°C 90% 8.7 mph SE14.0 kmh SE 12.0 mph19.3 kmh 29.89 in1012.2 mb 0.01 in0.3 mm 0.00 in0.0 mm 0.01 in0.3 mm
03:36 AM 38.1°F3.4°C 35.4°F1.9°C 90% 6.7 mph SE10.8 kmh SE 12.0 mph19.3 kmh 29.89 in1012.2 mb 0.01 in0.3 mm 0.00 in0.0 mm 0.01 in0.3 mm
03:37 AM 38.1°F3.4°C 35.4°F1.9°C 90% 7.6 mph ESE12.2 kmh ESE 11.0 mph17.7 kmh 29.89 in1012.2 mb 0.01 in0.3 mm 0.00 in0.0 mm 0.01 in0.3 mm
03:38 AM 38.1°F3.4°C 35.4°F1.9°C 90% 7.2 mph SE11.6 kmh SE 11.0 mph17.7 kmh 29.89 in1012.2 mb 0.01 in0.3 mm 0.00 in0.0 mm 0.01 in0.3 mm
03:39 AM 38.0°F3.3°C 35.3°F1.8°C 90% 7.2 mph SE11.6 kmh SE 9.0 mph14.5 kmh 29.89 in1012.2 mb 0.01 in0.3 mm 0.00 in0.0 mm 0.01 in0.3 mm
03:40 AM 38.1°F3.4°C 35.4°F1.9°C 90% 7.6 mph SE12.2 kmh SE 10.0 mph16.1 kmh 29.89 in1012.2 mb 0.01 in0.3 mm 0.00 in0.0 mm 0.01 in0.3 mm
03:41 AM 38.0°F3.3°C 35.3°F1.8°C 90% 9.7 mph SE15.6 kmh SE 12.0 mph19.3 kmh 29.89 in1012.2 mb 0.01 in0.3 mm 0.00 in0.0 mm 0.01 in0.3 mm
03:42 AM 38.1°F3.4°C 35.4°F1.9°C 90% 8.9 mph ESE14.3 kmh ESE 12.0 mph19.3 kmh 29.89 in1012.2 mb 0.01 in0.3 mm 0.00 in0.0 mm 0.01 in0.3 mm
03:43 AM 38.1°F3.4°C 35.4°F1.9°C 90% 7.1 mph SE11.4 kmh SE 11.0 mph17.7 kmh 29.89 in1012.2 mb 0.01 in0.3 mm 0.00 in0.0 mm 0.01 in0.3 mm
03:44 AM 38.1°F3.4°C 35.4°F1.9°C 90% 7.4 mph SE11.9 kmh SE 11.0 mph17.7 kmh 29.89 in1012.2 mb 0.01 in0.3 mm 0.00 in0.0 mm 0.01 in0.3 mm
03:45 AM 38.1°F3.4°C 35.4°F1.9°C 90% 8.0 mph SE12.9 kmh SE 11.0 mph17.7 kmh 29.88 in1011.9 mb 0.01 in0.3 mm 0.00 in0.0 mm 0.01 in0.3 mm
03:46 AM 38.1°F3.4°C 35.7°F2.1°C 91% 7.9 mph ESE12.7 kmh ESE 11.0 mph17.7 kmh 29.88 in1011.9 mb 0.01 in0.3 mm 0.00 in0.0 mm 0.01 in0.3 mm
03:47 AM 38.1°F3.4°C 35.7°F2.1°C 91% 8.1 mph SE13.0 kmh SE 11.0 mph17.7 kmh 29.88 in1011.9 mb 0.01 in0.3 mm 0.00 in0.0 mm 0.01 in0.3 mm
03:48 AM 38.1°F3.4°C 35.7°F2.1°C 91% 7.1 mph SE11.4 kmh SE 10.0 mph16.1 kmh 29.88 in1011.9 mb 0.01 in0.3 mm 0.00 in0.0 mm 0.01 in0.3 mm
03:49 AM 38.1°F3.4°C 35.7°F2.1°C 91% 7.6 mph SE12.2 kmh SE 9.0 mph14.5 kmh 29.88 in1011.9 mb 0.01 in0.3 mm 0.00 in0.0 mm 0.01 in0.3 mm
03:50 AM 38.1°F3.4°C 35.7°F2.1°C 91% 8.2 mph SE13.2 kmh SE 10.0 mph16.1 kmh 29.88 in1011.9 mb 0.01 in0.3 mm 0.00 in0.0 mm 0.01 in0.3 mm
03:51 AM 38.1°F3.4°C 35.7°F2.1°C 91% 7.7 mph SE12.4 kmh SE 10.0 mph16.1 kmh 29.88 in1011.9 mb 0.01 in0.3 mm 0.00 in0.0 mm 0.01 in0.3 mm
03:52 AM 38.1°F3.4°C 35.7°F2.1°C 91% 7.3 mph SE11.7 kmh SE 10.0 mph16.1 kmh 29.88 in1011.9 mb 0.01 in0.3 mm 0.00 in0.0 mm 0.01 in0.3 mm
03:53 AM 38.1°F3.4°C 35.7°F2.1°C 91% 7.7 mph SE12.4 kmh SE 10.0 mph16.1 kmh 29.88 in1011.9 mb 0.01 in0.3 mm 0.00 in0.0 mm 0.01 in0.3 mm
03:54 AM 38.1°F3.4°C 35.7°F2.1°C 91% 7.0 mph SE11.3 kmh SE 10.0 mph16.1 kmh 29.88 in1011.9 mb 0.01 in0.3 mm 0.00 in0.0 mm 0.01 in0.3 mm
03:55 AM 38.1°F3.4°C 35.7°F2.1°C 91% 8.4 mph SE13.5 kmh SE 11.0 mph17.7 kmh 29.88 in1011.9 mb 0.01 in0.3 mm 0.00 in0.0 mm 0.01 in0.3 mm
03:56 AM 38.2°F3.4°C 35.8°F2.1°C 91% 7.2 mph ESE11.6 kmh ESE 11.0 mph17.7 kmh 29.88 in1011.9 mb 0.01 in0.3 mm 0.00 in0.0 mm 0.01 in0.3 mm
03:57 AM 38.1°F3.4°C 35.7°F2.1°C 91% 8.3 mph SE13.4 kmh SE 10.0 mph16.1 kmh 29.88 in1011.9 mb 0.01 in0.3 mm 0.00 in0.0 mm 0.01 in0.3 mm
03:58 AM 38.1°F3.4°C 35.7°F2.1°C 91% 6.1 mph ESE9.8 kmh ESE 10.0 mph16.1 kmh 29.88 in1011.9 mb 0.01 in0.3 mm 0.00 in0.0 mm 0.01 in0.3 mm
03:59 AM 38.1°F3.4°C 35.7°F2.1°C 91% 7.0 mph ESE11.3 kmh ESE 9.0 mph14.5 kmh 29.88 in1011.9 mb 0.01 in0.3 mm 0.00 in0.0 mm 0.01 in0.3 mm
04:00 AM 38.1°F3.4°C 35.4°F1.9°C 90% 5.6 mph ESE9.0 kmh ESE 9.0 mph14.5 kmh 29.88 in1011.9 mb 0.01 in0.3 mm 0.00 in0.0 mm 0.01 in0.3 mm
04:01 AM 38.1°F3.4°C 35.7°F2.1°C 91% 7.6 mph ESE12.2 kmh ESE 10.0 mph16.1 kmh 29.88 in1011.9 mb 0.01 in0.3 mm 0.00 in0.0 mm 0.01 in0.3 mm
04:02 AM 38.2°F3.4°C 35.8°F2.1°C 91% 7.3 mph ESE11.7 kmh ESE 10.0 mph16.1 kmh 29.88 in1011.9 mb 0.01 in0.3 mm 0.00 in0.0 mm 0.01 in0.3 mm
04:03 AM 38.1°F3.4°C 35.7°F2.1°C 91% 7.6 mph ESE12.2 kmh ESE 11.0 mph17.7 kmh 29.88 in1011.9 mb 0.01 in0.3 mm 0.00 in0.0 mm 0.01 in0.3 mm
04:04 AM 38.1°F3.4°C 35.7°F2.1°C 91% 5.8 mph ESE9.3 kmh ESE 11.0 mph17.7 kmh 29.88 in1011.9 mb 0.01 in0.3 mm 0.00 in0.0 mm 0.01 in0.3 mm
04:05 AM 38.1°F3.4°C 35.7°F2.1°C 91% 7.0 mph ESE11.3 kmh ESE 9.0 mph14.5 kmh 29.88 in1011.9 mb 0.01 in0.3 mm 0.00 in0.0 mm 0.01 in0.3 mm
04:06 AM 38.1°F3.4°C 35.4°F1.9°C 90% 4.9 mph ESE7.9 kmh ESE 9.0 mph14.5 kmh 29.88 in1011.9 mb 0.01 in0.3 mm 0.00 in0.0 mm 0.01 in0.3 mm
04:07 AM 38.1°F3.4°C 35.7°F2.1°C 91% 7.0 mph ESE11.3 kmh ESE 9.0 mph14.5 kmh 29.88 in1011.9 mb 0.01 in0.3 mm 0.00 in0.0 mm 0.01 in0.3 mm
04:08 AM 38.1°F3.4°C 35.7°F2.1°C 91% 5.4 mph ESE8.7 kmh ESE 9.0 mph14.5 kmh 29.88 in1011.9 mb 0.01 in0.3 mm 0.00 in0.0 mm 0.01 in0.3 mm
04:09 AM 38.2°F3.4°C 35.8°F2.1°C 91% 4.1 mph ESE6.6 kmh ESE 8.0 mph12.9 kmh 29.88 in1011.9 mb 0.01 in0.3 mm 0.00 in0.0 mm 0.01 in0.3 mm
04:10 AM 38.1°F3.4°C 35.7°F2.1°C 91% 5.8 mph ESE9.3 kmh ESE 10.0 mph16.1 kmh 29.88 in1011.9 mb 0.01 in0.3 mm 0.00 in0.0 mm 0.01 in0.3 mm
04:11 AM 38.1°F3.4°C 35.7°F2.1°C 91% 6.7 mph ESE10.8 kmh ESE 10.0 mph16.1 kmh 29.88 in1011.9 mb 0.01 in0.3 mm 0.00 in0.0 mm 0.01 in0.3 mm
04:12 AM 38.1°F3.4°C 35.7°F2.1°C 91% 7.0 mph ESE11.3 kmh ESE 11.0 mph17.7 kmh 29.88 in1011.9 mb 0.01 in0.3 mm 0.00 in0.0 mm 0.01 in0.3 mm
04:13 AM 38.1°F3.4°C 35.7°F2.1°C 91% 6.3 mph E10.1 kmh E 11.0 mph17.7 kmh 29.88 in1011.9 mb 0.01 in0.3 mm 0.00 in0.0 mm 0.01 in0.3 mm
04:14 AM 38.1°F3.4°C 35.4°F1.9°C 90% 6.7 mph ESE10.8 kmh ESE 9.0 mph14.5 kmh 29.88 in1011.9 mb 0.01 in0.3 mm 0.00 in0.0 mm 0.01 in0.3 mm
04:15 AM 38.1°F3.4°C 35.7°F2.1°C 91% 6.8 mph ESE10.9 kmh ESE 10.0 mph16.1 kmh 29.88 in1011.9 mb 0.01 in0.3 mm 0.00 in0.0 mm 0.01 in0.3 mm
04:16 AM 38.1°F3.4°C 35.7°F2.1°C 91% 6.7 mph ESE10.8 kmh ESE 10.0 mph16.1 kmh 29.88 in1011.9 mb 0.01 in0.3 mm 0.00 in0.0 mm 0.01 in0.3 mm
04:17 AM 38.1°F3.4°C 35.4°F1.9°C 90% 5.2 mph E8.4 kmh E 8.0 mph12.9 kmh 29.88 in1011.9 mb 0.01 in0.3 mm 0.00 in0.0 mm 0.01 in0.3 mm
04:18 AM 38.1°F3.4°C 35.4°F1.9°C 90% 5.7 mph E9.2 kmh E 9.0 mph14.5 kmh 29.88 in1011.9 mb 0.01 in0.3 mm 0.00 in0.0 mm 0.01 in0.3 mm
04:19 AM 38.1°F3.4°C 35.4°F1.9°C 90% 6.0 mph E9.7 kmh E 9.0 mph14.5 kmh 29.88 in1011.9 mb 0.01 in0.3 mm 0.00 in0.0 mm 0.01 in0.3 mm
04:20 AM 38.1°F3.4°C 35.4°F1.9°C 90% 6.6 mph ESE10.6 kmh ESE 9.0 mph14.5 kmh 29.88 in1011.9 mb 0.01 in0.3 mm 0.00 in0.0 mm 0.01 in0.3 mm
04:21 AM 38.1°F3.4°C 35.4°F1.9°C 90% 7.1 mph E11.4 kmh E 9.0 mph14.5 kmh 29.88 in1011.9 mb 0.01 in0.3 mm 0.00 in0.0 mm 0.01 in0.3 mm
04:22 AM 38.0°F3.3°C 35.3°F1.8°C 90% 4.8 mph E7.7 kmh E 9.0 mph14.5 kmh 29.88 in1011.9 mb 0.01 in0.3 mm 0.00 in0.0 mm 0.01 in0.3 mm
04:23 AM 38.1°F3.4°C 35.4°F1.9°C 90% 5.2 mph E8.4 kmh E 9.0 mph14.5 kmh 29.88 in1011.9 mb 0.01 in0.3 mm 0.00 in0.0 mm 0.01 in0.3 mm
04:24 AM 38.0°F3.3°C 35.3°F1.8°C 90% 5.8 mph ESE9.3 kmh ESE 9.0 mph14.5 kmh 29.88 in1011.9 mb 0.01 in0.3 mm 0.00 in0.0 mm 0.01 in0.3 mm
04:25 AM 38.1°F3.4°C 35.4°F1.9°C 90% 5.7 mph E9.2 kmh E 8.0 mph12.9 kmh 29.88 in1011.9 mb 0.01 in0.3 mm 0.00 in0.0 mm 0.01 in0.3 mm
04:26 AM 38.0°F3.3°C 35.3°F1.8°C 90% 4.9 mph E7.9 kmh E 7.0 mph11.3 kmh 29.88 in1011.9 mb 0.01 in0.3 mm 0.00 in0.0 mm 0.01 in0.3 mm
04:27 AM 38.1°F3.4°C 35.4°F1.9°C 90% 5.1 mph E8.2 kmh E 7.0 mph11.3 kmh 29.88 in1011.9 mb 0.01 in0.3 mm 0.00 in0.0 mm 0.01 in0.3 mm
04:28 AM 38.0°F3.3°C 35.6°F2.0°C 91% 6.2 mph E10.0 kmh E 8.0 mph12.9 kmh 29.88 in1011.9 mb 0.00 in0.0 mm 0.00 in0.0 mm 0.01 in0.3 mm
04:29 AM 38.0°F3.3°C 35.6°F2.0°C 91% 6.2 mph E10.0 kmh E 8.0 mph12.9 kmh 29.88 in1011.9 mb 0.00 in0.0 mm 0.00 in0.0 mm 0.01 in0.3 mm
04:30 AM 38.0°F3.3°C 35.6°F2.0°C 91% 6.2 mph E10.0 kmh E 8.0 mph12.9 kmh 29.88 in1011.9 mb 0.00 in0.0 mm 0.00 in0.0 mm 0.01 in0.3 mm
04:31 AM 38.1°F3.4°C 35.7°F2.1°C 91% 7.3 mph E11.7 kmh E 9.0 mph14.5 kmh 29.88 in1011.9 mb 0.00 in0.0 mm 0.00 in0.0 mm 0.01 in0.3 mm
04:32 AM 38.0°F3.3°C 35.6°F2.0°C 91% 6.8 mph E10.9 kmh E 9.0 mph14.5 kmh 29.88 in1011.9 mb 0.00 in0.0 mm 0.00 in0.0 mm 0.01 in0.3 mm
04:33 AM 38.0°F3.3°C 35.6°F2.0°C 91% 7.0 mph E11.3 kmh E 9.0 mph14.5 kmh 29.88 in1011.9 mb 0.00 in0.0 mm 0.00 in0.0 mm 0.01 in0.3 mm
04:34 AM 38.1°F3.4°C 35.7°F2.1°C 91% 7.0 mph E11.3 kmh E 11.0 mph17.7 kmh 29.88 in1011.9 mb 0.00 in0.0 mm 0.00 in0.0 mm 0.01 in0.3 mm
04:35 AM 38.0°F3.3°C 35.6°F2.0°C 91% 8.5 mph E13.7 kmh E 11.0 mph17.7 kmh 29.88 in1011.9 mb 0.00 in0.0 mm 0.00 in0.0 mm 0.01 in0.3 mm
04:36 AM 38.0°F3.3°C 35.6°F2.0°C 91% 6.1 mph E9.8 kmh E 11.0 mph17.7 kmh 29.88 in1011.9 mb 0.00 in0.0 mm 0.00 in0.0 mm 0.01 in0.3 mm
04:37 AM 38.0°F3.3°C 35.6°F2.0°C 91% 5.9 mph E9.5 kmh E 10.0 mph16.1 kmh 29.88 in1011.9 mb 0.01 in0.3 mm 0.60 in15.2 mm 0.02 in0.5 mm
04:38 AM 38.0°F3.3°C 35.6°F2.0°C 91% 6.7 mph E10.8 kmh E 10.0 mph16.1 kmh 29.88 in1011.9 mb 0.01 in0.3 mm 0.00 in0.0 mm 0.02 in0.5 mm
04:39 AM 38.0°F3.3°C 35.6°F2.0°C 91% 5.2 mph E8.4 kmh E 9.0 mph14.5 kmh 29.88 in1011.9 mb 0.01 in0.3 mm 0.00 in0.0 mm 0.02 in0.5 mm
04:40 AM 38.0°F3.3°C 35.6°F2.0°C 91% 5.3 mph E8.5 kmh E 7.0 mph11.3 kmh 29.88 in1011.9 mb 0.01 in0.3 mm 0.00 in0.0 mm 0.02 in0.5 mm
04:41 AM 38.0°F3.3°C 35.6°F2.0°C 91% 5.5 mph E8.9 kmh E 9.0 mph14.5 kmh 29.88 in1011.9 mb 0.01 in0.3 mm 0.00 in0.0 mm 0.02 in0.5 mm
04:42 AM 38.0°F3.3°C 35.6°F2.0°C 91% 7.5 mph E12.1 kmh E 11.0 mph17.7 kmh 29.88 in1011.9 mb 0.01 in0.3 mm 0.00 in0.0 mm 0.02 in0.5 mm
04:43 AM 38.0°F3.3°C 35.6°F2.0°C 91% 7.0 mph E11.3 kmh E 11.0 mph17.7 kmh 29.88 in1011.9 mb 0.01 in0.3 mm 0.00 in0.0 mm 0.02 in0.5 mm
04:44 AM 38.0°F3.3°C 35.6°F2.0°C 91% 7.4 mph E11.9 kmh E 10.0 mph16.1 kmh 29.88 in1011.9 mb 0.01 in0.3 mm 0.00 in0.0 mm 0.02 in0.5 mm
04:45 AM 38.0°F3.3°C 35.6°F2.0°C 91% 6.7 mph E10.8 kmh E 10.0 mph16.1 kmh 29.89 in1012.2 mb 0.01 in0.3 mm 0.00 in0.0 mm 0.02 in0.5 mm
04:46 AM 38.0°F3.3°C 35.6°F2.0°C 91% 7.2 mph E11.6 kmh E 10.0 mph16.1 kmh 29.88 in1011.9 mb 0.01 in0.3 mm 0.00 in0.0 mm 0.02 in0.5 mm
04:47 AM 38.0°F3.3°C 35.6°F2.0°C 91% 8.2 mph E13.2 kmh E 10.0 mph16.1 kmh 29.89 in1012.2 mb 0.01 in0.3 mm 0.00 in0.0 mm 0.02 in0.5 mm
04:48 AM 38.0°F3.3°C 35.6°F2.0°C 91% 5.7 mph E9.2 kmh E 10.0 mph16.1 kmh 29.89 in1012.2 mb 0.01 in0.3 mm 0.00 in0.0 mm 0.02 in0.5 mm
04:49 AM 38.0°F3.3°C 35.6°F2.0°C 91% 6.9 mph E11.1 kmh E 10.0 mph16.1 kmh 29.89 in1012.2 mb 0.01 in0.3 mm 0.00 in0.0 mm 0.02 in0.5 mm
04:50 AM 37.9°F3.3°C 35.5°F1.9°C 91% 5.8 mph E9.3 kmh E 10.0 mph16.1 kmh 29.88 in1011.9 mb 0.01 in0.3 mm 0.00 in0.0 mm 0.02 in0.5 mm
04:51 AM 38.0°F3.3°C 35.6°F2.0°C 91% 6.3 mph E10.1 kmh E 9.0 mph14.5 kmh 29.88 in1011.9 mb 0.02 in0.5 mm 0.60 in15.2 mm 0.02 in0.5 mm
04:52 AM 38.0°F3.3°C 35.6°F2.0°C 91% 8.0 mph E12.9 kmh E 10.0 mph16.1 kmh 29.88 in1011.9 mb 0.02 in0.5 mm 0.00 in0.0 mm 0.02 in0.5 mm
04:53 AM 37.9°F3.3°C 35.5°F1.9°C 91% 8.0 mph E12.9 kmh E 10.0 mph16.1 kmh 29.88 in1011.9 mb 0.02 in0.5 mm 0.00 in0.0 mm 0.02 in0.5 mm
04:54 AM 37.9°F3.3°C 35.5°F1.9°C 91% 8.2 mph E13.2 kmh E 10.0 mph16.1 kmh 29.88 in1011.9 mb 0.02 in0.5 mm 0.00 in0.0 mm 0.02 in0.5 mm
04:55 AM 37.9°F3.3°C 35.5°F1.9°C 91% 7.5 mph E12.1 kmh E 10.0 mph16.1 kmh 29.88 in1011.9 mb 0.02 in0.5 mm 0.00 in0.0 mm 0.02 in0.5 mm
04:56 AM 37.9°F3.3°C 35.5°F1.9°C 91% 8.3 mph E13.4 kmh E 11.0 mph17.7 kmh 29.88 in1011.9 mb 0.02 in0.5 mm 0.00 in0.0 mm 0.02 in0.5 mm
04:57 AM 37.9°F3.3°C 35.5°F1.9°C 91% 9.2 mph E14.8 kmh E 12.0 mph19.3 kmh 29.88 in1011.9 mb 0.02 in0.5 mm 0.00 in0.0 mm 0.02 in0.5 mm
04:58 AM 37.9°F3.3°C 35.5°F1.9°C 91% 9.4 mph E15.1 kmh E 13.0 mph20.9 kmh 29.88 in1011.9 mb 0.02 in0.5 mm 0.00 in0.0 mm 0.02 in0.5 mm
04:59 AM 37.9°F3.3°C 35.5°F1.9°C 91% 7.9 mph E12.7 kmh E 13.0 mph20.9 kmh 29.88 in1011.9 mb 0.02 in0.5 mm 0.00 in0.0 mm 0.02 in0.5 mm
05:00 AM 37.9°F3.3°C 35.5°F1.9°C 91% 6.3 mph E10.1 kmh E 10.0 mph16.1 kmh 29.88 in1011.9 mb 0.02 in0.5 mm 0.00 in0.0 mm 0.02 in0.5 mm
05:01 AM 37.9°F3.3°C 35.5°F1.9°C 91% 6.9 mph E11.1 kmh E 9.0 mph14.5 kmh 29.88 in1011.9 mb 0.02 in0.5 mm 0.00 in0.0 mm 0.02 in0.5 mm
05:02 AM 37.9°F3.3°C 35.5°F1.9°C 91% 5.9 mph E9.5 kmh E 9.0 mph14.5 kmh 29.88 in1011.9 mb 0.02 in0.5 mm 0.00 in0.0 mm 0.02 in0.5 mm
05:03 AM 37.9°F3.3°C 35.5°F1.9°C 91% 7.0 mph E11.3 kmh E 10.0 mph16.1 kmh 29.88 in1011.9 mb 0.02 in0.5 mm 0.00 in0.0 mm 0.02 in0.5 mm
05:04 AM 37.9°F3.3°C 35.5°F1.9°C 91% 6.4 mph E10.3 kmh E 10.0 mph16.1 kmh 29.88 in1011.9 mb 0.02 in0.5 mm 0.00 in0.0 mm 0.02 in0.5 mm
05:05 AM 37.9°F3.3°C 35.5°F1.9°C 91% 5.6 mph E9.0 kmh E 9.0 mph14.5 kmh 29.88 in1011.9 mb 0.02 in0.5 mm 0.00 in0.0 mm 0.02 in0.5 mm
05:06 AM 38.0°F3.3°C 35.6°F2.0°C 91% 6.2 mph E10.0 kmh E 11.0 mph17.7 kmh 29.88 in1011.9 mb 0.02 in0.5 mm 0.00 in0.0 mm 0.02 in0.5 mm
05:07 AM 37.9°F3.3°C 35.5°F1.9°C 91% 6.5 mph E10.5 kmh E 11.0 mph17.7 kmh 29.88 in1011.9 mb 0.02 in0.5 mm 0.00 in0.0 mm 0.02 in0.5 mm
05:08 AM 37.9°F3.3°C 35.5°F1.9°C 91% 5.1 mph E8.2 kmh E 8.0 mph12.9 kmh 29.88 in1011.9 mb 0.02 in0.5 mm 0.00 in0.0 mm 0.02 in0.5 mm
05:09 AM 37.9°F3.3°C 35.5°F1.9°C 91% 5.8 mph ESE9.3 kmh ESE 8.0 mph12.9 kmh 29.88 in1011.9 mb 0.02 in0.5 mm 0.00 in0.0 mm 0.02 in0.5 mm
05:10 AM 37.9°F3.3°C 35.5°F1.9°C 91% 5.1 mph E8.2 kmh E 9.0 mph14.5 kmh 29.88 in1011.9 mb 0.02 in0.5 mm 0.00 in0.0 mm 0.02 in0.5 mm
05:11 AM 37.9°F3.3°C 35.5°F1.9°C 91% 6.5 mph E10.5 kmh E 9.0 mph14.5 kmh 29.88 in1011.9 mb 0.02 in0.5 mm 0.00 in0.0 mm 0.02 in0.5 mm
05:12 AM 37.9°F3.3°C 35.5°F1.9°C 91% 5.2 mph E8.4 kmh E 8.0 mph12.9 kmh 29.88 in1011.9 mb 0.02 in0.5 mm 0.00 in0.0 mm 0.02 in0.5 mm
05:13 AM 38.0°F3.3°C 35.6°F2.0°C 91% 5.6 mph E9.0 kmh E 9.0 mph14.5 kmh 29.88 in1011.9 mb 0.02 in0.5 mm 0.00 in0.0 mm 0.02 in0.5 mm
05:14 AM 37.9°F3.3°C 35.5°F1.9°C 91% 5.4 mph ESE8.7 kmh ESE 9.0 mph14.5 kmh 29.88 in1011.9 mb 0.02 in0.5 mm 0.00 in0.0 mm 0.02 in0.5 mm
05:15 AM 38.0°F3.3°C 35.6°F2.0°C 91% 6.6 mph E10.6 kmh E 10.0 mph16.1 kmh 29.88 in1011.9 mb 0.02 in0.5 mm 0.00 in0.0 mm 0.02 in0.5 mm
05:16 AM 38.0°F3.3°C 35.6°F2.0°C 91% 7.7 mph E12.4 kmh E 11.0 mph17.7 kmh 29.88 in1011.9 mb 0.02 in0.5 mm 0.00 in0.0 mm 0.03 in0.8 mm
05:17 AM 38.0°F3.3°C 35.6°F2.0°C 91% 7.2 mph E11.6 kmh E 11.0 mph17.7 kmh 29.88 in1011.9 mb 0.02 in0.5 mm 0.00 in0.0 mm 0.03 in0.8 mm
05:18 AM 38.0°F3.3°C 35.6°F2.0°C 91% 7.9 mph E12.7 kmh E 10.0 mph16.1 kmh 29.88 in1011.9 mb 0.02 in0.5 mm 0.00 in0.0 mm 0.03 in0.8 mm
05:19 AM 38.0°F3.3°C 35.6°F2.0°C 91% 8.9 mph E14.3 kmh E 12.0 mph19.3 kmh 29.88 in1011.9 mb 0.02 in0.5 mm 0.00 in0.0 mm 0.03 in0.8 mm
05:20 AM 38.0°F3.3°C 35.6°F2.0°C 91% 7.1 mph E11.4 kmh E 12.0 mph19.3 kmh 29.88 in1011.9 mb 0.02 in0.5 mm 0.00 in0.0 mm 0.03 in0.8 mm
05:21 AM 38.0°F3.3°C 35.6°F2.0°C 91% 9.0 mph E14.5 kmh E 12.0 mph19.3 kmh 29.88 in1011.9 mb 0.02 in0.5 mm 0.00 in0.0 mm 0.03 in0.8 mm
05:22 AM 38.0°F3.3°C 35.6°F2.0°C 91% 8.0 mph E12.9 kmh E 12.0 mph19.3 kmh 29.87 in1011.5 mb 0.02 in0.5 mm 0.00 in0.0 mm 0.03 in0.8 mm
05:23 AM 38.0°F3.3°C 35.6°F2.0°C 91% 7.1 mph E11.4 kmh E 11.0 mph17.7 kmh 29.87 in1011.5 mb 0.02 in0.5 mm 0.00 in0.0 mm 0.03 in0.8 mm
05:24 AM 38.0°F3.3°C 35.6°F2.0°C 91% 9.2 mph E14.8 kmh E 12.0 mph19.3 kmh 29.87 in1011.5 mb 0.02 in0.5 mm 0.00 in0.0 mm 0.03 in0.8 mm
05:25 AM 38.0°F3.3°C 35.9°F2.2°C 92% 8.3 mph E13.4 kmh E 13.0 mph20.9 kmh 29.87 in1011.5 mb 0.02 in0.5 mm 0.00 in0.0 mm 0.03 in0.8 mm
05:26 AM 38.0°F3.3°C 35.9°F2.2°C 92% 5.4 mph E8.7 kmh E 13.0 mph20.9 kmh 29.87 in1011.5 mb 0.02 in0.5 mm 0.00 in0.0 mm 0.03 in0.8 mm
05:27 AM 38.0°F3.3°C 35.6°F2.0°C 91% 7.5 mph E12.1 kmh E 11.0 mph17.7 kmh 29.87 in1011.5 mb 0.02 in0.5 mm 0.00 in0.0 mm 0.03 in0.8 mm
05:28 AM 38.0°F3.3°C 35.6°F2.0°C 91% 7.9 mph E12.7 kmh E 11.0 mph17.7 kmh 29.87 in1011.5 mb 0.02 in0.5 mm 0.00 in0.0 mm 0.03 in0.8 mm
05:29 AM 38.0°F3.3°C 35.6°F2.0°C 91% 9.3 mph E15.0 kmh E 13.0 mph20.9 kmh 29.87 in1011.5 mb 0.02 in0.5 mm 0.00 in0.0 mm 0.03 in0.8 mm
05:30 AM 38.0°F3.3°C 35.6°F2.0°C 91% 6.3 mph E10.1 kmh E 13.0 mph20.9 kmh 29.87 in1011.5 mb 0.02 in0.5 mm 0.00 in0.0 mm 0.03 in0.8 mm
05:31 AM 38.0°F3.3°C 35.6°F2.0°C 91% 6.9 mph E11.1 kmh E 9.0 mph14.5 kmh 29.87 in1011.5 mb 0.02 in0.5 mm 0.00 in0.0 mm 0.03 in0.8 mm
05:32 AM 38.0°F3.3°C 35.6°F2.0°C 91% 7.8 mph E12.6 kmh E 9.0 mph14.5 kmh 29.87 in1011.5 mb 0.03 in0.8 mm 0.60 in15.2 mm 0.04 in1.0 mm
05:33 AM 38.0°F3.3°C 35.6°F2.0°C 91% 9.0 mph E14.5 kmh E 12.0 mph19.3 kmh 29.87 in1011.5 mb 0.03 in0.8 mm 0.00 in0.0 mm 0.04 in1.0 mm
05:34 AM 37.9°F3.3°C 35.8°F2.1°C 92% 5.0 mph ESE8.0 kmh ESE 9.0 mph14.5 kmh 29.87 in1011.5 mb 0.03 in0.8 mm 0.00 in0.0 mm 0.04 in1.0 mm
05:35 AM 38.0°F3.3°C 35.6°F2.0°C 91% 8.0 mph ESE12.9 kmh ESE 11.0 mph17.7 kmh 29.87 in1011.5 mb 0.03 in0.8 mm 0.00 in0.0 mm 0.04 in1.0 mm
05:36 AM 38.0°F3.3°C 35.9°F2.2°C 92% 8.6 mph E13.8 kmh E 11.0 mph17.7 kmh 29.87 in1011.5 mb 0.03 in0.8 mm 0.00 in0.0 mm 0.04 in1.0 mm
05:37 AM 38.0°F3.3°C 35.9°F2.2°C 92% 6.4 mph ESE10.3 kmh ESE 11.0 mph17.7 kmh 29.87 in1011.5 mb 0.02 in0.5 mm 0.00 in0.0 mm 0.04 in1.0 mm
05:38 AM 38.0°F3.3°C 35.9°F2.2°C 92% 6.0 mph E9.7 kmh E 10.0 mph16.1 kmh 29.86 in1011.2 mb 0.02 in0.5 mm 0.00 in0.0 mm 0.04 in1.0 mm
05:39 AM 38.0°F3.3°C 35.9°F2.2°C 92% 6.5 mph ESE10.5 kmh ESE 9.0 mph14.5 kmh 29.86 in1011.2 mb 0.02 in0.5 mm 0.00 in0.0 mm 0.04 in1.0 mm
05:40 AM 38.0°F3.3°C 35.9°F2.2°C 92% 6.6 mph ESE10.6 kmh ESE 9.0 mph14.5 kmh 29.86 in1011.2 mb 0.02 in0.5 mm 0.00 in0.0 mm 0.04 in1.0 mm
05:41 AM 38.0°F3.3°C 35.9°F2.2°C 92% 7.2 mph ESE11.6 kmh ESE 10.0 mph16.1 kmh 29.86 in1011.2 mb 0.02 in0.5 mm 0.00 in0.0 mm 0.04 in1.0 mm
05:42 AM 38.0°F3.3°C 35.9°F2.2°C 92% 8.0 mph ESE12.9 kmh ESE 11.0 mph17.7 kmh 29.86 in1011.2 mb 0.02 in0.5 mm 0.00 in0.0 mm 0.04 in1.0 mm
05:43 AM 38.1°F3.4°C 36.0°F2.2°C 92% 7.8 mph ESE12.6 kmh ESE 11.0 mph17.7 kmh 29.86 in1011.2 mb 0.02 in0.5 mm 0.00 in0.0 mm 0.04 in1.0 mm
05:44 AM 38.0°F3.3°C 35.9°F2.2°C 92% 7.4 mph E11.9 kmh E 11.0 mph17.7 kmh 29.86 in1011.2 mb 0.02 in0.5 mm 0.00 in0.0 mm 0.04 in1.0 mm
05:45 AM 38.1°F3.4°C 36.0°F2.2°C 92% 7.3 mph ESE11.7 kmh ESE 11.0 mph17.7 kmh 29.86 in1011.2 mb 0.02 in0.5 mm 0.00 in0.0 mm 0.04 in1.0 mm
05:46 AM 38.0°F3.3°C 35.9°F2.2°C 92% 6.8 mph ESE10.9 kmh ESE 11.0 mph17.7 kmh 29.86 in1011.2 mb 0.02 in0.5 mm 0.00 in0.0 mm 0.04 in1.0 mm
05:47 AM 38.1°F3.4°C 36.0°F2.2°C 92% 9.3 mph ESE15.0 kmh ESE 13.0 mph20.9 kmh 29.86 in1011.2 mb 0.02 in0.5 mm 0.00 in0.0 mm 0.04 in1.0 mm
05:48 AM 38.1°F3.4°C 36.0°F2.2°C 92% 7.3 mph ESE11.7 kmh ESE 13.0 mph20.9 kmh 29.86 in1011.2 mb 0.02 in0.5 mm 0.00 in0.0 mm 0.04 in1.0 mm
05:49 AM 38.1°F3.4°C 36.0°F2.2°C 92% 8.0 mph ESE12.9 kmh ESE 10.0 mph16.1 kmh 29.86 in1011.2 mb 0.02 in0.5 mm 0.00 in0.0 mm 0.04 in1.0 mm
05:50 AM 38.1°F3.4°C 36.0°F2.2°C 92% 8.1 mph ESE13.0 kmh ESE 11.0 mph17.7 kmh 29.86 in1011.2 mb 0.02 in0.5 mm 0.00 in0.0 mm 0.04 in1.0 mm
05:51 AM 38.1°F3.4°C 36.0°F2.2°C 92% 9.0 mph ESE14.5 kmh ESE 11.0 mph17.7 kmh 29.86 in1011.2 mb 0.02 in0.5 mm 0.00 in0.0 mm 0.04 in1.0 mm
05:52 AM 38.1°F3.4°C 36.0°F2.2°C 92% 8.7 mph ESE14.0 kmh ESE 11.0 mph17.7 kmh 29.86 in1011.2 mb 0.02 in0.5 mm 0.00 in0.0 mm 0.04 in1.0 mm
05:53 AM 38.2°F3.4°C 36.1°F2.3°C 92% 8.8 mph ESE14.2 kmh ESE 12.0 mph19.3 kmh 29.86 in1011.2 mb 0.02 in0.5 mm 0.00 in0.0 mm 0.04 in1.0 mm
05:54 AM 38.2°F3.4°C 36.1°F2.3°C 92% 8.1 mph E13.0 kmh E 12.0 mph19.3 kmh 29.86 in1011.2 mb 0.02 in0.5 mm 0.00 in0.0 mm 0.04 in1.0 mm
05:55 AM 38.1°F3.4°C 36.0°F2.2°C 92% 6.3 mph ESE10.1 kmh ESE 10.0 mph16.1 kmh 29.86 in1011.2 mb 0.02 in0.5 mm 0.00 in0.0 mm 0.04 in1.0 mm
05:56 AM 38.1°F3.4°C 36.0°F2.2°C 92% 8.3 mph ESE13.4 kmh ESE 11.0 mph17.7 kmh 29.86 in1011.2 mb 0.02 in0.5 mm 0.00 in0.0 mm 0.04 in1.0 mm
05:57 AM 38.2°F3.4°C 36.1°F2.3°C 92% 7.5 mph ESE12.1 kmh ESE 11.0 mph17.7 kmh 29.86 in1011.2 mb 0.02 in0.5 mm 0.00 in0.0 mm 0.04 in1.0 mm
05:58 AM 38.1°F3.4°C 36.0°F2.2°C 92% 7.9 mph ESE12.7 kmh ESE 12.0 mph19.3 kmh 29.86 in1011.2 mb 0.02 in0.5 mm 0.00 in0.0 mm 0.04 in1.0 mm
05:59 AM 38.2°F3.4°C 36.1°F2.3°C 92% 8.3 mph ESE13.4 kmh ESE 12.0 mph19.3 kmh 29.86 in1011.2 mb 0.02 in0.5 mm 0.00 in0.0 mm 0.04 in1.0 mm
06:00 AM 38.2°F3.4°C 36.1°F2.3°C 92% 7.4 mph ESE11.9 kmh ESE 11.0 mph17.7 kmh 29.86 in1011.2 mb 0.02 in0.5 mm 0.00 in0.0 mm 0.04 in1.0 mm
06:01 AM 38.1°F3.4°C 36.0°F2.2°C 92% 9.1 mph ESE14.6 kmh ESE 13.0 mph20.9 kmh 29.86 in1011.2 mb 0.02 in0.5 mm 0.00 in0.0 mm 0.04 in1.0 mm
06:02 AM 38.2°F3.4°C 36.1°F2.3°C 92% 5.9 mph ESE9.5 kmh ESE 13.0 mph20.9 kmh 29.86 in1011.2 mb 0.02 in0.5 mm 0.00 in0.0 mm 0.04 in1.0 mm
06:03 AM 38.2°F3.4°C 36.1°F2.3°C 92% 7.2 mph ESE11.6 kmh ESE 9.0 mph14.5 kmh 29.86 in1011.2 mb 0.02 in0.5 mm 0.00 in0.0 mm 0.04 in1.0 mm
06:04 AM 38.2°F3.4°C 36.1°F2.3°C 92% 8.5 mph ESE13.7 kmh ESE 11.0 mph17.7 kmh 29.86 in1011.2 mb 0.02 in0.5 mm 0.00 in0.0 mm 0.04 in1.0 mm
06:05 AM 38.2°F3.4°C 36.1°F2.3°C 92% 7.3 mph ESE11.7 kmh ESE 11.0 mph17.7 kmh 29.86 in1011.2 mb 0.02 in0.5 mm 0.00 in0.0 mm 0.04 in1.0 mm
06:06 AM 38.2°F3.4°C 36.1°F2.3°C 92% 7.8 mph ESE12.6 kmh ESE 12.0 mph19.3 kmh 29.86 in1011.2 mb 0.02 in0.5 mm 0.00 in0.0 mm 0.04 in1.0 mm
06:07 AM 38.2°F3.4°C 36.1°F2.3°C 92% 7.7 mph ESE12.4 kmh ESE 12.0 mph19.3 kmh 29.86 in1011.2 mb 0.02 in0.5 mm 0.00 in0.0 mm 0.04 in1.0 mm
06:08 AM 38.2°F3.4°C 36.1°F2.3°C 92% 7.9 mph ESE12.7 kmh ESE 11.0 mph17.7 kmh 29.86 in1011.2 mb 0.02 in0.5 mm 0.00 in0.0 mm 0.04 in1.0 mm
06:09 AM 38.2°F3.4°C 36.1°F2.3°C 92% 9.0 mph E14.5 kmh E 13.0 mph20.9 kmh 29.86 in1011.2 mb 0.02 in0.5 mm 0.00 in0.0 mm 0.04 in1.0 mm
06:10 AM 38.2°F3.4°C 36.1°F2.3°C 92% 10.0 mph ESE16.1 kmh ESE 13.0 mph20.9 kmh 29.86 in1011.2 mb 0.02 in0.5 mm 0.00 in0.0 mm 0.04 in1.0 mm
06:11 AM 38.2°F3.4°C 36.1°F2.3°C 92% 7.0 mph ESE11.3 kmh ESE 10.0 mph16.1 kmh 29.86 in1011.2 mb 0.02 in0.5 mm 0.00 in0.0 mm 0.04 in1.0 mm
06:12 AM 38.3°F3.5°C 36.2°F2.3°C 92% 8.2 mph E13.2 kmh E 11.0 mph17.7 kmh 29.86 in1011.2 mb 0.02 in0.5 mm 0.00 in0.0 mm 0.04 in1.0 mm
06:13 AM 38.3°F3.5°C 36.2°F2.3°C 92% 9.6 mph E15.4 kmh E 11.0 mph17.7 kmh 29.86 in1011.2 mb 0.02 in0.5 mm 0.00 in0.0 mm 0.04 in1.0 mm
06:14 AM 38.3°F3.5°C 36.2°F2.3°C 92% 10.0 mph E16.1 kmh E 14.0 mph22.5 kmh 29.86 in1011.2 mb 0.02 in0.5 mm 0.00 in0.0 mm 0.04 in1.0 mm
06:15 AM 38.3°F3.5°C 36.2°F2.3°C 92% 9.3 mph E15.0 kmh E 14.0 mph22.5 kmh 29.86 in1011.2 mb 0.02 in0.5 mm 0.00 in0.0 mm 0.04 in1.0 mm
06:16 AM 38.3°F3.5°C 36.2°F2.3°C 92% 8.6 mph ESE13.8 kmh ESE 13.0 mph20.9 kmh 29.86 in1011.2 mb 0.01 in0.3 mm 0.00 in0.0 mm 0.04 in1.0 mm
06:17 AM 38.3°F3.5°C 36.2°F2.3°C 92% 7.8 mph E12.6 kmh E 11.0 mph17.7 kmh 29.86 in1011.2 mb 0.01 in0.3 mm 0.00 in0.0 mm 0.04 in1.0 mm
06:18 AM 38.3°F3.5°C 36.2°F2.3°C 92% 8.4 mph ESE13.5 kmh ESE 13.0 mph20.9 kmh 29.86 in1011.2 mb 0.01 in0.3 mm 0.00 in0.0 mm 0.04 in1.0 mm
06:19 AM 38.3°F3.5°C 36.2°F2.3°C 92% 8.7 mph ESE14.0 kmh ESE 13.0 mph20.9 kmh 29.86 in1011.2 mb 0.01 in0.3 mm 0.00 in0.0 mm 0.04 in1.0 mm
06:20 AM 38.3°F3.5°C 36.2°F2.3°C 92% 9.1 mph ESE14.6 kmh ESE 12.0 mph19.3 kmh 29.86 in1011.2 mb 0.01 in0.3 mm 0.00 in0.0 mm 0.04 in1.0 mm
06:21 AM 38.3°F3.5°C 36.2°F2.3°C 92% 8.4 mph ESE13.5 kmh ESE 11.0 mph17.7 kmh 29.85 in1010.8 mb 0.01 in0.3 mm 0.00 in0.0 mm 0.04 in1.0 mm
06:22 AM 38.3°F3.5°C 36.2°F2.3°C 92% 8.2 mph E13.2 kmh E 11.0 mph17.7 kmh 29.85 in1010.8 mb 0.01 in0.3 mm 0.00 in0.0 mm 0.04 in1.0 mm
06:23 AM 38.3°F3.5°C 36.2°F2.3°C 92% 6.2 mph ESE10.0 kmh ESE 11.0 mph17.7 kmh 29.85 in1010.8 mb 0.01 in0.3 mm 0.00 in0.0 mm 0.04 in1.0 mm
06:24 AM 38.3°F3.5°C 36.2°F2.3°C 92% 8.5 mph E13.7 kmh E 12.0 mph19.3 kmh 29.86 in1011.2 mb 0.01 in0.3 mm 0.00 in0.0 mm 0.04 in1.0 mm
06:25 AM 38.3°F3.5°C 36.2°F2.3°C 92% 8.0 mph ESE12.9 kmh ESE 12.0 mph19.3 kmh 29.86 in1011.2 mb 0.01 in0.3 mm 0.00 in0.0 mm 0.04 in1.0 mm
06:26 AM 38.3°F3.5°C 36.2°F2.3°C 92% 8.5 mph ESE13.7 kmh ESE 11.0 mph17.7 kmh 29.86 in1011.2 mb 0.01 in0.3 mm 0.00 in0.0 mm 0.04 in1.0 mm
06:27 AM 38.3°F3.5°C 36.2°F2.3°C 92% 7.7 mph ESE12.4 kmh ESE 11.0 mph17.7 kmh 29.86 in1011.2 mb 0.01 in0.3 mm 0.00 in0.0 mm 0.04 in1.0 mm
06:28 AM 38.4°F3.6°C 36.3°F2.4°C 92% 8.0 mph ESE12.9 kmh ESE 10.0 mph16.1 kmh 29.86 in1011.2 mb 0.01 in0.3 mm 0.00 in0.0 mm 0.04 in1.0 mm
06:29 AM 38.3°F3.5°C 36.2°F2.3°C 92% 8.3 mph ESE13.4 kmh ESE 10.0 mph16.1 kmh 29.86 in1011.2 mb 0.01 in0.3 mm 0.00 in0.0 mm 0.04 in1.0 mm
06:30 AM 38.4°F3.6°C 36.3°F2.4°C 92% 6.4 mph ESE10.3 kmh ESE 10.0 mph16.1 kmh 29.86 in1011.2 mb 0.01 in0.3 mm 0.00 in0.0 mm 0.04 in1.0 mm
06:31 AM 38.4°F3.6°C 36.3°F2.4°C 92% 7.0 mph ESE11.3 kmh ESE 10.0 mph16.1 kmh 29.85 in1010.8 mb 0.01 in0.3 mm 0.00 in0.0 mm 0.04 in1.0 mm
06:32 AM 38.4°F3.6°C 36.3°F2.4°C 92% 10.0 mph ESE16.1 kmh ESE 14.0 mph22.5 kmh 29.86 in1011.2 mb 0.00 in0.0 mm 0.00 in0.0 mm 0.04 in1.0 mm
06:33 AM 38.3°F3.5°C 36.2°F2.3°C 92% 9.3 mph ESE15.0 kmh ESE 14.0 mph22.5 kmh 29.86 in1011.2 mb 0.00 in0.0 mm 0.00 in0.0 mm 0.04 in1.0 mm
06:34 AM 38.4°F3.6°C 36.3°F2.4°C 92% 6.4 mph ESE10.3 kmh ESE 11.0 mph17.7 kmh 29.86 in1011.2 mb 0.00 in0.0 mm 0.00 in0.0 mm 0.04 in1.0 mm
06:35 AM 38.4°F3.6°C 36.3°F2.4°C 92% 7.5 mph ESE12.1 kmh ESE 9.0 mph14.5 kmh 29.86 in1011.2 mb 0.00 in0.0 mm 0.00 in0.0 mm 0.04 in1.0 mm
06:36 AM 38.4°F3.6°C 36.3°F2.4°C 92% 5.8 mph SE9.3 kmh SE 9.0 mph14.5 kmh 29.86 in1011.2 mb 0.00 in0.0 mm 0.00 in0.0 mm 0.04 in1.0 mm
06:37 AM 38.4°F3.6°C 36.3°F2.4°C 92% 7.2 mph ESE11.6 kmh ESE 10.0 mph16.1 kmh 29.86 in1011.2 mb 0.00 in0.0 mm 0.00 in0.0 mm 0.04 in1.0 mm
06:38 AM 38.4°F3.6°C 36.3°F2.4°C 92% 7.5 mph SE12.1 kmh SE 10.0 mph16.1 kmh 29.86 in1011.2 mb 0.00 in0.0 mm 0.00 in0.0 mm 0.04 in1.0 mm
06:39 AM 38.4°F3.6°C 36.3°F2.4°C 92% 6.9 mph ESE11.1 kmh ESE 10.0 mph16.1 kmh 29.85 in1010.8 mb 0.00 in0.0 mm 0.00 in0.0 mm 0.04 in1.0 mm
06:40 AM 38.4°F3.6°C 36.3°F2.4°C 92% 6.3 mph SE10.1 kmh SE 10.0 mph16.1 kmh 29.86 in1011.2 mb 0.00 in0.0 mm 0.00 in0.0 mm 0.04 in1.0 mm
06:41 AM 38.5°F3.6°C 36.4°F2.4°C 92% 8.7 mph ESE14.0 kmh ESE 10.0 mph16.1 kmh 29.85 in1010.8 mb 0.00 in0.0 mm 0.00 in0.0 mm 0.04 in1.0 mm
06:42 AM 38.5°F3.6°C 36.4°F2.4°C 92% 8.1 mph SE13.0 kmh SE 10.0 mph16.1 kmh 29.85 in1010.8 mb 0.00 in0.0 mm 0.00 in0.0 mm 0.04 in1.0 mm
06:43 AM 38.5°F3.6°C 36.7°F2.6°C 93% 7.5 mph SE12.1 kmh SE 11.0 mph17.7 kmh 29.85 in1010.8 mb 0.00 in0.0 mm 0.00 in0.0 mm 0.04 in1.0 mm
06:44 AM 38.5°F3.6°C 36.7°F2.6°C 93% 7.7 mph SE12.4 kmh SE 11.0 mph17.7 kmh 29.85 in1010.8 mb 0.00 in0.0 mm 0.00 in0.0 mm 0.04 in1.0 mm
06:45 AM 38.5°F3.6°C 36.7°F2.6°C 93% 7.4 mph SE11.9 kmh SE 9.0 mph14.5 kmh 29.85 in1010.8 mb 0.00 in0.0 mm 0.00 in0.0 mm 0.04 in1.0 mm
06:46 AM 38.5°F3.6°C 36.7°F2.6°C 93% 6.5 mph SE10.5 kmh SE 9.0 mph14.5 kmh 29.85 in1010.8 mb 0.00 in0.0 mm 0.00 in0.0 mm 0.04 in1.0 mm
06:47 AM 38.6°F3.7°C 36.8°F2.7°C 93% 7.3 mph SE11.7 kmh SE 9.0 mph14.5 kmh 29.85 in1010.8 mb 0.00 in0.0 mm 0.00 in0.0 mm 0.04 in1.0 mm
06:48 AM 38.5°F3.6°C 36.7°F2.6°C 93% 8.0 mph SE12.9 kmh SE 10.0 mph16.1 kmh 29.85 in1010.8 mb 0.00 in0.0 mm 0.00 in0.0 mm 0.04 in1.0 mm
06:49 AM 38.6°F3.7°C 36.8°F2.7°C 93% 7.0 mph SE11.3 kmh SE 9.0 mph14.5 kmh 29.85 in1010.8 mb 0.00 in0.0 mm 0.00 in0.0 mm 0.04 in1.0 mm
06:50 AM 38.6°F3.7°C 36.8°F2.7°C 93% 7.0 mph SE11.3 kmh SE 9.0 mph14.5 kmh 29.85 in1010.8 mb 0.00 in0.0 mm 0.00 in0.0 mm 0.04 in1.0 mm
06:51 AM 38.6°F3.7°C 36.8°F2.7°C 93% 8.3 mph SE13.4 kmh SE 10.0 mph16.1 kmh 29.85 in1010.8 mb 0.00 in0.0 mm 0.00 in0.0 mm 0.04 in1.0 mm
06:52 AM 38.6°F3.7°C 36.8°F2.7°C 93% 7.7 mph SE12.4 kmh SE 10.0 mph16.1 kmh 29.85 in1010.8 mb 0.00 in0.0 mm 0.00 in0.0 mm 0.04 in1.0 mm
06:53 AM 38.6°F3.7°C 36.8°F2.7°C 93% 7.4 mph SE11.9 kmh SE 10.0 mph16.1 kmh 29.85 in1010.8 mb 0.00 in0.0 mm 0.00 in0.0 mm 0.04 in1.0 mm
06:54 AM 38.6°F3.7°C 36.8°F2.7°C 93% 5.5 mph SE8.9 kmh SE 9.0 mph14.5 kmh 29.85 in1010.8 mb 0.00 in0.0 mm 0.00 in0.0 mm 0.04 in1.0 mm
06:55 AM 38.6°F3.7°C 36.8°F2.7°C 93% 6.9 mph SE11.1 kmh SE 11.0 mph17.7 kmh 29.85 in1010.8 mb 0.00 in0.0 mm 0.00 in0.0 mm 0.04 in1.0 mm
06:56 AM 38.6°F3.7°C 36.8°F2.7°C 93% 9.5 mph SE15.3 kmh SE 11.0 mph17.7 kmh 29.85 in1010.8 mb 0.00 in0.0 mm 0.00 in0.0 mm 0.04 in1.0 mm
06:57 AM 38.6°F3.7°C 36.8°F2.7°C 93% 7.9 mph SE12.7 kmh SE 11.0 mph17.7 kmh 29.85 in1010.8 mb 0.00 in0.0 mm 0.00 in0.0 mm 0.04 in1.0 mm
06:58 AM 38.7°F3.7°C 36.9°F2.7°C 93% 8.7 mph SE14.0 kmh SE 13.0 mph20.9 kmh 29.85 in1010.8 mb 0.01 in0.3 mm 0.60 in15.2 mm 0.05 in1.3 mm
06:59 AM 38.7°F3.7°C 36.9°F2.7°C 93% 8.4 mph SE13.5 kmh SE 13.0 mph20.9 kmh 29.85 in1010.8 mb 0.01 in0.3 mm 0.00 in0.0 mm 0.05 in1.3 mm
07:00 AM 38.7°F3.7°C 36.9°F2.7°C 93% 7.9 mph SE12.7 kmh SE 10.0 mph16.1 kmh 29.85 in1010.8 mb 0.01 in0.3 mm 0.00 in0.0 mm 0.05 in1.3 mm
07:01 AM 38.7°F3.7°C 36.9°F2.7°C 93% 8.6 mph SE13.8 kmh SE 11.0 mph17.7 kmh 29.85 in1010.8 mb 0.01 in0.3 mm 0.00 in0.0 mm 0.05 in1.3 mm
07:02 AM 38.7°F3.7°C 36.9°F2.7°C 93% 6.9 mph SE11.1 kmh SE 11.0 mph17.7 kmh 29.85 in1010.8 mb 0.01 in0.3 mm 0.00 in0.0 mm 0.05 in1.3 mm
07:03 AM 38.7°F3.7°C 36.9°F2.7°C 93% 5.8 mph SE9.3 kmh SE 10.0 mph16.1 kmh 29.85 in1010.8 mb 0.01 in0.3 mm 0.00 in0.0 mm 0.05 in1.3 mm
07:04 AM 38.7°F3.7°C 36.9°F2.7°C 93% 8.1 mph SE13.0 kmh SE 11.0 mph17.7 kmh 29.85 in1010.8 mb 0.01 in0.3 mm 0.00 in0.0 mm 0.05 in1.3 mm
07:05 AM 38.8°F3.8°C 37.0°F2.8°C 93% 8.8 mph SE14.2 kmh SE 11.0 mph17.7 kmh 29.85 in1010.8 mb 0.01 in0.3 mm 0.00 in0.0 mm 0.05 in1.3 mm
07:06 AM 38.8°F3.8°C 37.0°F2.8°C 93% 7.1 mph SE11.4 kmh SE 10.0 mph16.1 kmh 29.84 in1010.5 mb 0.01 in0.3 mm 0.00 in0.0 mm 0.05 in1.3 mm
07:07 AM 38.8°F3.8°C 37.0°F2.8°C 93% 8.4 mph SE13.5 kmh SE 12.0 mph19.3 kmh 29.84 in1010.5 mb 0.01 in0.3 mm 0.00 in0.0 mm 0.05 in1.3 mm
07:08 AM 38.8°F3.8°C 37.0°F2.8°C 93% 7.5 mph SE12.1 kmh SE 12.0 mph19.3 kmh 29.84 in1010.5 mb 0.01 in0.3 mm 0.00 in0.0 mm 0.05 in1.3 mm
07:09 AM 38.8°F3.8°C 37.0°F2.8°C 93% 8.4 mph SE13.5 kmh SE 11.0 mph17.7 kmh 29.84 in1010.5 mb 0.01 in0.3 mm 0.00 in0.0 mm 0.05 in1.3 mm
07:10 AM 38.8°F3.8°C 37.0°F2.8°C 93% 7.4 mph SE11.9 kmh SE 11.0 mph17.7 kmh 29.84 in1010.5 mb 0.01 in0.3 mm 0.00 in0.0 mm 0.05 in1.3 mm
07:11 AM 38.8°F3.8°C 37.0°F2.8°C 93% 6.7 mph SE10.8 kmh SE 10.0 mph16.1 kmh 29.84 in1010.5 mb 0.01 in0.3 mm 0.00 in0.0 mm 0.05 in1.3 mm
07:12 AM 38.9°F3.8°C 37.1°F2.8°C 93% 8.3 mph SE13.4 kmh SE 12.0 mph19.3 kmh 29.84 in1010.5 mb 0.01 in0.3 mm 0.00 in0.0 mm 0.05 in1.3 mm
07:13 AM 38.9°F3.8°C 37.1°F2.8°C 93% 8.9 mph SE14.3 kmh SE 12.0 mph19.3 kmh 29.84 in1010.5 mb 0.01 in0.3 mm 0.00 in0.0 mm 0.05 in1.3 mm
07:14 AM 38.8°F3.8°C 37.0°F2.8°C 93% 7.4 mph SE11.9 kmh SE 12.0 mph19.3 kmh 29.84 in1010.5 mb 0.01 in0.3 mm 0.00 in0.0 mm 0.05 in1.3 mm
07:15 AM 38.8°F3.8°C 37.0°F2.8°C 93% 8.3 mph SE13.4 kmh SE 11.0 mph17.7 kmh 29.84 in1010.5 mb 0.01 in0.3 mm 0.00 in0.0 mm 0.05 in1.3 mm
07:16 AM 38.9°F3.8°C 37.1°F2.8°C 93% 8.1 mph SE13.0 kmh SE 11.0 mph17.7 kmh 29.84 in1010.5 mb 0.01 in0.3 mm 0.00 in0.0 mm 0.05 in1.3 mm
07:17 AM 38.9°F3.8°C 37.1°F2.8°C 93% 8.6 mph SE13.8 kmh SE 11.0 mph17.7 kmh 29.84 in1010.5 mb 0.01 in0.3 mm 0.00 in0.0 mm 0.05 in1.3 mm
07:18 AM 38.9°F3.8°C 37.1°F2.8°C 93% 6.5 mph SE10.5 kmh SE 11.0 mph17.7 kmh 29.84 in1010.5 mb 0.01 in0.3 mm 0.00 in0.0 mm 0.05 in1.3 mm
07:19 AM 38.9°F3.8°C 37.1°F2.8°C 93% 9.4 mph SE15.1 kmh SE 13.0 mph20.9 kmh 29.84 in1010.5 mb 0.01 in0.3 mm 0.00 in0.0 mm 0.05 in1.3 mm
07:20 AM 38.9°F3.8°C 37.1°F2.8°C 93% 7.7 mph SE12.4 kmh SE 13.0 mph20.9 kmh 29.84 in1010.5 mb 0.01 in0.3 mm 0.00 in0.0 mm 0.05 in1.3 mm
07:21 AM 38.9°F3.8°C 37.1°F2.8°C 93% 7.9 mph SE12.7 kmh SE 12.0 mph19.3 kmh 29.84 in1010.5 mb 0.01 in0.3 mm 0.00 in0.0 mm 0.05 in1.3 mm
07:22 AM 38.9°F3.8°C 37.1°F2.8°C 93% 5.8 mph SE9.3 kmh SE 12.0 mph19.3 kmh 29.84 in1010.5 mb 0.01 in0.3 mm 0.00 in0.0 mm 0.05 in1.3 mm
07:23 AM 38.9°F3.8°C 37.1°F2.8°C 93% 6.8 mph SE10.9 kmh SE 10.0 mph16.1 kmh 29.84 in1010.5 mb 0.01 in0.3 mm 0.00 in0.0 mm 0.05 in1.3 mm
07:24 AM 38.9°F3.8°C 37.1°F2.8°C 93% 6.0 mph SE9.7 kmh SE 10.0 mph16.1 kmh 29.84 in1010.5 mb 0.01 in0.3 mm 0.00 in0.0 mm 0.05 in1.3 mm
07:25 AM 38.9°F3.8°C 37.1°F2.8°C 93% 5.9 mph SE9.5 kmh SE 9.0 mph14.5 kmh 29.84 in1010.5 mb 0.01 in0.3 mm 0.00 in0.0 mm 0.05 in1.3 mm
07:26 AM 38.9°F3.8°C 37.1°F2.8°C 93% 6.5 mph SE10.5 kmh SE 9.0 mph14.5 kmh 29.84 in1010.5 mb 0.01 in0.3 mm 0.00 in0.0 mm 0.05 in1.3 mm
07:27 AM 38.9°F3.8°C 37.1°F2.8°C 93% 9.4 mph SE15.1 kmh SE 12.0 mph19.3 kmh 29.84 in1010.5 mb 0.01 in0.3 mm 0.00 in0.0 mm 0.05 in1.3 mm
07:28 AM 38.9°F3.8°C 37.1°F2.8°C 93% 6.6 mph SE10.6 kmh SE 12.0 mph19.3 kmh 29.84 in1010.5 mb 0.01 in0.3 mm 0.00 in0.0 mm 0.05 in1.3 mm
07:29 AM 38.9°F3.8°C 37.1°F2.8°C 93% 4.7 mph SE7.6 kmh SE 8.0 mph12.9 kmh 29.84 in1010.5 mb 0.01 in0.3 mm 0.00 in0.0 mm 0.05 in1.3 mm
07:30 AM 38.9°F3.8°C 37.1°F2.8°C 93% 5.5 mph SE8.9 kmh SE 8.0 mph12.9 kmh 29.84 in1010.5 mb 0.01 in0.3 mm 0.00 in0.0 mm 0.05 in1.3 mm
07:31 AM 38.9°F3.8°C 37.1°F2.8°C 93% 6.3 mph SE10.1 kmh SE 10.0 mph16.1 kmh 29.84 in1010.5 mb 0.01 in0.3 mm 0.00 in0.0 mm 0.05 in1.3 mm
07:32 AM 39.0°F3.9°C 37.2°F2.9°C 93% 4.2 mph SE6.8 kmh SE 10.0 mph16.1 kmh 29.84 in1010.5 mb 0.01 in0.3 mm 0.00 in0.0 mm 0.05 in1.3 mm
07:33 AM 39.0°F3.9°C 37.2°F2.9°C 93% 5.3 mph SE8.5 kmh SE 7.0 mph11.3 kmh 29.84 in1010.5 mb 0.01 in0.3 mm 0.00 in0.0 mm 0.05 in1.3 mm
07:34 AM 39.0°F3.9°C 37.2°F2.9°C 93% 7.1 mph ESE11.4 kmh ESE 12.0 mph19.3 kmh 29.84 in1010.5 mb 0.01 in0.3 mm 0.00 in0.0 mm 0.05 in1.3 mm
07:35 AM 39.0°F3.9°C 37.2°F2.9°C 93% 5.9 mph SE9.5 kmh SE 12.0 mph19.3 kmh 29.84 in1010.5 mb 0.01 in0.3 mm 0.00 in0.0 mm 0.05 in1.3 mm
07:36 AM 39.0°F3.9°C 37.2°F2.9°C 93% 8.0 mph SE12.9 kmh SE 10.0 mph16.1 kmh 29.84 in1010.5 mb 0.01 in0.3 mm 0.00 in0.0 mm 0.05 in1.3 mm
07:37 AM 39.0°F3.9°C 37.2°F2.9°C 93% 5.5 mph SE8.9 kmh SE 10.0 mph16.1 kmh 29.84 in1010.5 mb 0.01 in0.3 mm 0.00 in0.0 mm 0.05 in1.3 mm
07:38 AM 39.0°F3.9°C 37.2°F2.9°C 93% 4.7 mph SE7.6 kmh SE 8.0 mph12.9 kmh 29.84 in1010.5 mb 0.01 in0.3 mm 0.00 in0.0 mm 0.05 in1.3 mm
07:39 AM 39.0°F3.9°C 37.2°F2.9°C 93% 7.8 mph SE12.6 kmh SE 11.0 mph17.7 kmh 29.84 in1010.5 mb 0.01 in0.3 mm 0.00 in0.0 mm 0.05 in1.3 mm
07:40 AM 39.0°F3.9°C 37.2°F2.9°C 93% 5.5 mph ESE8.9 kmh ESE 11.0 mph17.7 kmh 29.84 in1010.5 mb 0.01 in0.3 mm 0.00 in0.0 mm 0.05 in1.3 mm
07:41 AM 39.1°F3.9°C 37.2°F2.9°C 93% 5.7 mph SE9.2 kmh SE 8.0 mph12.9 kmh 29.84 in1010.5 mb 0.01 in0.3 mm 0.00 in0.0 mm 0.05 in1.3 mm
07:42 AM 39.0°F3.9°C 37.2°F2.9°C 93% 4.8 mph SE7.7 kmh SE 7.0 mph11.3 kmh 29.84 in1010.5 mb 0.01 in0.3 mm 0.00 in0.0 mm 0.05 in1.3 mm
07:43 AM 39.1°F3.9°C 37.2°F2.9°C 93% 8.6 mph SE13.8 kmh SE 11.0 mph17.7 kmh 29.84 in1010.5 mb 0.01 in0.3 mm 0.00 in0.0 mm 0.05 in1.3 mm
07:44 AM 39.1°F3.9°C 37.2°F2.9°C 93% 5.9 mph SE9.5 kmh SE 11.0 mph17.7 kmh 29.84 in1010.5 mb 0.01 in0.3 mm 0.00 in0.0 mm 0.05 in1.3 mm
07:45 AM 39.1°F3.9°C 37.2°F2.9°C 93% 6.3 mph SE10.1 kmh SE 9.0 mph14.5 kmh 29.84 in1010.5 mb 0.01 in0.3 mm 0.00 in0.0 mm 0.05 in1.3 mm
07:46 AM 39.1°F3.9°C 37.2°F2.9°C 93% 7.5 mph SE12.1 kmh SE 10.0 mph16.1 kmh 29.84 in1010.5 mb 0.01 in0.3 mm 0.00 in0.0 mm 0.05 in1.3 mm
07:47 AM 39.1°F3.9°C 37.2°F2.9°C 93% 6.7 mph SE10.8 kmh SE 10.0 mph16.1 kmh 29.84 in1010.5 mb 0.01 in0.3 mm 0.00 in0.0 mm 0.05 in1.3 mm
07:48 AM 39.1°F3.9°C 37.2°F2.9°C 93% 7.6 mph SE12.2 kmh SE 10.0 mph16.1 kmh 29.84 in1010.5 mb 0.01 in0.3 mm 0.00 in0.0 mm 0.05 in1.3 mm
07:49 AM 39.1°F3.9°C 37.2°F2.9°C 93% 7.4 mph SE11.9 kmh SE 10.0 mph16.1 kmh 29.84 in1010.5 mb 0.01 in0.3 mm 0.00 in0.0 mm 0.05 in1.3 mm
07:50 AM 39.1°F3.9°C 37.2°F2.9°C 93% 6.4 mph ESE10.3 kmh ESE 10.0 mph16.1 kmh 29.84 in1010.5 mb 0.01 in0.3 mm 0.00 in0.0 mm 0.05 in1.3 mm
07:51 AM 39.1°F3.9°C 37.2°F2.9°C 93% 8.0 mph SE12.9 kmh SE 11.0 mph17.7 kmh 29.84 in1010.5 mb 0.01 in0.3 mm 0.00 in0.0 mm 0.05 in1.3 mm
07:52 AM 39.1°F3.9°C 37.2°F2.9°C 93% 7.4 mph SE11.9 kmh SE 11.0 mph17.7 kmh 29.84 in1010.5 mb 0.01 in0.3 mm 0.00 in0.0 mm 0.05 in1.3 mm
07:53 AM 39.1°F3.9°C 37.2°F2.9°C 93% 5.0 mph SE8.0 kmh SE 10.0 mph16.1 kmh 29.84 in1010.5 mb 0.01 in0.3 mm 0.00 in0.0 mm 0.05 in1.3 mm
07:54 AM 39.1°F3.9°C 37.2°F2.9°C 93% 7.1 mph SE11.4 kmh SE 10.0 mph16.1 kmh 29.84 in1010.5 mb 0.01 in0.3 mm 0.00 in0.0 mm 0.05 in1.3 mm
07:55 AM 39.2°F4.0°C 37.3°F2.9°C 93% 6.1 mph SE9.8 kmh SE 9.0 mph14.5 kmh 29.84 in1010.5 mb 0.01 in0.3 mm 0.00 in0.0 mm 0.05 in1.3 mm
07:56 AM 39.2°F4.0°C 37.3°F2.9°C 93% 5.2 mph SE8.4 kmh SE 9.0 mph14.5 kmh 29.84 in1010.5 mb 0.01 in0.3 mm 0.00 in0.0 mm 0.05 in1.3 mm
07:57 AM 39.2°F4.0°C 37.3°F2.9°C 93% 4.3 mph SE6.9 kmh SE 8.0 mph12.9 kmh 29.84 in1010.5 mb 0.01 in0.3 mm 0.00 in0.0 mm 0.05 in1.3 mm
07:58 AM 39.2°F4.0°C 37.3°F2.9°C 93% 5.8 mph ESE9.3 kmh ESE 8.0 mph12.9 kmh 29.84 in1010.5 mb 0.00 in0.0 mm 0.00 in0.0 mm 0.05 in1.3 mm
07:59 AM 39.2°F4.0°C 37.3°F2.9°C 93% 3.7 mph SE6.0 kmh SE 8.0 mph12.9 kmh 29.84 in1010.5 mb 0.00 in0.0 mm 0.00 in0.0 mm 0.05 in1.3 mm
08:00 AM 39.2°F4.0°C 37.3°F2.9°C 93% 5.5 mph SE8.9 kmh SE 8.0 mph12.9 kmh 29.84 in1010.5 mb 0.00 in0.0 mm 0.00 in0.0 mm 0.05 in1.3 mm
08:01 AM 39.2°F4.0°C 37.3°F2.9°C 93% 4.1 mph SE6.6 kmh SE 8.0 mph12.9 kmh 29.84 in1010.5 mb 0.00 in0.0 mm 0.00 in0.0 mm 0.05 in1.3 mm
08:02 AM 39.2°F4.0°C 37.3°F2.9°C 93% 4.3 mph SE6.9 kmh SE 7.0 mph11.3 kmh 29.84 in1010.5 mb 0.00 in0.0 mm 0.00 in0.0 mm 0.05 in1.3 mm
08:03 AM 39.2°F4.0°C 37.3°F2.9°C 93% 4.1 mph SE6.6 kmh SE 8.0 mph12.9 kmh 29.84 in1010.5 mb 0.00 in0.0 mm 0.00 in0.0 mm 0.05 in1.3 mm
08:04 AM 39.2°F4.0°C 37.3°F2.9°C 93% 4.6 mph SE7.4 kmh SE 8.0 mph12.9 kmh 29.84 in1010.5 mb 0.00 in0.0 mm 0.00 in0.0 mm 0.05 in1.3 mm
08:05 AM 39.2°F4.0°C 37.3°F2.9°C 93% 4.2 mph SE6.8 kmh SE 8.0 mph12.9 kmh 29.84 in1010.5 mb 0.00 in0.0 mm 0.00 in0.0 mm 0.05 in1.3 mm
08:06 AM 39.2°F4.0°C 37.3°F2.9°C 93% 5.6 mph SE9.0 kmh SE 10.0 mph16.1 kmh 29.84 in1010.5 mb 0.00 in0.0 mm 0.00 in0.0 mm 0.05 in1.3 mm
08:07 AM 39.2°F4.0°C 37.3°F2.9°C 93% 6.5 mph SE10.5 kmh SE 10.0 mph16.1 kmh 29.84 in1010.5 mb 0.00 in0.0 mm 0.00 in0.0 mm 0.05 in1.3 mm
08:08 AM 39.2°F4.0°C 37.3°F2.9°C 93% 6.9 mph SE11.1 kmh SE 9.0 mph14.5 kmh 29.84 in1010.5 mb 0.00 in0.0 mm 0.00 in0.0 mm 0.05 in1.3 mm
08:09 AM 39.3°F4.1°C 37.4°F3.0°C 93% 6.3 mph SE10.1 kmh SE 9.0 mph14.5 kmh 29.84 in1010.5 mb 0.00 in0.0 mm 0.00 in0.0 mm 0.05 in1.3 mm
08:10 AM 39.3°F4.1°C 37.4°F3.0°C 93% 5.6 mph SE9.0 kmh SE 8.0 mph12.9 kmh 29.84 in1010.5 mb 0.00 in0.0 mm 0.00 in0.0 mm 0.05 in1.3 mm
08:11 AM 39.3°F4.1°C 37.4°F3.0°C 93% 5.0 mph SE8.0 kmh SE 8.0 mph12.9 kmh 29.84 in1010.5 mb 0.00 in0.0 mm 0.00 in0.0 mm 0.05 in1.3 mm
08:12 AM 39.3°F4.1°C 37.4°F3.0°C 93% 5.2 mph ESE8.4 kmh ESE 7.0 mph11.3 kmh 29.84 in1010.5 mb 0.00 in0.0 mm 0.00 in0.0 mm 0.05 in1.3 mm
08:13 AM 39.3°F4.1°C 37.4°F3.0°C 93% 4.5 mph SE7.2 kmh SE 7.0 mph11.3 kmh 29.84 in1010.5 mb 0.00 in0.0 mm 0.00 in0.0 mm 0.05 in1.3 mm
08:14 AM 39.3°F4.1°C 37.4°F3.0°C 93% 5.3 mph SE8.5 kmh SE 8.0 mph12.9 kmh 29.84 in1010.5 mb 0.00 in0.0 mm 0.00 in0.0 mm 0.05 in1.3 mm
08:15 AM 39.3°F4.1°C 37.4°F3.0°C 93% 5.4 mph SE8.7 kmh SE 8.0 mph12.9 kmh 29.84 in1010.5 mb 0.00 in0.0 mm 0.00 in0.0 mm 0.05 in1.3 mm
08:16 AM 39.3°F4.1°C 37.4°F3.0°C 93% 6.1 mph SE9.8 kmh SE 8.0 mph12.9 kmh 29.84 in1010.5 mb 0.00 in0.0 mm 0.00 in0.0 mm 0.05 in1.3 mm
08:17 AM 39.3°F4.1°C 37.4°F3.0°C 93% 5.2 mph SE8.4 kmh SE 8.0 mph12.9 kmh 29.84 in1010.5 mb 0.00 in0.0 mm 0.00 in0.0 mm 0.05 in1.3 mm
08:18 AM 39.3°F4.1°C 37.4°F3.0°C 93% 6.3 mph SE10.1 kmh SE 8.0 mph12.9 kmh 29.84 in1010.5 mb 0.00 in0.0 mm 0.00 in0.0 mm 0.05 in1.3 mm
08:19 AM 39.3°F4.1°C 37.4°F3.0°C 93% 5.6 mph SE9.0 kmh SE 9.0 mph14.5 kmh 29.84 in1010.5 mb 0.00 in0.0 mm 0.00 in0.0 mm 0.05 in1.3 mm
08:20 AM 39.3°F4.1°C 37.4°F3.0°C 93% 4.0 mph SE6.4 kmh SE 9.0 mph14.5 kmh 29.84 in1010.5 mb 0.00 in0.0 mm 0.00 in0.0 mm 0.05 in1.3 mm
08:21 AM 39.3°F4.1°C 37.4°F3.0°C 93% 5.6 mph SE9.0 kmh SE 7.0 mph11.3 kmh 29.84 in1010.5 mb 0.00 in0.0 mm 0.00 in0.0 mm 0.05 in1.3 mm
08:22 AM 39.3°F4.1°C 37.4°F3.0°C 93% 7.6 mph SE12.2 kmh SE 9.0 mph14.5 kmh 29.84 in1010.5 mb 0.00 in0.0 mm 0.00 in0.0 mm 0.05 in1.3 mm
08:23 AM 39.3°F4.1°C 37.4°F3.0°C 93% 7.5 mph SE12.1 kmh SE 9.0 mph14.5 kmh 29.84 in1010.5 mb 0.00 in0.0 mm 0.00 in0.0 mm 0.05 in1.3 mm
08:24 AM 39.3°F4.1°C 37.4°F3.0°C 93% 7.0 mph SE11.3 kmh SE 11.0 mph17.7 kmh 29.84 in1010.5 mb 0.00 in0.0 mm 0.00 in0.0 mm 0.05 in1.3 mm
08:25 AM 39.3°F4.1°C 37.4°F3.0°C 93% 8.0 mph SE12.9 kmh SE 11.0 mph17.7 kmh 29.84 in1010.5 mb 0.00 in0.0 mm 0.00 in0.0 mm 0.05 in1.3 mm
08:26 AM 39.3°F4.1°C 37.4°F3.0°C 93% 8.7 mph SE14.0 kmh SE 11.0 mph17.7 kmh 29.84 in1010.5 mb 0.00 in0.0 mm 0.00 in0.0 mm 0.05 in1.3 mm
08:27 AM 39.3°F4.1°C 37.4°F3.0°C 93% 8.3 mph SE13.4 kmh SE 11.0 mph17.7 kmh 29.84 in1010.5 mb 0.00 in0.0 mm 0.00 in0.0 mm 0.05 in1.3 mm
08:28 AM 39.3°F4.1°C 37.4°F3.0°C 93% 6.4 mph SE10.3 kmh SE 10.0 mph16.1 kmh 29.84 in1010.5 mb 0.00 in0.0 mm 0.00 in0.0 mm 0.05 in1.3 mm
08:29 AM 39.3°F4.1°C 37.4°F3.0°C 93% 6.8 mph SE10.9 kmh SE 10.0 mph16.1 kmh 29.84 in1010.5 mb 0.00 in0.0 mm 0.00 in0.0 mm 0.05 in1.3 mm
08:30 AM 39.3°F4.1°C 37.4°F3.0°C 93% 7.1 mph SE11.4 kmh SE 10.0 mph16.1 kmh 29.84 in1010.5 mb 0.00 in0.0 mm 0.00 in0.0 mm 0.05 in1.3 mm
08:31 AM 39.3°F4.1°C 37.4°F3.0°C 93% 5.8 mph SE9.3 kmh SE 10.0 mph16.1 kmh 29.84 in1010.5 mb 0.00 in0.0 mm 0.00 in0.0 mm 0.05 in1.3 mm
08:32 AM 39.3°F4.1°C 37.4°F3.0°C 93% 4.2 mph SE6.8 kmh SE 8.0 mph12.9 kmh 29.84 in1010.5 mb 0.00 in0.0 mm 0.00 in0.0 mm 0.05 in1.3 mm
08:33 AM 39.3°F4.1°C 37.4°F3.0°C 93% 6.9 mph SE11.1 kmh SE 11.0 mph17.7 kmh 29.84 in1010.5 mb 0.00 in0.0 mm 0.00 in0.0 mm 0.05 in1.3 mm
08:34 AM 39.3°F4.1°C 37.4°F3.0°C 93% 6.4 mph SE10.3 kmh SE 11.0 mph17.7 kmh 29.84 in1010.5 mb 0.00 in0.0 mm 0.00 in0.0 mm 0.05 in1.3 mm
08:35 AM 39.3°F4.1°C 37.4°F3.0°C 93% 8.1 mph SE13.0 kmh SE 10.0 mph16.1 kmh 29.84 in1010.5 mb 0.00 in0.0 mm 0.00 in0.0 mm 0.05 in1.3 mm
08:36 AM 39.3°F4.1°C 37.4°F3.0°C 93% 5.8 mph SE9.3 kmh SE 10.0 mph16.1 kmh 29.84 in1010.5 mb 0.00 in0.0 mm 0.00 in0.0 mm 0.05 in1.3 mm
08:37 AM 39.3°F4.1°C 37.4°F3.0°C 93% 5.1 mph SE8.2 kmh SE 8.0 mph12.9 kmh 29.84 in1010.5 mb 0.00 in0.0 mm 0.00 in0.0 mm 0.05 in1.3 mm
08:38 AM 39.3°F4.1°C 37.4°F3.0°C 93% 6.1 mph SE9.8 kmh SE 9.0 mph14.5 kmh 29.84 in1010.5 mb 0.00 in0.0 mm 0.00 in0.0 mm 0.05 in1.3 mm
08:39 AM 39.4°F4.1°C 37.5°F3.1°C 93% 6.4 mph SE10.3 kmh SE 9.0 mph14.5 kmh 29.84 in1010.5 mb 0.00 in0.0 mm 0.00 in0.0 mm 0.05 in1.3 mm
08:40 AM 39.3°F4.1°C 37.4°F3.0°C 93% 7.2 mph SE11.6 kmh SE 9.0 mph14.5 kmh 29.84 in1010.5 mb 0.00 in0.0 mm 0.00 in0.0 mm 0.05 in1.3 mm
08:41 AM 39.4°F4.1°C 37.5°F3.1°C 93% 5.7 mph SE9.2 kmh SE 9.0 mph14.5 kmh 29.84 in1010.5 mb 0.00 in0.0 mm 0.00 in0.0 mm 0.05 in1.3 mm
08:42 AM 39.3°F4.1°C 37.4°F3.0°C 93% 4.9 mph SE7.9 kmh SE 8.0 mph12.9 kmh 29.84 in1010.5 mb 0.00 in0.0 mm 0.00 in0.0 mm 0.05 in1.3 mm
08:43 AM 39.4°F4.1°C 37.5°F3.1°C 93% 7.0 mph SE11.3 kmh SE 9.0 mph14.5 kmh 29.84 in1010.5 mb 0.00 in0.0 mm 0.00 in0.0 mm 0.05 in1.3 mm
08:44 AM 39.3°F4.1°C 37.4°F3.0°C 93% 5.6 mph SE9.0 kmh SE 9.0 mph14.5 kmh 29.84 in1010.5 mb 0.00 in0.0 mm 0.00 in0.0 mm 0.05 in1.3 mm
08:45 AM 39.4°F4.1°C 37.5°F3.1°C 93% 5.4 mph SE8.7 kmh SE 8.0 mph12.9 kmh 29.84 in1010.5 mb 0.00 in0.0 mm 0.00 in0.0 mm 0.05 in1.3 mm
08:46 AM 39.3°F4.1°C 37.4°F3.0°C 93% 4.4 mph SE7.1 kmh SE 7.0 mph11.3 kmh 29.84 in1010.5 mb 0.00 in0.0 mm 0.00 in0.0 mm 0.05 in1.3 mm
08:47 AM 39.3°F4.1°C 37.4°F3.0°C 93% 4.8 mph SE7.7 kmh SE 8.0 mph12.9 kmh 29.84 in1010.5 mb 0.00 in0.0 mm 0.00 in0.0 mm 0.05 in1.3 mm
08:48 AM 39.3°F4.1°C 37.4°F3.0°C 93% 7.4 mph SE11.9 kmh SE 10.0 mph16.1 kmh 29.84 in1010.5 mb 0.00 in0.0 mm 0.00 in0.0 mm 0.05 in1.3 mm
08:49 AM 39.4°F4.1°C 37.5°F3.1°C 93% 5.4 mph SE8.7 kmh SE 10.0 mph16.1 kmh 29.84 in1010.5 mb 0.00 in0.0 mm 0.00 in0.0 mm 0.05 in1.3 mm
08:50 AM 39.4°F4.1°C 37.5°F3.1°C 93% 4.9 mph SE7.9 kmh SE 7.0 mph11.3 kmh 29.84 in1010.5 mb 0.00 in0.0 mm 0.00 in0.0 mm 0.05 in1.3 mm
08:51 AM 39.4°F4.1°C 37.5°F3.1°C 93% 4.9 mph SE7.9 kmh SE 7.0 mph11.3 kmh 29.84 in1010.5 mb 0.00 in0.0 mm 0.00 in0.0 mm 0.05 in1.3 mm
08:52 AM 39.4°F4.1°C 37.5°F3.1°C 93% 5.0 mph SE8.0 kmh SE 9.0 mph14.5 kmh 29.84 in1010.5 mb 0.00 in0.0 mm 0.00 in0.0 mm 0.05 in1.3 mm
08:53 AM 39.3°F4.1°C 37.4°F3.0°C 93% 3.3 mph SE5.3 kmh SE 9.0 mph14.5 kmh 29.84 in1010.5 mb 0.00 in0.0 mm 0.00 in0.0 mm 0.05 in1.3 mm
08:54 AM 39.4°F4.1°C 37.5°F3.1°C 93% 4.9 mph SE7.9 kmh SE 8.0 mph12.9 kmh 29.84 in1010.5 mb 0.00 in0.0 mm 0.00 in0.0 mm 0.05 in1.3 mm
08:55 AM 39.4°F4.1°C 37.5°F3.1°C 93% 6.3 mph SE10.1 kmh SE 9.0 mph14.5 kmh 29.84 in1010.5 mb 0.00 in0.0 mm 0.00 in0.0 mm 0.05 in1.3 mm
08:56 AM 39.4°F4.1°C 37.5°F3.1°C 93% 5.7 mph SE9.2 kmh SE 9.0 mph14.5 kmh 29.84 in1010.5 mb 0.00 in0.0 mm 0.00 in0.0 mm 0.05 in1.3 mm
08:57 AM 39.4°F4.1°C 37.5°F3.1°C 93% 5.4 mph SE8.7 kmh SE 8.0 mph12.9 kmh 29.84 in1010.5 mb 0.00 in0.0 mm 0.00 in0.0 mm 0.05 in1.3 mm
08:58 AM 39.3°F4.1°C 37.4°F3.0°C 93% 5.1 mph SE8.2 kmh SE 8.0 mph12.9 kmh 29.84 in1010.5 mb 0.00 in0.0 mm 0.00 in0.0 mm 0.05 in1.3 mm
08:59 AM 39.4°F4.1°C 37.5°F3.1°C 93% 6.5 mph SE10.5 kmh SE 9.0 mph14.5 kmh 29.84 in1010.5 mb 0.00 in0.0 mm 0.00 in0.0 mm 0.05 in1.3 mm
09:00 AM 39.4°F4.1°C 37.5°F3.1°C 93% 5.2 mph SE8.4 kmh SE 9.0 mph14.5 kmh 29.84 in1010.5 mb 0.00 in0.0 mm 0.00 in0.0 mm 0.05 in1.3 mm
09:01 AM 39.4°F4.1°C 37.5°F3.1°C 93% 5.7 mph SE9.2 kmh SE 9.0 mph14.5 kmh 29.84 in1010.5 mb 0.00 in0.0 mm 0.00 in0.0 mm 0.05 in1.3 mm
09:02 AM 39.4°F4.1°C 37.5°F3.1°C 93% 4.0 mph SE6.4 kmh SE 9.0 mph14.5 kmh 29.84 in1010.5 mb 0.00 in0.0 mm 0.00 in0.0 mm 0.05 in1.3 mm
09:03 AM 39.3°F4.1°C 37.4°F3.0°C 93% 5.6 mph SE9.0 kmh SE 7.0 mph11.3 kmh 29.84 in1010.5 mb 0.00 in0.0 mm 0.00 in0.0 mm 0.05 in1.3 mm
09:04 AM 39.4°F4.1°C 37.5°F3.1°C 93% 4.2 mph SE6.8 kmh SE 7.0 mph11.3 kmh 29.84 in1010.5 mb 0.00 in0.0 mm 0.00 in0.0 mm 0.05 in1.3 mm
09:05 AM 39.4°F4.1°C 37.5°F3.1°C 93% 4.6 mph SSE7.4 kmh SSE 7.0 mph11.3 kmh 29.84 in1010.5 mb 0.00 in0.0 mm 0.00 in0.0 mm 0.05 in1.3 mm
09:06 AM 39.3°F4.1°C 37.4°F3.0°C 93% 3.6 mph SE5.8 kmh SE 7.0 mph11.3 kmh 29.84 in1010.5 mb 0.00 in0.0 mm 0.00 in0.0 mm 0.05 in1.3 mm
09:07 AM 39.3°F4.1°C 37.4°F3.0°C 93% 3.9 mph SE6.3 kmh SE 5.0 mph8.0 kmh 29.84 in1010.5 mb 0.00 in0.0 mm 0.00 in0.0 mm 0.05 in1.3 mm
09:08 AM 39.4°F4.1°C 37.5°F3.1°C 93% 4.7 mph SE7.6 kmh SE 6.0 mph9.7 kmh 29.84 in1010.5 mb 0.00 in0.0 mm 0.00 in0.0 mm 0.05 in1.3 mm
09:09 AM 39.4°F4.1°C 37.5°F3.1°C 93% 5.8 mph SE9.3 kmh SE 8.0 mph12.9 kmh 29.84 in1010.5 mb 0.00 in0.0 mm 0.00 in0.0 mm 0.05 in1.3 mm
09:10 AM 39.4°F4.1°C 37.5°F3.1°C 93% 4.8 mph SE7.7 kmh SE 8.0 mph12.9 kmh 29.84 in1010.5 mb 0.00 in0.0 mm 0.00 in0.0 mm 0.05 in1.3 mm
09:11 AM 39.4°F4.1°C 37.5°F3.1°C 93% 4.8 mph SE7.7 kmh SE 7.0 mph11.3 kmh 29.84 in1010.5 mb 0.00 in0.0 mm 0.00 in0.0 mm 0.05 in1.3 mm
09:12 AM 39.4°F4.1°C 37.5°F3.1°C 93% 4.7 mph SE7.6 kmh SE 8.0 mph12.9 kmh 29.84 in1010.5 mb 0.00 in0.0 mm 0.00 in0.0 mm 0.05 in1.3 mm
09:13 AM 39.4°F4.1°C 37.5°F3.1°C 93% 5.0 mph SE8.0 kmh SE 9.0 mph14.5 kmh 29.84 in1010.5 mb 0.00 in0.0 mm 0.00 in0.0 mm 0.05 in1.3 mm
09:14 AM 39.4°F4.1°C 37.5°F3.1°C 93% 7.0 mph SE11.3 kmh SE 10.0 mph16.1 kmh 29.84 in1010.5 mb 0.00 in0.0 mm 0.00 in0.0 mm 0.05 in1.3 mm
09:15 AM 39.4°F4.1°C 37.5°F3.1°C 93% 5.0 mph SE8.0 kmh SE 9.0 mph14.5 kmh 29.84 in1010.5 mb 0.00 in0.0 mm 0.00 in0.0 mm 0.05 in1.3 mm
09:16 AM 39.4°F4.1°C 37.5°F3.1°C 93% 6.7 mph SE10.8 kmh SE 9.0 mph14.5 kmh 29.84 in1010.5 mb 0.00 in0.0 mm 0.00 in0.0 mm 0.05 in1.3 mm
09:17 AM 39.4°F4.1°C 37.5°F3.1°C 93% 4.8 mph SE7.7 kmh SE 9.0 mph14.5 kmh 29.84 in1010.5 mb 0.00 in0.0 mm 0.00 in0.0 mm 0.05 in1.3 mm
09:18 AM 39.3°F4.1°C 37.4°F3.0°C 93% 5.1 mph SE8.2 kmh SE 9.0 mph14.5 kmh 29.84 in1010.5 mb 0.00 in0.0 mm 0.00 in0.0 mm 0.05 in1.3 mm
09:19 AM 39.3°F4.1°C 37.4°F3.0°C 93% 5.4 mph SE8.7 kmh SE 9.0 mph14.5 kmh 29.84 in1010.5 mb 0.00 in0.0 mm 0.00 in0.0 mm 0.05 in1.3 mm
09:20 AM 39.4°F4.1°C 37.5°F3.1°C 93% 5.0 mph SE8.0 kmh SE 8.0 mph12.9 kmh 29.84 in1010.5 mb 0.00 in0.0 mm 0.00 in0.0 mm 0.05 in1.3 mm
09:21 AM 39.3°F4.1°C 37.4°F3.0°C 93% 6.8 mph SE10.9 kmh SE 9.0 mph14.5 kmh 29.84 in1010.5 mb 0.00 in0.0 mm 0.00 in0.0 mm 0.05 in1.3 mm
09:22 AM 39.3°F4.1°C 37.4°F3.0°C 93% 5.6 mph SE9.0 kmh SE 9.0 mph14.5 kmh 29.84 in1010.5 mb 0.00 in0.0 mm 0.00 in0.0 mm 0.05 in1.3 mm
09:23 AM 39.4°F4.1°C 37.5°F3.1°C 93% 5.1 mph SE8.2 kmh SE 8.0 mph12.9 kmh 29.84 in1010.5 mb 0.00 in0.0 mm 0.00 in0.0 mm 0.05 in1.3 mm
09:24 AM 39.3°F4.1°C 37.4°F3.0°C 93% 4.2 mph SE6.8 kmh SE 8.0 mph12.9 kmh 29.84 in1010.5 mb 0.00 in0.0 mm 0.00 in0.0 mm 0.05 in1.3 mm
09:25 AM 39.4°F4.1°C 37.5°F3.1°C 93% 5.5 mph SE8.9 kmh SE 8.0 mph12.9 kmh 29.84 in1010.5 mb 0.00 in0.0 mm 0.00 in0.0 mm 0.05 in1.3 mm
09:26 AM 39.4°F4.1°C 37.5°F3.1°C 93% 4.5 mph SE7.2 kmh SE 8.0 mph12.9 kmh 29.84 in1010.5 mb 0.00 in0.0 mm 0.00 in0.0 mm 0.05 in1.3 mm
09:27 AM 39.3°F4.1°C 37.4°F3.0°C 93% 4.5 mph SE7.2 kmh SE 8.0 mph12.9 kmh 29.84 in1010.5 mb 0.00 in0.0 mm 0.00 in0.0 mm 0.05 in1.3 mm
09:28 AM 39.4°F4.1°C 37.5°F3.1°C 93% 6.3 mph SE10.1 kmh SE 9.0 mph14.5 kmh 29.84 in1010.5 mb 0.00 in0.0 mm 0.00 in0.0 mm 0.05 in1.3 mm
09:29 AM 39.4°F4.1°C 37.5°F3.1°C 93% 6.7 mph SE10.8 kmh SE 9.0 mph14.5 kmh 29.84 in1010.5 mb 0.00 in0.0 mm 0.00 in0.0 mm 0.05 in1.3 mm
09:30 AM 39.3°F4.1°C 37.4°F3.0°C 93% 6.6 mph SE10.6 kmh SE 10.0 mph16.1 kmh 29.84 in1010.5 mb 0.00 in0.0 mm 0.00 in0.0 mm 0.05 in1.3 mm
09:31 AM 39.4°F4.1°C 37.5°F3.1°C 93% 5.9 mph SE9.5 kmh SE 10.0 mph16.1 kmh 29.83 in1010.2 mb 0.00 in0.0 mm 0.00 in0.0 mm 0.05 in1.3 mm
09:32 AM 39.4°F4.1°C 37.5°F3.1°C 93% 4.7 mph SE7.6 kmh SE 8.0 mph12.9 kmh 29.83 in1010.2 mb 0.00 in0.0 mm 0.00 in0.0 mm 0.05 in1.3 mm
09:33 AM 39.3°F4.1°C 37.4°F3.0°C 93% 4.9 mph SE7.9 kmh SE 8.0 mph12.9 kmh 29.83 in1010.2 mb 0.00 in0.0 mm 0.00 in0.0 mm 0.05 in1.3 mm
09:34 AM 39.4°F4.1°C 37.5°F3.1°C 93% 3.1 mph SE5.0 kmh SE 7.0 mph11.3 kmh 29.83 in1010.2 mb 0.00 in0.0 mm 0.00 in0.0 mm 0.05 in1.3 mm
09:35 AM 39.3°F4.1°C 37.4°F3.0°C 93% 3.4 mph SE5.5 kmh SE 7.0 mph11.3 kmh 29.83 in1010.2 mb 0.00 in0.0 mm 0.00 in0.0 mm 0.05 in1.3 mm
09:36 AM 39.3°F4.1°C 37.4°F3.0°C 93% 4.2 mph SE6.8 kmh SE 7.0 mph11.3 kmh 29.83 in1010.2 mb 0.00 in0.0 mm 0.00 in0.0 mm 0.05 in1.3 mm
09:37 AM 39.3°F4.1°C 37.4°F3.0°C 93% 6.5 mph SE10.5 kmh SE 8.0 mph12.9 kmh 29.83 in1010.2 mb 0.00 in0.0 mm 0.00 in0.0 mm 0.05 in1.3 mm
09:38 AM 39.3°F4.1°C 37.4°F3.0°C 93% 5.3 mph SE8.5 kmh SE 8.0 mph12.9 kmh 29.83 in1010.2 mb 0.00 in0.0 mm 0.00 in0.0 mm 0.05 in1.3 mm
09:39 AM 39.4°F4.1°C 37.5°F3.1°C 93% 4.5 mph SSE7.2 kmh SSE 8.0 mph12.9 kmh 29.83 in1010.2 mb 0.00 in0.0 mm 0.00 in0.0 mm 0.05 in1.3 mm
09:40 AM 39.4°F4.1°C 37.5°F3.1°C 93% 6.1 mph SE9.8 kmh SE 8.0 mph12.9 kmh 29.83 in1010.2 mb 0.00 in0.0 mm 0.00 in0.0 mm 0.05 in1.3 mm
09:41 AM 39.4°F4.1°C 37.5°F3.1°C 93% 5.1 mph SSE8.2 kmh SSE 8.0 mph12.9 kmh 29.83 in1010.2 mb 0.00 in0.0 mm 0.00 in0.0 mm 0.05 in1.3 mm
09:42 AM 39.4°F4.1°C 37.5°F3.1°C 93% 4.8 mph SE7.7 kmh SE 9.0 mph14.5 kmh 29.83 in1010.2 mb 0.00 in0.0 mm 0.00 in0.0 mm 0.05 in1.3 mm
09:43 AM 39.4°F4.1°C 37.5°F3.1°C 93% 6.0 mph SE9.7 kmh SE 9.0 mph14.5 kmh 29.83 in1010.2 mb 0.00 in0.0 mm 0.00 in0.0 mm 0.05 in1.3 mm
09:44 AM 39.4°F4.1°C 37.5°F3.1°C 93% 5.3 mph SE8.5 kmh SE 8.0 mph12.9 kmh 29.83 in1010.2 mb 0.00 in0.0 mm 0.00 in0.0 mm 0.05 in1.3 mm
09:45 AM 39.4°F4.1°C 37.5°F3.1°C 93% 5.3 mph SE8.5 kmh SE 8.0 mph12.9 kmh 29.83 in1010.2 mb 0.00 in0.0 mm 0.00 in0.0 mm 0.05 in1.3 mm
09:46 AM 39.4°F4.1°C 37.5°F3.1°C 93% 5.4 mph SE8.7 kmh SE 8.0 mph12.9 kmh 29.83 in1010.2 mb 0.00 in0.0 mm 0.00 in0.0 mm 0.05 in1.3 mm
09:47 AM 39.4°F4.1°C 37.5°F3.1°C 93% 5.7 mph SE9.2 kmh SE 9.0 mph14.5 kmh 29.82 in1009.8 mb 0.00 in0.0 mm 0.00 in0.0 mm 0.05 in1.3 mm
09:48 AM 39.4°F4.1°C 37.5°F3.1°C 93% 4.9 mph SE7.9 kmh SE 9.0 mph14.5 kmh 29.82 in1009.8 mb 0.00 in0.0 mm 0.00 in0.0 mm 0.05 in1.3 mm
09:49 AM 39.4°F4.1°C 37.5°F3.1°C 93% 6.6 mph SE10.6 kmh SE 10.0 mph16.1 kmh 29.82 in1009.8 mb 0.00 in0.0 mm 0.00 in0.0 mm 0.05 in1.3 mm
09:50 AM 39.4°F4.1°C 37.5°F3.1°C 93% 5.6 mph SE9.0 kmh SE 10.0 mph16.1 kmh 29.82 in1009.8 mb 0.00 in0.0 mm 0.00 in0.0 mm 0.05 in1.3 mm
09:51 AM 39.4°F4.1°C 37.5°F3.1°C 93% 6.5 mph SE10.5 kmh SE 8.0 mph12.9 kmh 29.82 in1009.8 mb 0.00 in0.0 mm 0.00 in0.0 mm 0.05 in1.3 mm
09:52 AM 39.4°F4.1°C 37.5°F3.1°C 93% 7.6 mph SE12.2 kmh SE 10.0 mph16.1 kmh 29.82 in1009.8 mb 0.00 in0.0 mm 0.00 in0.0 mm 0.05 in1.3 mm
09:53 AM 39.4°F4.1°C 37.5°F3.1°C 93% 6.3 mph SE10.1 kmh SE 10.0 mph16.1 kmh 29.82 in1009.8 mb 0.00 in0.0 mm 0.00 in0.0 mm 0.05 in1.3 mm
09:54 AM 39.4°F4.1°C 37.5°F3.1°C 93% 6.4 mph SE10.3 kmh SE 9.0 mph14.5 kmh 29.82 in1009.8 mb 0.00 in0.0 mm 0.00 in0.0 mm 0.05 in1.3 mm
09:55 AM 39.4°F4.1°C 37.5°F3.1°C 93% 4.0 mph SE6.4 kmh SE 5.0 mph8.0 kmh 29.82 in1009.8 mb 0.00 in0.0 mm 0.00 in0.0 mm 0.05 in1.3 mm
09:56 AM 39.4°F4.1°C 37.5°F3.1°C 93% 5.0 mph SE8.0 kmh SE 8.0 mph12.9 kmh 29.82 in1009.8 mb 0.00 in0.0 mm 0.00 in0.0 mm 0.05 in1.3 mm
09:57 AM 39.4°F4.1°C 37.5°F3.1°C 93% 5.9 mph SE9.5 kmh SE 8.0 mph12.9 kmh 29.82 in1009.8 mb 0.00 in0.0 mm 0.00 in0.0 mm 0.05 in1.3 mm
09:58 AM 39.4°F4.1°C 37.5°F3.1°C 93% 6.9 mph SE11.1 kmh SE 9.0 mph14.5 kmh 29.82 in1009.8 mb 0.00 in0.0 mm 0.00 in0.0 mm 0.05 in1.3 mm
09:59 AM 39.4°F4.1°C 37.5°F3.1°C 93% 4.4 mph SE7.1 kmh SE 9.0 mph14.5 kmh 29.82 in1009.8 mb 0.00 in0.0 mm 0.00 in0.0 mm 0.05 in1.3 mm
10:00 AM 39.4°F4.1°C 37.5°F3.1°C 93% 5.4 mph SE8.7 kmh SE 9.0 mph14.5 kmh 29.82 in1009.8 mb 0.00 in0.0 mm 0.00 in0.0 mm 0.05 in1.3 mm
10:01 AM 39.4°F4.1°C 37.5°F3.1°C 93% 5.3 mph SE8.5 kmh SE 9.0 mph14.5 kmh 29.82 in1009.8 mb 0.00 in0.0 mm 0.00 in0.0 mm 0.05 in1.3 mm
10:02 AM 39.4°F4.1°C 37.5°F3.1°C 93% 4.7 mph SE7.6 kmh SE 9.0 mph14.5 kmh 29.82 in1009.8 mb 0.00 in0.0 mm 0.00 in0.0 mm 0.05 in1.3 mm
10:03 AM 39.5°F4.2°C 37.6°F3.1°C 93% 6.4 mph SE10.3 kmh SE 10.0 mph16.1 kmh 29.82 in1009.8 mb 0.00 in0.0 mm 0.00 in0.0 mm 0.05 in1.3 mm
10:04 AM 39.4°F4.1°C 37.5°F3.1°C 93% 7.2 mph SE11.6 kmh SE 10.0 mph16.1 kmh 29.82 in1009.8 mb 0.00 in0.0 mm 0.00 in0.0 mm 0.05 in1.3 mm
10:05 AM 39.4°F4.1°C 37.5°F3.1°C 93% 5.0 mph SE8.0 kmh SE 10.0 mph16.1 kmh 29.82 in1009.8 mb 0.00 in0.0 mm 0.00 in0.0 mm 0.05 in1.3 mm
10:06 AM 39.5°F4.2°C 37.6°F3.1°C 93% 4.9 mph SE7.9 kmh SE 8.0 mph12.9 kmh 29.82 in1009.8 mb 0.00 in0.0 mm 0.00 in0.0 mm 0.05 in1.3 mm
10:07 AM 39.5°F4.2°C 37.6°F3.1°C 93% 6.8 mph SE10.9 kmh SE 8.0 mph12.9 kmh 29.82 in1009.8 mb 0.00 in0.0 mm 0.00 in0.0 mm 0.05 in1.3 mm
10:08 AM 39.4°F4.1°C 37.5°F3.1°C 93% 8.1 mph SE13.0 kmh SE 11.0 mph17.7 kmh 29.82 in1009.8 mb 0.00 in0.0 mm 0.00 in0.0 mm 0.05 in1.3 mm
10:09 AM 39.4°F4.1°C 37.5°F3.1°C 93% 6.6 mph SE10.6 kmh SE 11.0 mph17.7 kmh 29.82 in1009.8 mb 0.00 in0.0 mm 0.00 in0.0 mm 0.05 in1.3 mm
10:10 AM 39.5°F4.2°C 37.6°F3.1°C 93% 4.4 mph SE7.1 kmh SE 8.0 mph12.9 kmh 29.82 in1009.8 mb 0.00 in0.0 mm 0.00 in0.0 mm 0.05 in1.3 mm
10:11 AM 39.5°F4.2°C 37.6°F3.1°C 93% 5.8 mph SE9.3 kmh SE 9.0 mph14.5 kmh 29.82 in1009.8 mb 0.00 in0.0 mm 0.00 in0.0 mm 0.05 in1.3 mm
10:12 AM 39.5°F4.2°C 37.6°F3.1°C 93% 6.5 mph SE10.5 kmh SE 9.0 mph14.5 kmh 29.82 in1009.8 mb 0.00 in0.0 mm 0.00 in0.0 mm 0.05 in1.3 mm
10:13 AM 39.5°F4.2°C 37.6°F3.1°C 93% 4.3 mph SE6.9 kmh SE 9.0 mph14.5 kmh 29.82 in1009.8 mb 0.00 in0.0 mm 0.00 in0.0 mm 0.05 in1.3 mm
10:14 AM 39.5°F4.2°C 37.6°F3.1°C 93% 3.6 mph SE5.8 kmh SE 7.0 mph11.3 kmh 29.82 in1009.8 mb 0.00 in0.0 mm 0.00 in0.0 mm 0.05 in1.3 mm
10:15 AM 39.5°F4.2°C 37.6°F3.1°C 93% 4.5 mph SE7.2 kmh SE 6.0 mph9.7 kmh 29.82 in1009.8 mb 0.00 in0.0 mm 0.00 in0.0 mm 0.05 in1.3 mm
10:16 AM 39.5°F4.2°C 37.6°F3.1°C 93% 6.1 mph SE9.8 kmh SE 9.0 mph14.5 kmh 29.82 in1009.8 mb 0.00 in0.0 mm 0.00 in0.0 mm 0.05 in1.3 mm
10:17 AM 39.5°F4.2°C 37.6°F3.1°C 93% 6.4 mph SE10.3 kmh SE 9.0 mph14.5 kmh 29.82 in1009.8 mb 0.00 in0.0 mm 0.00 in0.0 mm 0.05 in1.3 mm
10:18 AM 39.5°F4.2°C 37.6°F3.1°C 93% 6.7 mph SE10.8 kmh SE 9.0 mph14.5 kmh 29.82 in1009.8 mb 0.00 in0.0 mm 0.00 in0.0 mm 0.05 in1.3 mm
10:19 AM 39.5°F4.2°C 37.6°F3.1°C 93% 4.9 mph SE7.9 kmh SE 9.0 mph14.5 kmh 29.82 in1009.8 mb 0.00 in0.0 mm 0.00 in0.0 mm 0.05 in1.3 mm
10:20 AM 39.5°F4.2°C 37.6°F3.1°C 93% 5.1 mph SE8.2 kmh SE 8.0 mph12.9 kmh 29.82 in1009.8 mb 0.00 in0.0 mm 0.00 in0.0 mm 0.05 in1.3 mm
10:21 AM 39.6°F4.2°C 37.7°F3.2°C 93% 5.2 mph SE8.4 kmh SE 8.0 mph12.9 kmh 29.82 in1009.8 mb 0.00 in0.0 mm 0.00 in0.0 mm 0.05 in1.3 mm
10:22 AM 39.5°F4.2°C 37.6°F3.1°C 93% 5.3 mph SE8.5 kmh SE 8.0 mph12.9 kmh 29.82 in1009.8 mb 0.00 in0.0 mm 0.00 in0.0 mm 0.05 in1.3 mm
10:23 AM 39.6°F4.2°C 37.7°F3.2°C 93% 5.3 mph SE8.5 kmh SE 8.0 mph12.9 kmh 29.82 in1009.8 mb 0.00 in0.0 mm 0.00 in0.0 mm 0.05 in1.3 mm
10:24 AM 39.6°F4.2°C 37.7°F3.2°C 93% 5.2 mph SE8.4 kmh SE 8.0 mph12.9 kmh 29.82 in1009.8 mb 0.00 in0.0 mm 0.00 in0.0 mm 0.05 in1.3 mm
10:25 AM 39.6°F4.2°C 37.7°F3.2°C 93% 5.7 mph SE9.2 kmh SE 9.0 mph14.5 kmh 29.82 in1009.8 mb 0.00 in0.0 mm 0.00 in0.0 mm 0.05 in1.3 mm
10:26 AM 39.6°F4.2°C 37.7°F3.2°C 93% 4.7 mph SE7.6 kmh SE 9.0 mph14.5 kmh 29.82 in1009.8 mb 0.00 in0.0 mm 0.00 in0.0 mm 0.05 in1.3 mm
10:27 AM 39.6°F4.2°C 37.7°F3.2°C 93% 5.3 mph SE8.5 kmh SE 8.0 mph12.9 kmh 29.82 in1009.8 mb 0.00 in0.0 mm 0.00 in0.0 mm 0.05 in1.3 mm
10:28 AM 39.6°F4.2°C 37.7°F3.2°C 93% 5.4 mph SE8.7 kmh SE 8.0 mph12.9 kmh 29.82 in1009.8 mb 0.00 in0.0 mm 0.00 in0.0 mm 0.05 in1.3 mm
10:29 AM 39.6°F4.2°C 37.7°F3.2°C 93% 5.1 mph SE8.2 kmh SE 7.0 mph11.3 kmh 29.82 in1009.8 mb 0.00 in0.0 mm 0.00 in0.0 mm 0.05 in1.3 mm
10:30 AM 39.6°F4.2°C 37.7°F3.2°C 93% 5.8 mph SE9.3 kmh SE 9.0 mph14.5 kmh 29.81 in1009.5 mb 0.00 in0.0 mm 0.00 in0.0 mm 0.05 in1.3 mm
10:31 AM 39.7°F4.3°C 37.8°F3.2°C 93% 5.6 mph SE9.0 kmh SE 9.0 mph14.5 kmh 29.81 in1009.5 mb 0.00 in0.0 mm 0.00 in0.0 mm 0.05 in1.3 mm
10:32 AM 39.6°F4.2°C 37.7°F3.2°C 93% 5.3 mph SE8.5 kmh SE 8.0 mph12.9 kmh 29.81 in1009.5 mb 0.00 in0.0 mm 0.00 in0.0 mm 0.05 in1.3 mm
10:33 AM 39.6°F4.2°C 37.7°F3.2°C 93% 6.0 mph SE9.7 kmh SE 9.0 mph14.5 kmh 29.81 in1009.5 mb 0.00 in0.0 mm 0.00 in0.0 mm 0.05 in1.3 mm
10:34 AM 39.7°F4.3°C 37.8°F3.2°C 93% 5.7 mph SE9.2 kmh SE 10.0 mph16.1 kmh 29.81 in1009.5 mb 0.00 in0.0 mm 0.00 in0.0 mm 0.05 in1.3 mm
10:35 AM 39.7°F4.3°C 37.8°F3.2°C 93% 6.6 mph SE10.6 kmh SE 10.0 mph16.1 kmh 29.81 in1009.5 mb 0.00 in0.0 mm 0.00 in0.0 mm 0.05 in1.3 mm
10:36 AM 39.6°F4.2°C 37.7°F3.2°C 93% 6.0 mph SE9.7 kmh SE 9.0 mph14.5 kmh 29.81 in1009.5 mb 0.00 in0.0 mm 0.00 in0.0 mm 0.05 in1.3 mm
10:37 AM 39.7°F4.3°C 37.8°F3.2°C 93% 4.4 mph SE7.1 kmh SE 9.0 mph14.5 kmh 29.81 in1009.5 mb 0.00 in0.0 mm 0.00 in0.0 mm 0.05 in1.3 mm
10:38 AM 39.6°F4.2°C 37.7°F3.2°C 93% 5.6 mph SE9.0 kmh SE 8.0 mph12.9 kmh 29.81 in1009.5 mb 0.00 in0.0 mm 0.00 in0.0 mm 0.05 in1.3 mm
10:39 AM 39.6°F4.2°C 37.7°F3.2°C 93% 6.6 mph SE10.6 kmh SE 8.0 mph12.9 kmh 29.81 in1009.5 mb 0.00 in0.0 mm 0.00 in0.0 mm 0.05 in1.3 mm
10:40 AM 39.7°F4.3°C 37.8°F3.2°C 93% 5.4 mph SE8.7 kmh SE 8.0 mph12.9 kmh 29.81 in1009.5 mb 0.00 in0.0 mm 0.00 in0.0 mm 0.05 in1.3 mm
10:41 AM 39.7°F4.3°C 37.8°F3.2°C 93% 5.6 mph SE9.0 kmh SE 8.0 mph12.9 kmh 29.81 in1009.5 mb 0.00 in0.0 mm 0.00 in0.0 mm 0.05 in1.3 mm
10:42 AM 39.7°F4.3°C 37.8°F3.2°C 93% 5.7 mph SE9.2 kmh SE 8.0 mph12.9 kmh 29.81 in1009.5 mb 0.00 in0.0 mm 0.00 in0.0 mm 0.05 in1.3 mm
10:43 AM 39.7°F4.3°C 37.8°F3.2°C 93% 6.4 mph SE10.3 kmh SE 8.0 mph12.9 kmh 29.81 in1009.5 mb 0.00 in0.0 mm 0.00 in0.0 mm 0.05 in1.3 mm
10:44 AM 39.7°F4.3°C 37.8°F3.2°C 93% 5.9 mph SE9.5 kmh SE 8.0 mph12.9 kmh 29.81 in1009.5 mb 0.00 in0.0 mm 0.00 in0.0 mm 0.05 in1.3 mm
10:45 AM 39.7°F4.3°C 37.8°F3.2°C 93% 5.1 mph SE8.2 kmh SE 8.0 mph12.9 kmh 29.81 in1009.5 mb 0.00 in0.0 mm 0.00 in0.0 mm 0.05 in1.3 mm
10:46 AM 39.7°F4.3°C 37.8°F3.2°C 93% 5.4 mph SE8.7 kmh SE 7.0 mph11.3 kmh 29.81 in1009.5 mb 0.00 in0.0 mm 0.00 in0.0 mm 0.05 in1.3 mm
10:47 AM 39.7°F4.3°C 37.8°F3.2°C 93% 6.4 mph SE10.3 kmh SE 9.0 mph14.5 kmh 29.81 in1009.5 mb 0.00 in0.0 mm 0.00 in0.0 mm 0.05 in1.3 mm
10:48 AM 39.7°F4.3°C 37.8°F3.2°C 93% 7.0 mph SE11.3 kmh SE 11.0 mph17.7 kmh 29.82 in1009.8 mb 0.00 in0.0 mm 0.00 in0.0 mm 0.05 in1.3 mm
10:49 AM 39.7°F4.3°C 37.8°F3.2°C 93% 5.5 mph SE8.9 kmh SE 11.0 mph17.7 kmh 29.82 in1009.8 mb 0.00 in0.0 mm 0.00 in0.0 mm 0.05 in1.3 mm
10:50 AM 39.7°F4.3°C 37.8°F3.2°C 93% 5.6 mph SE9.0 kmh SE 8.0 mph12.9 kmh 29.82 in1009.8 mb 0.00 in0.0 mm 0.00 in0.0 mm 0.05 in1.3 mm
10:51 AM 39.7°F4.3°C 37.8°F3.2°C 93% 5.3 mph SE8.5 kmh SE 8.0 mph12.9 kmh 29.82 in1009.8 mb 0.00 in0.0 mm 0.00 in0.0 mm 0.05 in1.3 mm
10:52 AM 39.7°F4.3°C 37.8°F3.2°C 93% 5.0 mph SE8.0 kmh SE 7.0 mph11.3 kmh 29.82 in1009.8 mb 0.00 in0.0 mm 0.00 in0.0 mm 0.05 in1.3 mm
10:53 AM 39.7°F4.3°C 37.8°F3.2°C 93% 6.0 mph SE9.7 kmh SE 9.0 mph14.5 kmh 29.81 in1009.5 mb 0.00 in0.0 mm 0.00 in0.0 mm 0.05 in1.3 mm
10:54 AM 39.7°F4.3°C 37.8°F3.2°C 93% 7.0 mph SE11.3 kmh SE 10.0 mph16.1 kmh 29.81 in1009.5 mb 0.00 in0.0 mm 0.00 in0.0 mm 0.05 in1.3 mm
10:55 AM 39.8°F4.3°C 37.9°F3.3°C 93% 7.0 mph SE11.3 kmh SE 9.0 mph14.5 kmh 29.81 in1009.5 mb 0.00 in0.0 mm 0.00 in0.0 mm 0.05 in1.3 mm
10:56 AM 39.7°F4.3°C 37.8°F3.2°C 93% 4.8 mph SE7.7 kmh SE 7.0 mph11.3 kmh 29.81 in1009.5 mb 0.00 in0.0 mm 0.00 in0.0 mm 0.05 in1.3 mm
10:57 AM 39.7°F4.3°C 37.8°F3.2°C 93% 5.1 mph SE8.2 kmh SE 8.0 mph12.9 kmh 29.81 in1009.5 mb 0.00 in0.0 mm 0.00 in0.0 mm 0.05 in1.3 mm
10:58 AM 39.7°F4.3°C 37.8°F3.2°C 93% 5.4 mph SE8.7 kmh SE 9.0 mph14.5 kmh 29.81 in1009.5 mb 0.00 in0.0 mm 0.00 in0.0 mm 0.05 in1.3 mm
10:59 AM 39.7°F4.3°C 37.8°F3.2°C 93% 6.5 mph SE10.5 kmh SE 9.0 mph14.5 kmh 29.81 in1009.5 mb 0.00 in0.0 mm 0.00 in0.0 mm 0.05 in1.3 mm
11:00 AM 39.8°F4.3°C 37.9°F3.3°C 93% 6.7 mph SE10.8 kmh SE 9.0 mph14.5 kmh 29.81 in1009.5 mb 0.00 in0.0 mm 0.00 in0.0 mm 0.05 in1.3 mm
11:01 AM 39.7°F4.3°C 37.8°F3.2°C 93% 6.3 mph SE10.1 kmh SE 9.0 mph14.5 kmh 29.81 in1009.5 mb 0.00 in0.0 mm 0.00 in0.0 mm 0.05 in1.3 mm
11:02 AM 39.8°F4.3°C 37.9°F3.3°C 93% 6.2 mph SE10.0 kmh SE 7.0 mph11.3 kmh 29.81 in1009.5 mb 0.00 in0.0 mm 0.00 in0.0 mm 0.05 in1.3 mm
11:03 AM 39.8°F4.3°C 37.9°F3.3°C 93% 5.2 mph SE8.4 kmh SE 9.0 mph14.5 kmh 29.81 in1009.5 mb 0.00 in0.0 mm 0.00 in0.0 mm 0.05 in1.3 mm
11:04 AM 39.8°F4.3°C 37.9°F3.3°C 93% 5.6 mph SE9.0 kmh SE 9.0 mph14.5 kmh 29.81 in1009.5 mb 0.00 in0.0 mm 0.00 in0.0 mm 0.05 in1.3 mm
11:05 AM 39.8°F4.3°C 37.9°F3.3°C 93% 7.0 mph SE11.3 kmh SE 9.0 mph14.5 kmh 29.81 in1009.5 mb 0.00 in0.0 mm 0.00 in0.0 mm 0.05 in1.3 mm
11:06 AM 39.8°F4.3°C 37.9°F3.3°C 93% 5.4 mph SE8.7 kmh SE 9.0 mph14.5 kmh 29.81 in1009.5 mb 0.00 in0.0 mm 0.00 in0.0 mm 0.05 in1.3 mm
11:07 AM 39.8°F4.3°C 37.9°F3.3°C 93% 7.1 mph SE11.4 kmh SE 9.0 mph14.5 kmh 29.81 in1009.5 mb 0.00 in0.0 mm 0.00 in0.0 mm 0.05 in1.3 mm
11:08 AM 39.8°F4.3°C 37.9°F3.3°C 93% 7.3 mph SE11.7 kmh SE 9.0 mph14.5 kmh 29.81 in1009.5 mb 0.00 in0.0 mm 0.00 in0.0 mm 0.05 in1.3 mm
11:09 AM 39.8°F4.3°C 37.9°F3.3°C 93% 7.7 mph SE12.4 kmh SE 10.0 mph16.1 kmh 29.81 in1009.5 mb 0.00 in0.0 mm 0.00 in0.0 mm 0.05 in1.3 mm
11:10 AM 39.8°F4.3°C 37.9°F3.3°C 93% 7.3 mph SE11.7 kmh SE 10.0 mph16.1 kmh 29.81 in1009.5 mb 0.00 in0.0 mm 0.00 in0.0 mm 0.05 in1.3 mm
11:11 AM 39.8°F4.3°C 37.9°F3.3°C 93% 6.5 mph SE10.5 kmh SE 10.0 mph16.1 kmh 29.80 in1009.1 mb 0.00 in0.0 mm 0.00 in0.0 mm 0.05 in1.3 mm
11:12 AM 39.8°F4.3°C 37.9°F3.3°C 93% 4.8 mph SE7.7 kmh SE 8.0 mph12.9 kmh 29.80 in1009.1 mb 0.00 in0.0 mm 0.00 in0.0 mm 0.05 in1.3 mm
11:13 AM 39.8°F4.3°C 37.9°F3.3°C 93% 5.0 mph SE8.0 kmh SE 8.0 mph12.9 kmh 29.80 in1009.1 mb 0.00 in0.0 mm 0.00 in0.0 mm 0.05 in1.3 mm
11:14 AM 39.8°F4.3°C 37.9°F3.3°C 93% 5.5 mph SE8.9 kmh SE 8.0 mph12.9 kmh 29.80 in1009.1 mb 0.00 in0.0 mm 0.00 in0.0 mm 0.05 in1.3 mm
11:15 AM 39.8°F4.3°C 37.9°F3.3°C 93% 5.1 mph SE8.2 kmh SE 7.0 mph11.3 kmh 29.80 in1009.1 mb 0.00 in0.0 mm 0.00 in0.0 mm 0.05 in1.3 mm
11:16 AM 39.8°F4.3°C 37.9°F3.3°C 93% 6.6 mph SE10.6 kmh SE 9.0 mph14.5 kmh 29.80 in1009.1 mb 0.00 in0.0 mm 0.00 in0.0 mm 0.05 in1.3 mm
11:17 AM 39.8°F4.3°C 37.9°F3.3°C 93% 7.5 mph SE12.1 kmh SE 9.0 mph14.5 kmh 29.80 in1009.1 mb 0.00 in0.0 mm 0.00 in0.0 mm 0.05 in1.3 mm
11:18 AM 39.8°F4.3°C 37.9°F3.3°C 93% 8.0 mph SE12.9 kmh SE 10.0 mph16.1 kmh 29.80 in1009.1 mb 0.00 in0.0 mm 0.00 in0.0 mm 0.05 in1.3 mm
11:19 AM 39.8°F4.3°C 37.9°F3.3°C 93% 8.6 mph SE13.8 kmh SE 11.0 mph17.7 kmh 29.80 in1009.1 mb 0.00 in0.0 mm 0.00 in0.0 mm 0.05 in1.3 mm
11:20 AM 39.8°F4.3°C 37.9°F3.3°C 93% 7.5 mph SE12.1 kmh SE 11.0 mph17.7 kmh 29.80 in1009.1 mb 0.00 in0.0 mm 0.00 in0.0 mm 0.05 in1.3 mm
11:21 AM 39.8°F4.3°C 37.9°F3.3°C 93% 8.5 mph SE13.7 kmh SE 11.0 mph17.7 kmh 29.80 in1009.1 mb 0.00 in0.0 mm 0.00 in0.0 mm 0.05 in1.3 mm
11:22 AM 39.8°F4.3°C 37.9°F3.3°C 93% 7.3 mph SE11.7 kmh SE 11.0 mph17.7 kmh 29.80 in1009.1 mb 0.00 in0.0 mm 0.00 in0.0 mm 0.05 in1.3 mm
11:23 AM 39.8°F4.3°C 37.9°F3.3°C 93% 7.5 mph SE12.1 kmh SE 11.0 mph17.7 kmh 29.80 in1009.1 mb 0.00 in0.0 mm 0.00 in0.0 mm 0.05 in1.3 mm
11:24 AM 39.8°F4.3°C 37.9°F3.3°C 93% 6.6 mph SE10.6 kmh SE 11.0 mph17.7 kmh 29.80 in1009.1 mb 0.00 in0.0 mm 0.00 in0.0 mm 0.05 in1.3 mm
11:25 AM 39.8°F4.3°C 37.9°F3.3°C 93% 7.5 mph SE12.1 kmh SE 10.0 mph16.1 kmh 29.80 in1009.1 mb 0.00 in0.0 mm 0.00 in0.0 mm 0.05 in1.3 mm
11:26 AM 39.9°F4.4°C 38.0°F3.3°C 93% 6.8 mph SE10.9 kmh SE 10.0 mph16.1 kmh 29.80 in1009.1 mb 0.00 in0.0 mm 0.00 in0.0 mm 0.05 in1.3 mm
11:27 AM 39.8°F4.3°C 37.9°F3.3°C 93% 8.5 mph SE13.7 kmh SE 11.0 mph17.7 kmh 29.80 in1009.1 mb 0.00 in0.0 mm 0.00 in0.0 mm 0.05 in1.3 mm
11:28 AM 39.8°F4.3°C 37.9°F3.3°C 93% 7.7 mph SE12.4 kmh SE 11.0 mph17.7 kmh 29.80 in1009.1 mb 0.00 in0.0 mm 0.00 in0.0 mm 0.05 in1.3 mm
11:29 AM 39.8°F4.3°C 37.9°F3.3°C 93% 8.0 mph SE12.9 kmh SE 11.0 mph17.7 kmh 29.80 in1009.1 mb 0.00 in0.0 mm 0.00 in0.0 mm 0.05 in1.3 mm
11:30 AM 39.8°F4.3°C 37.9°F3.3°C 93% 7.0 mph SE11.3 kmh SE 10.0 mph16.1 kmh 29.79 in1008.8 mb 0.00 in0.0 mm 0.00 in0.0 mm 0.05 in1.3 mm
11:31 AM 39.8°F4.3°C 37.9°F3.3°C 93% 6.0 mph SE9.7 kmh SE 8.0 mph12.9 kmh 29.79 in1008.8 mb 0.00 in0.0 mm 0.00 in0.0 mm 0.05 in1.3 mm
11:32 AM 39.8°F4.3°C 37.9°F3.3°C 93% 5.5 mph SE8.9 kmh SE 7.0 mph11.3 kmh 29.79 in1008.8 mb 0.00 in0.0 mm 0.00 in0.0 mm 0.05 in1.3 mm
11:33 AM 39.9°F4.4°C 38.0°F3.3°C 93% 8.1 mph SE13.0 kmh SE 11.0 mph17.7 kmh 29.79 in1008.8 mb 0.00 in0.0 mm 0.00 in0.0 mm 0.05 in1.3 mm
11:34 AM 39.9°F4.4°C 38.0°F3.3°C 93% 8.3 mph SE13.4 kmh SE 11.0 mph17.7 kmh 29.79 in1008.8 mb 0.00 in0.0 mm 0.00 in0.0 mm 0.05 in1.3 mm
11:35 AM 39.8°F4.3°C 37.9°F3.3°C 93% 7.7 mph SE12.4 kmh SE 10.0 mph16.1 kmh 29.79 in1008.8 mb 0.00 in0.0 mm 0.00 in0.0 mm 0.05 in1.3 mm
11:36 AM 39.8°F4.3°C 37.9°F3.3°C 93% 8.3 mph SE13.4 kmh SE 12.0 mph19.3 kmh 29.79 in1008.8 mb 0.00 in0.0 mm 0.00 in0.0 mm 0.05 in1.3 mm
11:37 AM 39.9°F4.4°C 38.0°F3.3°C 93% 6.0 mph SE9.7 kmh SE 12.0 mph19.3 kmh 29.79 in1008.8 mb 0.00 in0.0 mm 0.00 in0.0 mm 0.05 in1.3 mm
11:38 AM 39.8°F4.3°C 37.9°F3.3°C 93% 6.8 mph SE10.9 kmh SE 10.0 mph16.1 kmh 29.79 in1008.8 mb 0.00 in0.0 mm 0.00 in0.0 mm 0.05 in1.3 mm
11:39 AM 39.8°F4.3°C 37.9°F3.3°C 93% 7.7 mph SE12.4 kmh SE 9.0 mph14.5 kmh 29.78 in1008.5 mb 0.00 in0.0 mm 0.00 in0.0 mm 0.05 in1.3 mm
11:40 AM 39.9°F4.4°C 38.0°F3.3°C 93% 5.0 mph SE8.0 kmh SE 9.0 mph14.5 kmh 29.78 in1008.5 mb 0.00 in0.0 mm 0.00 in0.0 mm 0.05 in1.3 mm
11:41 AM 39.9°F4.4°C 38.0°F3.3°C 93% 7.8 mph SE12.6 kmh SE 11.0 mph17.7 kmh 29.78 in1008.5 mb 0.00 in0.0 mm 0.00 in0.0 mm 0.05 in1.3 mm
11:42 AM 39.8°F4.3°C 37.9°F3.3°C 93% 7.0 mph SE11.3 kmh SE 11.0 mph17.7 kmh 29.79 in1008.8 mb 0.00 in0.0 mm 0.00 in0.0 mm 0.05 in1.3 mm
11:43 AM 39.9°F4.4°C 38.0°F3.3°C 93% 7.6 mph SE12.2 kmh SE 10.0 mph16.1 kmh 29.79 in1008.8 mb 0.00 in0.0 mm 0.00 in0.0 mm 0.05 in1.3 mm
11:44 AM 39.9°F4.4°C 38.0°F3.3°C 93% 7.9 mph SE12.7 kmh SE 10.0 mph16.1 kmh 29.78 in1008.5 mb 0.00 in0.0 mm 0.00 in0.0 mm 0.05 in1.3 mm
11:45 AM 39.9°F4.4°C 38.0°F3.3°C 93% 8.4 mph SE13.5 kmh SE 11.0 mph17.7 kmh 29.78 in1008.5 mb 0.00 in0.0 mm 0.00 in0.0 mm 0.05 in1.3 mm
11:46 AM 39.9°F4.4°C 38.0°F3.3°C 93% 8.1 mph SE13.0 kmh SE 12.0 mph19.3 kmh 29.78 in1008.5 mb 0.00 in0.0 mm 0.00 in0.0 mm 0.05 in1.3 mm
11:47 AM 39.9°F4.4°C 38.0°F3.3°C 93% 9.4 mph SE15.1 kmh SE 13.0 mph20.9 kmh 29.78 in1008.5 mb 0.00 in0.0 mm 0.00 in0.0 mm 0.05 in1.3 mm
11:48 AM 39.9°F4.4°C 37.8°F3.2°C 92% 7.4 mph SE11.9 kmh SE 13.0 mph20.9 kmh 29.78 in1008.5 mb 0.00 in0.0 mm 0.00 in0.0 mm 0.05 in1.3 mm
11:49 AM 39.9°F4.4°C 38.0°F3.3°C 93% 6.5 mph SE10.5 kmh SE 9.0 mph14.5 kmh 29.78 in1008.5 mb 0.00 in0.0 mm 0.00 in0.0 mm 0.05 in1.3 mm
11:50 AM 39.9°F4.4°C 38.0°F3.3°C 93% 6.9 mph SE11.1 kmh SE 9.0 mph14.5 kmh 29.78 in1008.5 mb 0.00 in0.0 mm 0.00 in0.0 mm 0.05 in1.3 mm
11:51 AM 39.9°F4.4°C 38.0°F3.3°C 93% 5.8 mph SE9.3 kmh SE 9.0 mph14.5 kmh 29.78 in1008.5 mb 0.00 in0.0 mm 0.00 in0.0 mm 0.05 in1.3 mm
11:52 AM 40.0°F4.4°C 38.1°F3.4°C 93% 6.4 mph SE10.3 kmh SE 11.0 mph17.7 kmh 29.78 in1008.5 mb 0.00 in0.0 mm 0.00 in0.0 mm 0.05 in1.3 mm
11:53 AM 40.0°F4.4°C 38.1°F3.4°C 93% 4.1 mph SE6.6 kmh SE 11.0 mph17.7 kmh 29.78 in1008.5 mb 0.00 in0.0 mm 0.00 in0.0 mm 0.05 in1.3 mm
11:54 AM 40.0°F4.4°C 38.1°F3.4°C 93% 5.8 mph SE9.3 kmh SE 9.0 mph14.5 kmh 29.78 in1008.5 mb 0.00 in0.0 mm 0.00 in0.0 mm 0.05 in1.3 mm
11:55 AM 39.9°F4.4°C 38.0°F3.3°C 93% 6.8 mph SE10.9 kmh SE 10.0 mph16.1 kmh 29.78 in1008.5 mb 0.00 in0.0 mm 0.00 in0.0 mm 0.05 in1.3 mm
11:56 AM 40.0°F4.4°C 38.1°F3.4°C 93% 6.3 mph SE10.1 kmh SE 10.0 mph16.1 kmh 29.78 in1008.5 mb 0.00 in0.0 mm 0.00 in0.0 mm 0.05 in1.3 mm
11:57 AM 39.9°F4.4°C 37.8°F3.2°C 92% 5.8 mph SE9.3 kmh SE 10.0 mph16.1 kmh 29.78 in1008.5 mb 0.00 in0.0 mm 0.00 in0.0 mm 0.05 in1.3 mm
11:58 AM 40.0°F4.4°C 37.9°F3.3°C 92% 7.2 mph SE11.6 kmh SE 10.0 mph16.1 kmh 29.78 in1008.5 mb 0.00 in0.0 mm 0.00 in0.0 mm 0.05 in1.3 mm
11:59 AM 40.0°F4.4°C 37.9°F3.3°C 92% 9.0 mph SE14.5 kmh SE 11.0 mph17.7 kmh 29.77 in1008.1 mb 0.00 in0.0 mm 0.00 in0.0 mm 0.05 in1.3 mm
12:00 PM 40.0°F4.4°C 37.9°F3.3°C 92% 8.4 mph SE13.5 kmh SE 11.0 mph17.7 kmh 29.77 in1008.1 mb 0.00 in0.0 mm 0.00 in0.0 mm 0.05 in1.3 mm
12:01 PM 40.0°F4.4°C 37.9°F3.3°C 92% 8.4 mph SE13.5 kmh SE 11.0 mph17.7 kmh 29.77 in1008.1 mb 0.00 in0.0 mm 0.00 in0.0 mm 0.05 in1.3 mm
12:02 PM 40.0°F4.4°C 37.9°F3.3°C 92% 7.0 mph SE11.3 kmh SE 10.0 mph16.1 kmh 29.77 in1008.1 mb 0.00 in0.0 mm 0.00 in0.0 mm 0.05 in1.3 mm
12:03 PM 40.0°F4.4°C 37.9°F3.3°C 92% 6.5 mph SE10.5 kmh SE 10.0 mph16.1 kmh 29.77 in1008.1 mb 0.00 in0.0 mm 0.00 in0.0 mm 0.05 in1.3 mm
12:04 PM 40.0°F4.4°C 37.9°F3.3°C 92% 7.2 mph SE11.6 kmh SE 8.0 mph12.9 kmh 29.77 in1008.1 mb 0.00 in0.0 mm 0.00 in0.0 mm 0.05 in1.3 mm
12:05 PM 40.0°F4.4°C 37.9°F3.3°C 92% 6.0 mph SE9.7 kmh SE 10.0 mph16.1 kmh 29.77 in1008.1 mb 0.00 in0.0 mm 0.00 in0.0 mm 0.05 in1.3 mm
12:06 PM 40.0°F4.4°C 37.9°F3.3°C 92% 8.0 mph SE12.9 kmh SE 10.0 mph16.1 kmh 29.77 in1008.1 mb 0.00 in0.0 mm 0.00 in0.0 mm 0.05 in1.3 mm
12:07 PM 40.0°F4.4°C 37.9°F3.3°C 92% 7.5 mph SE12.1 kmh SE 10.0 mph16.1 kmh 29.77 in1008.1 mb 0.00 in0.0 mm 0.00 in0.0 mm 0.05 in1.3 mm
12:08 PM 40.0°F4.4°C 37.9°F3.3°C 92% 6.9 mph SE11.1 kmh SE 10.0 mph16.1 kmh 29.77 in1008.1 mb 0.00 in0.0 mm 0.00 in0.0 mm 0.05 in1.3 mm
12:09 PM 40.1°F4.5°C 38.0°F3.3°C 92% 4.7 mph SE7.6 kmh SE 9.0 mph14.5 kmh 29.77 in1008.1 mb 0.00 in0.0 mm 0.00 in0.0 mm 0.05 in1.3 mm
12:10 PM 40.0°F4.4°C 37.9°F3.3°C 92% 6.1 mph SE9.8 kmh SE 8.0 mph12.9 kmh 29.77 in1008.1 mb 0.00 in0.0 mm 0.00 in0.0 mm 0.05 in1.3 mm
12:11 PM 40.1°F4.5°C 38.0°F3.3°C 92% 5.7 mph SE9.2 kmh SE 8.0 mph12.9 kmh 29.77 in1008.1 mb 0.00 in0.0 mm 0.00 in0.0 mm 0.05 in1.3 mm
12:12 PM 40.0°F4.4°C 37.9°F3.3°C 92% 5.1 mph SE8.2 kmh SE 9.0 mph14.5 kmh 29.77 in1008.1 mb 0.00 in0.0 mm 0.00 in0.0 mm 0.05 in1.3 mm
12:13 PM 40.1°F4.5°C 38.0°F3.3°C 92% 6.8 mph SE10.9 kmh SE 9.0 mph14.5 kmh 29.77 in1008.1 mb 0.00 in0.0 mm 0.00 in0.0 mm 0.05 in1.3 mm
12:14 PM 40.0°F4.4°C 37.9°F3.3°C 92% 6.5 mph SE10.5 kmh SE 10.0 mph16.1 kmh 29.77 in1008.1 mb 0.00 in0.0 mm 0.00 in0.0 mm 0.05 in1.3 mm
12:15 PM 40.1°F4.5°C 38.0°F3.3°C 92% 8.0 mph SE12.9 kmh SE 10.0 mph16.1 kmh 29.77 in1008.1 mb 0.00 in0.0 mm 0.00 in0.0 mm 0.05 in1.3 mm
12:16 PM 40.1°F4.5°C 38.0°F3.3°C 92% 5.7 mph SE9.2 kmh SE 10.0 mph16.1 kmh 29.77 in1008.1 mb 0.00 in0.0 mm 0.00 in0.0 mm 0.05 in1.3 mm
12:17 PM 40.1°F4.5°C 38.0°F3.3°C 92% 6.3 mph SE10.1 kmh SE 9.0 mph14.5 kmh 29.77 in1008.1 mb 0.00 in0.0 mm 0.00 in0.0 mm 0.05 in1.3 mm
12:18 PM 40.1°F4.5°C 38.0°F3.3°C 92% 7.7 mph SE12.4 kmh SE 11.0 mph17.7 kmh 29.77 in1008.1 mb 0.00 in0.0 mm 0.00 in0.0 mm 0.05 in1.3 mm
12:19 PM 40.1°F4.5°C 38.0°F3.3°C 92% 7.3 mph SE11.7 kmh SE 11.0 mph17.7 kmh 29.77 in1008.1 mb 0.00 in0.0 mm 0.00 in0.0 mm 0.05 in1.3 mm
12:20 PM 40.1°F4.5°C 38.0°F3.3°C 92% 6.2 mph SE10.0 kmh SE 11.0 mph17.7 kmh 29.78 in1008.5 mb 0.00 in0.0 mm 0.00 in0.0 mm 0.05 in1.3 mm
12:21 PM 40.1°F4.5°C 38.0°F3.3°C 92% 7.5 mph SE12.1 kmh SE 10.0 mph16.1 kmh 29.78 in1008.5 mb 0.00 in0.0 mm 0.00 in0.0 mm 0.05 in1.3 mm
12:22 PM 40.1°F4.5°C 38.0°F3.3°C 92% 5.5 mph SE8.9 kmh SE 10.0 mph16.1 kmh 29.78 in1008.5 mb 0.00 in0.0 mm 0.00 in0.0 mm 0.05 in1.3 mm
12:23 PM 40.2°F4.6°C 38.1°F3.4°C 92% 3.9 mph SE6.3 kmh SE 9.0 mph14.5 kmh 29.78 in1008.5 mb 0.00 in0.0 mm 0.00 in0.0 mm 0.05 in1.3 mm
12:24 PM 40.2°F4.6°C 38.1°F3.4°C 92% 6.8 mph SE10.9 kmh SE 11.0 mph17.7 kmh 29.78 in1008.5 mb 0.00 in0.0 mm 0.00 in0.0 mm 0.05 in1.3 mm
12:25 PM 40.2°F4.6°C 38.1°F3.4°C 92% 5.2 mph SE8.4 kmh SE 11.0 mph17.7 kmh 29.78 in1008.5 mb 0.00 in0.0 mm 0.00 in0.0 mm 0.05 in1.3 mm
12:26 PM 40.1°F4.5°C 38.2°F3.4°C 93% 5.0 mph SE8.0 kmh SE 8.0 mph12.9 kmh 29.78 in1008.5 mb 0.00 in0.0 mm 0.00 in0.0 mm 0.05 in1.3 mm
12:27 PM 40.2°F4.6°C 38.1°F3.4°C 92% 6.1 mph SE9.8 kmh SE 10.0 mph16.1 kmh 29.78 in1008.5 mb 0.00 in0.0 mm 0.00 in0.0 mm 0.05 in1.3 mm
12:28 PM 40.2°F4.6°C 38.1°F3.4°C 92% 7.2 mph SE11.6 kmh SE 10.0 mph16.1 kmh 29.78 in1008.5 mb 0.00 in0.0 mm 0.00 in0.0 mm 0.05 in1.3 mm
12:29 PM 40.2°F4.6°C 38.3°F3.5°C 93% 6.4 mph SE10.3 kmh SE 9.0 mph14.5 kmh 29.77 in1008.1 mb 0.00 in0.0 mm 0.00 in0.0 mm 0.05 in1.3 mm
12:30 PM 40.2°F4.6°C 38.1°F3.4°C 92% 6.9 mph SE11.1 kmh SE 9.0 mph14.5 kmh 29.77 in1008.1 mb 0.00 in0.0 mm 0.00 in0.0 mm 0.05 in1.3 mm
12:31 PM 40.1°F4.5°C 38.0°F3.3°C 92% 6.2 mph SE10.0 kmh SE 11.0 mph17.7 kmh 29.77 in1008.1 mb 0.00 in0.0 mm 0.00 in0.0 mm 0.05 in1.3 mm
12:32 PM 40.1°F4.5°C 38.0°F3.3°C 92% 5.1 mph SE8.2 kmh SE 11.0 mph17.7 kmh 29.77 in1008.1 mb 0.00 in0.0 mm 0.00 in0.0 mm 0.05 in1.3 mm
12:33 PM 40.2°F4.6°C 38.1°F3.4°C 92% 5.7 mph SE9.2 kmh SE 9.0 mph14.5 kmh 29.77 in1008.1 mb 0.00 in0.0 mm 0.00 in0.0 mm 0.05 in1.3 mm
12:34 PM 40.2°F4.6°C 38.1°F3.4°C 92% 6.3 mph SE10.1 kmh SE 9.0 mph14.5 kmh 29.77 in1008.1 mb 0.00 in0.0 mm 0.00 in0.0 mm 0.05 in1.3 mm
12:35 PM 40.2°F4.6°C 38.1°F3.4°C 92% 6.1 mph SE9.8 kmh SE 9.0 mph14.5 kmh 29.77 in1008.1 mb 0.00 in0.0 mm 0.00 in0.0 mm 0.05 in1.3 mm
12:36 PM 40.2°F4.6°C 38.1°F3.4°C 92% 7.6 mph SE12.2 kmh SE 10.0 mph16.1 kmh 29.77 in1008.1 mb 0.00 in0.0 mm 0.00 in0.0 mm 0.05 in1.3 mm
12:37 PM 40.2°F4.6°C 38.1°F3.4°C 92% 6.2 mph SE10.0 kmh SE 10.0 mph16.1 kmh 29.77 in1008.1 mb 0.00 in0.0 mm 0.00 in0.0 mm 0.05 in1.3 mm
12:38 PM 40.2°F4.6°C 38.1°F3.4°C 92% 8.1 mph SE13.0 kmh SE 10.0 mph16.1 kmh 29.77 in1008.1 mb 0.00 in0.0 mm 0.00 in0.0 mm 0.05 in1.3 mm
12:39 PM 40.2°F4.6°C 38.3°F3.5°C 93% 7.3 mph SE11.7 kmh SE 10.0 mph16.1 kmh 29.76 in1007.8 mb 0.00 in0.0 mm 0.00 in0.0 mm 0.05 in1.3 mm
12:40 PM 40.2°F4.6°C 38.1°F3.4°C 92% 8.0 mph SE12.9 kmh SE 10.0 mph16.1 kmh 29.76 in1007.8 mb 0.00 in0.0 mm 0.00 in0.0 mm 0.05 in1.3 mm
12:41 PM 40.2°F4.6°C 38.1°F3.4°C 92% 9.8 mph SE15.8 kmh SE 12.0 mph19.3 kmh 29.76 in1007.8 mb 0.00 in0.0 mm 0.00 in0.0 mm 0.05 in1.3 mm
12:42 PM 40.2°F4.6°C 38.1°F3.4°C 92% 9.2 mph SE14.8 kmh SE 12.0 mph19.3 kmh 29.76 in1007.8 mb 0.00 in0.0 mm 0.00 in0.0 mm 0.05 in1.3 mm
12:43 PM 40.2°F4.6°C 38.1°F3.4°C 92% 8.4 mph SE13.5 kmh SE 12.0 mph19.3 kmh 29.76 in1007.8 mb 0.00 in0.0 mm 0.00 in0.0 mm 0.05 in1.3 mm
12:44 PM 40.2°F4.6°C 38.1°F3.4°C 92% 8.6 mph SE13.8 kmh SE 11.0 mph17.7 kmh 29.76 in1007.8 mb 0.00 in0.0 mm 0.00 in0.0 mm 0.05 in1.3 mm
12:45 PM 40.2°F4.6°C 38.1°F3.4°C 92% 6.3 mph SE10.1 kmh SE 11.0 mph17.7 kmh 29.76 in1007.8 mb 0.00 in0.0 mm 0.00 in0.0 mm 0.05 in1.3 mm
12:46 PM 40.2°F4.6°C 38.3°F3.5°C 93% 8.8 mph SE14.2 kmh SE 11.0 mph17.7 kmh 29.76 in1007.8 mb 0.00 in0.0 mm 0.00 in0.0 mm 0.05 in1.3 mm
12:47 PM 40.2°F4.6°C 38.1°F3.4°C 92% 8.1 mph SE13.0 kmh SE 11.0 mph17.7 kmh 29.76 in1007.8 mb 0.00 in0.0 mm 0.00 in0.0 mm 0.05 in1.3 mm
12:48 PM 40.2°F4.6°C 38.3°F3.5°C 93% 6.4 mph SE10.3 kmh SE 10.0 mph16.1 kmh 29.76 in1007.8 mb 0.00 in0.0 mm 0.00 in0.0 mm 0.05 in1.3 mm
12:49 PM 40.3°F4.6°C 38.2°F3.4°C 92% 8.3 mph SE13.4 kmh SE 12.0 mph19.3 kmh 29.76 in1007.8 mb 0.00 in0.0 mm 0.00 in0.0 mm 0.05 in1.3 mm
12:50 PM 40.3°F4.6°C 38.4°F3.6°C 93% 8.3 mph SE13.4 kmh SE 12.0 mph19.3 kmh 29.76 in1007.8 mb 0.00 in0.0 mm 0.00 in0.0 mm 0.05 in1.3 mm
12:51 PM 40.2°F4.6°C 38.1°F3.4°C 92% 7.0 mph SE11.3 kmh SE 11.0 mph17.7 kmh 29.76 in1007.8 mb 0.00 in0.0 mm 0.00 in0.0 mm 0.05 in1.3 mm
12:52 PM 40.3°F4.6°C 38.4°F3.6°C 93% 9.2 mph SE14.8 kmh SE 11.0 mph17.7 kmh 29.76 in1007.8 mb 0.00 in0.0 mm 0.00 in0.0 mm 0.05 in1.3 mm
12:53 PM 40.2°F4.6°C 38.1°F3.4°C 92% 7.8 mph SE12.6 kmh SE 11.0 mph17.7 kmh 29.76 in1007.8 mb 0.00 in0.0 mm 0.00 in0.0 mm 0.05 in1.3 mm
12:54 PM 40.3°F4.6°C 38.2°F3.4°C 92% 8.5 mph SE13.7 kmh SE 11.0 mph17.7 kmh 29.76 in1007.8 mb 0.00 in0.0 mm 0.00 in0.0 mm 0.05 in1.3 mm
12:55 PM 40.3°F4.6°C 38.2°F3.4°C 92% 8.8 mph SE14.2 kmh SE 11.0 mph17.7 kmh 29.75 in1007.5 mb 0.00 in0.0 mm 0.00 in0.0 mm 0.05 in1.3 mm
12:56 PM 40.3°F4.6°C 38.2°F3.4°C 92% 8.5 mph SE13.7 kmh SE 12.0 mph19.3 kmh 29.75 in1007.5 mb 0.00 in0.0 mm 0.00 in0.0 mm 0.05 in1.3 mm
12:57 PM 40.3°F4.6°C 38.2°F3.4°C 92% 9.2 mph SE14.8 kmh SE 12.0 mph19.3 kmh 29.75 in1007.5 mb 0.00 in0.0 mm 0.00 in0.0 mm 0.05 in1.3 mm
12:58 PM 40.3°F4.6°C 38.2°F3.4°C 92% 8.3 mph SE13.4 kmh SE 12.0 mph19.3 kmh 29.75 in1007.5 mb 0.00 in0.0 mm 0.00 in0.0 mm 0.05 in1.3 mm
12:59 PM 40.3°F4.6°C 38.2°F3.4°C 92% 8.0 mph SE12.9 kmh SE 11.0 mph17.7 kmh 29.75 in1007.5 mb 0.00 in0.0 mm 0.00 in0.0 mm 0.05 in1.3 mm
01:00 PM 40.3°F4.6°C 38.2°F3.4°C 92% 7.0 mph SE11.3 kmh SE 11.0 mph17.7 kmh 29.76 in1007.8 mb 0.00 in0.0 mm 0.00 in0.0 mm 0.05 in1.3 mm
01:01 PM 40.3°F4.6°C 38.4°F3.6°C 93% 8.0 mph SE12.9 kmh SE 11.0 mph17.7 kmh 29.75 in1007.5 mb 0.00 in0.0 mm 0.00 in0.0 mm 0.05 in1.3 mm
01:02 PM 40.4°F4.7°C 38.5°F3.6°C 93% 8.8 mph SE14.2 kmh SE 10.0 mph16.1 kmh 29.75 in1007.5 mb 0.00 in0.0 mm 0.00 in0.0 mm 0.05 in1.3 mm
01:03 PM 40.4°F4.7°C 38.5°F3.6°C 93% 7.8 mph SE12.6 kmh SE 10.0 mph16.1 kmh 29.75 in1007.5 mb 0.00 in0.0 mm 0.00 in0.0 mm 0.05 in1.3 mm
01:04 PM 40.4°F4.7°C 38.5°F3.6°C 93% 6.9 mph SE11.1 kmh SE 10.0 mph16.1 kmh 29.75 in1007.5 mb 0.00 in0.0 mm 0.00 in0.0 mm 0.05 in1.3 mm
01:05 PM 40.4°F4.7°C 38.3°F3.5°C 92% 6.3 mph SE10.1 kmh SE 9.0 mph14.5 kmh 29.75 in1007.5 mb 0.00 in0.0 mm 0.00 in0.0 mm 0.05 in1.3 mm
01:06 PM 40.4°F4.7°C 38.5°F3.6°C 93% 6.0 mph SE9.7 kmh SE 9.0 mph14.5 kmh 29.75 in1007.5 mb 0.00 in0.0 mm 0.00 in0.0 mm 0.05 in1.3 mm
01:07 PM 40.4°F4.7°C 38.3°F3.5°C 92% 6.9 mph SE11.1 kmh SE 9.0 mph14.5 kmh 29.75 in1007.5 mb 0.00 in0.0 mm 0.00 in0.0 mm 0.05 in1.3 mm
01:08 PM 40.4°F4.7°C 38.3°F3.5°C 92% 8.3 mph SE13.4 kmh SE 11.0 mph17.7 kmh 29.75 in1007.5 mb 0.00 in0.0 mm 0.00 in0.0 mm 0.05 in1.3 mm
01:09 PM 40.4°F4.7°C 38.3°F3.5°C 92% 8.6 mph SE13.8 kmh SE 11.0 mph17.7 kmh 29.75 in1007.5 mb 0.00 in0.0 mm 0.00 in0.0 mm 0.05 in1.3 mm
01:10 PM 40.4°F4.7°C 38.3°F3.5°C 92% 8.8 mph SE14.2 kmh SE 11.0 mph17.7 kmh 29.75 in1007.5 mb 0.00 in0.0 mm 0.00 in0.0 mm 0.05 in1.3 mm
01:11 PM 40.4°F4.7°C 38.3°F3.5°C 92% 5.5 mph SE8.9 kmh SE 10.0 mph16.1 kmh 29.75 in1007.5 mb 0.00 in0.0 mm 0.00 in0.0 mm 0.05 in1.3 mm
01:12 PM 40.4°F4.7°C 38.5°F3.6°C 93% 5.3 mph SE8.5 kmh SE 8.0 mph12.9 kmh 29.75 in1007.5 mb 0.00 in0.0 mm 0.00 in0.0 mm 0.05 in1.3 mm
01:13 PM 40.4°F4.7°C 38.3°F3.5°C 92% 6.0 mph SE9.7 kmh SE 9.0 mph14.5 kmh 29.75 in1007.5 mb 0.00 in0.0 mm 0.00 in0.0 mm 0.05 in1.3 mm
01:14 PM 40.4°F4.7°C 38.3°F3.5°C 92% 5.5 mph SE8.9 kmh SE 9.0 mph14.5 kmh 29.75 in1007.5 mb 0.00 in0.0 mm 0.00 in0.0 mm 0.05 in1.3 mm
01:15 PM 40.5°F4.7°C 38.6°F3.7°C 93% 6.8 mph SE10.9 kmh SE 10.0 mph16.1 kmh 29.75 in1007.5 mb 0.00 in0.0 mm 0.00 in0.0 mm 0.05 in1.3 mm
01:16 PM 40.5°F4.7°C 38.4°F3.6°C 92% 7.7 mph SE12.4 kmh SE 10.0 mph16.1 kmh 29.75 in1007.5 mb 0.00 in0.0 mm 0.00 in0.0 mm 0.05 in1.3 mm
01:17 PM 40.5°F4.7°C 38.4°F3.6°C 92% 7.1 mph SE11.4 kmh SE 10.0 mph16.1 kmh 29.75 in1007.5 mb 0.00 in0.0 mm 0.00 in0.0 mm 0.05 in1.3 mm
01:18 PM 40.4°F4.7°C 38.3°F3.5°C 92% 7.2 mph SE11.6 kmh SE 10.0 mph16.1 kmh 29.75 in1007.5 mb 0.00 in0.0 mm 0.00 in0.0 mm 0.05 in1.3 mm
01:19 PM 40.5°F4.7°C 38.4°F3.6°C 92% 6.8 mph SE10.9 kmh SE 10.0 mph16.1 kmh 29.75 in1007.5 mb 0.00 in0.0 mm 0.00 in0.0 mm 0.05 in1.3 mm
01:20 PM 40.5°F4.7°C 38.4°F3.6°C 92% 7.8 mph SE12.6 kmh SE 10.0 mph16.1 kmh 29.75 in1007.5 mb 0.00 in0.0 mm 0.00 in0.0 mm 0.05 in1.3 mm
01:21 PM 40.4°F4.7°C 38.3°F3.5°C 92% 6.2 mph SE10.0 kmh SE 10.0 mph16.1 kmh 29.75 in1007.5 mb 0.00 in0.0 mm 0.00 in0.0 mm 0.05 in1.3 mm
01:22 PM 40.5°F4.7°C 38.4°F3.6°C 92% 8.5 mph SE13.7 kmh SE 10.0 mph16.1 kmh 29.75 in1007.5 mb 0.00 in0.0 mm 0.00 in0.0 mm 0.05 in1.3 mm
01:23 PM 40.5°F4.7°C 38.4°F3.6°C 92% 6.8 mph SE10.9 kmh SE 10.0 mph16.1 kmh 29.75 in1007.5 mb 0.00 in0.0 mm 0.00 in0.0 mm 0.05 in1.3 mm
01:24 PM 40.5°F4.7°C 38.4°F3.6°C 92% 5.4 mph SE8.7 kmh SE 9.0 mph14.5 kmh 29.75 in1007.5 mb 0.00 in0.0 mm 0.00 in0.0 mm 0.05 in1.3 mm
01:25 PM 40.5°F4.7°C 38.6°F3.7°C 93% 6.1 mph SE9.8 kmh SE 9.0 mph14.5 kmh 29.75 in1007.5 mb 0.00 in0.0 mm 0.00 in0.0 mm 0.05 in1.3 mm
01:26 PM 40.5°F4.7°C 38.4°F3.6°C 92% 6.7 mph SE10.8 kmh SE 10.0 mph16.1 kmh 29.75 in1007.5 mb 0.00 in0.0 mm 0.00 in0.0 mm 0.05 in1.3 mm
01:27 PM 40.5°F4.7°C 38.4°F3.6°C 92% 8.1 mph SE13.0 kmh SE 10.0 mph16.1 kmh 29.76 in1007.8 mb 0.00 in0.0 mm 0.00 in0.0 mm 0.05 in1.3 mm
01:28 PM 40.5°F4.7°C 38.4°F3.6°C 92% 7.3 mph SE11.7 kmh SE 10.0 mph16.1 kmh 29.76 in1007.8 mb 0.00 in0.0 mm 0.00 in0.0 mm 0.05 in1.3 mm
01:29 PM 40.5°F4.7°C 38.4°F3.6°C 92% 5.1 mph SE8.2 kmh SE 10.0 mph16.1 kmh 29.76 in1007.8 mb 0.00 in0.0 mm 0.00 in0.0 mm 0.05 in1.3 mm
01:30 PM 40.6°F4.8°C 38.5°F3.6°C 92% 6.4 mph SE10.3 kmh SE 9.0 mph14.5 kmh 29.76 in1007.8 mb 0.00 in0.0 mm 0.00 in0.0 mm 0.05 in1.3 mm
01:31 PM 40.5°F4.7°C 38.6°F3.7°C 93% 6.1 mph SE9.8 kmh SE 9.0 mph14.5 kmh 29.76 in1007.8 mb 0.00 in0.0 mm 0.00 in0.0 mm 0.05 in1.3 mm
01:32 PM 40.5°F4.7°C 38.6°F3.7°C 93% 5.6 mph SE9.0 kmh SE 9.0 mph14.5 kmh 29.76 in1007.8 mb 0.00 in0.0 mm 0.00 in0.0 mm 0.05 in1.3 mm
01:33 PM 40.5°F4.7°C 38.4°F3.6°C 92% 8.9 mph SE14.3 kmh SE 12.0 mph19.3 kmh 29.76 in1007.8 mb 0.00 in0.0 mm 0.00 in0.0 mm 0.05 in1.3 mm
01:34 PM 40.6°F4.8°C 38.5°F3.6°C 92% 7.3 mph SE11.7 kmh SE 12.0 mph19.3 kmh 29.75 in1007.5 mb 0.00 in0.0 mm 0.00 in0.0 mm 0.05 in1.3 mm
01:35 PM 40.6°F4.8°C 38.5°F3.6°C 92% 7.0 mph SE11.3 kmh SE 9.0 mph14.5 kmh 29.75 in1007.5 mb 0.00 in0.0 mm 0.00 in0.0 mm 0.05 in1.3 mm
01:36 PM 40.5°F4.7°C 38.4°F3.6°C 92% 5.8 mph SE9.3 kmh SE 9.0 mph14.5 kmh 29.76 in1007.8 mb 0.00 in0.0 mm 0.00 in0.0 mm 0.05 in1.3 mm
01:37 PM 40.6°F4.8°C 38.5°F3.6°C 92% 6.2 mph SE10.0 kmh SE 10.0 mph16.1 kmh 29.76 in1007.8 mb 0.00 in0.0 mm 0.00 in0.0 mm 0.05 in1.3 mm
01:38 PM 40.6°F4.8°C 38.7°F3.7°C 93% 7.5 mph SE12.1 kmh SE 10.0 mph16.1 kmh 29.76 in1007.8 mb 0.00 in0.0 mm 0.00 in0.0 mm 0.05 in1.3 mm
01:39 PM 40.6°F4.8°C 38.5°F3.6°C 92% 7.9 mph SE12.7 kmh SE 11.0 mph17.7 kmh 29.75 in1007.5 mb 0.00 in0.0 mm 0.00 in0.0 mm 0.05 in1.3 mm
01:40 PM 40.6°F4.8°C 38.5°F3.6°C 92% 6.9 mph SE11.1 kmh SE 11.0 mph17.7 kmh 29.75 in1007.5 mb 0.00 in0.0 mm 0.00 in0.0 mm 0.05 in1.3 mm
01:41 PM 40.6°F4.8°C 38.5°F3.6°C 92% 7.9 mph SE12.7 kmh SE 10.0 mph16.1 kmh 29.75 in1007.5 mb 0.00 in0.0 mm 0.00 in0.0 mm 0.05 in1.3 mm
01:42 PM 40.6°F4.8°C 38.5°F3.6°C 92% 6.5 mph SE10.5 kmh SE 10.0 mph16.1 kmh 29.75 in1007.5 mb 0.00 in0.0 mm 0.00 in0.0 mm 0.05 in1.3 mm
01:43 PM 40.6°F4.8°C 38.7°F3.7°C 93% 6.5 mph SE10.5 kmh SE 8.0 mph12.9 kmh 29.75 in1007.5 mb 0.00 in0.0 mm 0.00 in0.0 mm 0.05 in1.3 mm
01:44 PM 40.6°F4.8°C 38.7°F3.7°C 93% 5.3 mph SE8.5 kmh SE 8.0 mph12.9 kmh 29.75 in1007.5 mb 0.00 in0.0 mm 0.00 in0.0 mm 0.05 in1.3 mm
01:45 PM 40.6°F4.8°C 38.5°F3.6°C 92% 7.1 mph SE11.4 kmh SE 10.0 mph16.1 kmh 29.75 in1007.5 mb 0.00 in0.0 mm 0.00 in0.0 mm 0.05 in1.3 mm
01:46 PM 40.6°F4.8°C 38.7°F3.7°C 93% 5.0 mph SE8.0 kmh SE 10.0 mph16.1 kmh 29.75 in1007.5 mb 0.00 in0.0 mm 0.00 in0.0 mm 0.05 in1.3 mm
01:47 PM 40.6°F4.8°C 38.5°F3.6°C 92% 7.7 mph SE12.4 kmh SE 11.0 mph17.7 kmh 29.75 in1007.5 mb 0.00 in0.0 mm 0.00 in0.0 mm 0.05 in1.3 mm
01:48 PM 40.6°F4.8°C 38.7°F3.7°C 93% 7.9 mph SE12.7 kmh SE 11.0 mph17.7 kmh 29.75 in1007.5 mb 0.00 in0.0 mm 0.00 in0.0 mm 0.05 in1.3 mm
01:49 PM 40.6°F4.8°C 38.7°F3.7°C 93% 6.9 mph SE11.1 kmh SE 11.0 mph17.7 kmh 29.75 in1007.5 mb 0.00 in0.0 mm 0.00 in0.0 mm 0.05 in1.3 mm
01:50 PM 40.6°F4.8°C 38.7°F3.7°C 93% 8.0 mph SE12.9 kmh SE 10.0 mph16.1 kmh 29.75 in1007.5 mb 0.00 in0.0 mm 0.00 in0.0 mm 0.05 in1.3 mm
01:51 PM 40.6°F4.8°C 38.7°F3.7°C 93% 7.3 mph SE11.7 kmh SE 10.0 mph16.1 kmh 29.75 in1007.5 mb 0.00 in0.0 mm 0.00 in0.0 mm 0.05 in1.3 mm
01:52 PM 40.6°F4.8°C 38.7°F3.7°C 93% 6.9 mph SE11.1 kmh SE 10.0 mph16.1 kmh 29.75 in1007.5 mb 0.00 in0.0 mm 0.00 in0.0 mm 0.05 in1.3 mm
01:53 PM 40.6°F4.8°C 38.7°F3.7°C 93% 6.9 mph SE11.1 kmh SE 10.0 mph16.1 kmh 29.74 in1007.1 mb 0.00 in0.0 mm 0.00 in0.0 mm 0.05 in1.3 mm
01:54 PM 40.5°F4.7°C 38.6°F3.7°C 93% 7.1 mph SE11.4 kmh SE 10.0 mph16.1 kmh 29.74 in1007.1 mb 0.00 in0.0 mm 0.00 in0.0 mm 0.05 in1.3 mm
01:55 PM 40.6°F4.8°C 38.7°F3.7°C 93% 7.0 mph SE11.3 kmh SE 10.0 mph16.1 kmh 29.74 in1007.1 mb 0.00 in0.0 mm 0.00 in0.0 mm 0.05 in1.3 mm
01:56 PM 40.6°F4.8°C 38.7°F3.7°C 93% 7.0 mph SE11.3 kmh SE 9.0 mph14.5 kmh 29.74 in1007.1 mb 0.00 in0.0 mm 0.00 in0.0 mm 0.05 in1.3 mm
01:57 PM 40.6°F4.8°C 38.7°F3.7°C 93% 7.0 mph SE11.3 kmh SE 7.0 mph11.3 kmh 29.74 in1007.1 mb 0.00 in0.0 mm 0.00 in0.0 mm 0.05 in1.3 mm
01:58 PM 40.6°F4.8°C 38.7°F3.7°C 93% 8.0 mph SE12.9 kmh SE 10.0 mph16.1 kmh 29.74 in1007.1 mb 0.00 in0.0 mm 0.00 in0.0 mm 0.05 in1.3 mm
01:59 PM 40.6°F4.8°C 38.7°F3.7°C 93% 8.6 mph SE13.8 kmh SE 10.0 mph16.1 kmh 29.74 in1007.1 mb 0.00 in0.0 mm 0.00 in0.0 mm 0.05 in1.3 mm
02:00 PM 40.6°F4.8°C 38.7°F3.7°C 93% 8.3 mph SE13.4 kmh SE 11.0 mph17.7 kmh 29.74 in1007.1 mb 0.00 in0.0 mm 0.00 in0.0 mm 0.05 in1.3 mm
02:01 PM 40.6°F4.8°C 38.7°F3.7°C 93% 6.0 mph SE9.7 kmh SE 11.0 mph17.7 kmh 29.74 in1007.1 mb 0.00 in0.0 mm 0.00 in0.0 mm 0.05 in1.3 mm
02:02 PM 40.6°F4.8°C 38.7°F3.7°C 93% 7.8 mph SE12.6 kmh SE 9.0 mph14.5 kmh 29.74 in1007.1 mb 0.00 in0.0 mm 0.00 in0.0 mm 0.05 in1.3 mm
02:03 PM 40.6°F4.8°C 38.7°F3.7°C 93% 6.5 mph SE10.5 kmh SE 10.0 mph16.1 kmh 29.74 in1007.1 mb 0.00 in0.0 mm 0.00 in0.0 mm 0.05 in1.3 mm
02:04 PM 40.6°F4.8°C 38.7°F3.7°C 93% 7.5 mph SE12.1 kmh SE 10.0 mph16.1 kmh 29.74 in1007.1 mb 0.00 in0.0 mm 0.00 in0.0 mm 0.05 in1.3 mm
02:05 PM 40.6°F4.8°C 38.7°F3.7°C 93% 6.5 mph SE10.5 kmh SE 10.0 mph16.1 kmh 29.74 in1007.1 mb 0.00 in0.0 mm 0.00 in0.0 mm 0.05 in1.3 mm
02:06 PM 40.6°F4.8°C 38.7°F3.7°C 93% 6.8 mph SE10.9 kmh SE 11.0 mph17.7 kmh 29.74 in1007.1 mb 0.00 in0.0 mm 0.00 in0.0 mm 0.05 in1.3 mm
02:07 PM 40.6°F4.8°C 38.7°F3.7°C 93% 8.1 mph SE13.0 kmh SE 11.0 mph17.7 kmh 29.74 in1007.1 mb 0.00 in0.0 mm 0.00 in0.0 mm 0.05 in1.3 mm
02:08 PM 40.6°F4.8°C 38.7°F3.7°C 93% 7.2 mph SE11.6 kmh SE 10.0 mph16.1 kmh 29.74 in1007.1 mb 0.00 in0.0 mm 0.00 in0.0 mm 0.05 in1.3 mm
02:09 PM 40.6°F4.8°C 38.7°F3.7°C 93% 6.2 mph SE10.0 kmh SE 9.0 mph14.5 kmh 29.73 in1006.8 mb 0.00 in0.0 mm 0.00 in0.0 mm 0.05 in1.3 mm
02:10 PM 40.6°F4.8°C 38.7°F3.7°C 93% 6.6 mph SE10.6 kmh SE 9.0 mph14.5 kmh 29.73 in1006.8 mb 0.00 in0.0 mm 0.00 in0.0 mm 0.05 in1.3 mm
02:11 PM 40.6°F4.8°C 38.7°F3.7°C 93% 6.7 mph SE10.8 kmh SE 10.0 mph16.1 kmh 29.73 in1006.8 mb 0.00 in0.0 mm 0.00 in0.0 mm 0.05 in1.3 mm
02:12 PM 40.6°F4.8°C 38.7°F3.7°C 93% 8.9 mph SE14.3 kmh SE 13.0 mph20.9 kmh 29.73 in1006.8 mb 0.00 in0.0 mm 0.00 in0.0 mm 0.05 in1.3 mm
02:13 PM 40.6°F4.8°C 38.7°F3.7°C 93% 8.7 mph SE14.0 kmh SE 13.0 mph20.9 kmh 29.73 in1006.8 mb 0.00 in0.0 mm 0.00 in0.0 mm 0.05 in1.3 mm
02:14 PM 40.6°F4.8°C 38.7°F3.7°C 93% 7.9 mph SE12.7 kmh SE 11.0 mph17.7 kmh 29.73 in1006.8 mb 0.00 in0.0 mm 0.00 in0.0 mm 0.05 in1.3 mm
02:15 PM 40.6°F4.8°C 38.7°F3.7°C 93% 7.3 mph SE11.7 kmh SE 10.0 mph16.1 kmh 29.73 in1006.8 mb 0.00 in0.0 mm 0.00 in0.0 mm 0.05 in1.3 mm
02:16 PM 40.7°F4.8°C 38.8°F3.8°C 93% 8.0 mph SE12.9 kmh SE 10.0 mph16.1 kmh 29.73 in1006.8 mb 0.00 in0.0 mm 0.00 in0.0 mm 0.05 in1.3 mm
02:17 PM 40.7°F4.8°C 38.8°F3.8°C 93% 9.0 mph SE14.5 kmh SE 11.0 mph17.7 kmh 29.73 in1006.8 mb 0.00 in0.0 mm 0.00 in0.0 mm 0.05 in1.3 mm
02:18 PM 40.6°F4.8°C 38.7°F3.7°C 93% 7.9 mph SE12.7 kmh SE 13.0 mph20.9 kmh 29.73 in1006.8 mb 0.00 in0.0 mm 0.00 in0.0 mm 0.05 in1.3 mm
02:19 PM 40.7°F4.8°C 38.8°F3.8°C 93% 9.3 mph SE15.0 kmh SE 13.0 mph20.9 kmh 29.73 in1006.8 mb 0.00 in0.0 mm 0.00 in0.0 mm 0.05 in1.3 mm
02:20 PM 40.7°F4.8°C 38.8°F3.8°C 93% 7.6 mph SE12.2 kmh SE 12.0 mph19.3 kmh 29.73 in1006.8 mb 0.00 in0.0 mm 0.00 in0.0 mm 0.05 in1.3 mm
02:21 PM 40.7°F4.8°C 38.8°F3.8°C 93% 8.5 mph SE13.7 kmh SE 11.0 mph17.7 kmh 29.73 in1006.8 mb 0.00 in0.0 mm 0.00 in0.0 mm 0.05 in1.3 mm
02:22 PM 40.7°F4.8°C 38.8°F3.8°C 93% 7.9 mph SE12.7 kmh SE 11.0 mph17.7 kmh 29.73 in1006.8 mb 0.00 in0.0 mm 0.00 in0.0 mm 0.05 in1.3 mm
02:23 PM 40.7°F4.8°C 38.8°F3.8°C 93% 8.0 mph SE12.9 kmh SE 11.0 mph17.7 kmh 29.73 in1006.8 mb 0.00 in0.0 mm 0.00 in0.0 mm 0.05 in1.3 mm
02:24 PM 40.7°F4.8°C 38.8°F3.8°C 93% 7.5 mph SE12.1 kmh SE 11.0 mph17.7 kmh 29.73 in1006.8 mb 0.00 in0.0 mm 0.00 in0.0 mm 0.05 in1.3 mm
02:25 PM 40.7°F4.8°C 38.8°F3.8°C 93% 8.8 mph SE14.2 kmh SE 11.0 mph17.7 kmh 29.73 in1006.8 mb 0.00 in0.0 mm 0.00 in0.0 mm 0.05 in1.3 mm
02:26 PM 40.7°F4.8°C 38.8°F3.8°C 93% 6.8 mph SE10.9 kmh SE 11.0 mph17.7 kmh 29.73 in1006.8 mb 0.00 in0.0 mm 0.00 in0.0 mm 0.05 in1.3 mm
02:27 PM 40.7°F4.8°C 38.8°F3.8°C 93% 7.9 mph SE12.7 kmh SE 10.0 mph16.1 kmh 29.73 in1006.8 mb 0.00 in0.0 mm 0.00 in0.0 mm 0.05 in1.3 mm
02:28 PM 40.7°F4.8°C 38.8°F3.8°C 93% 7.6 mph SE12.2 kmh SE 12.0 mph19.3 kmh 29.73 in1006.8 mb 0.00 in0.0 mm 0.00 in0.0 mm 0.05 in1.3 mm
02:29 PM 40.7°F4.8°C 38.8°F3.8°C 93% 8.6 mph SE13.8 kmh SE 12.0 mph19.3 kmh 29.73 in1006.8 mb 0.00 in0.0 mm 0.00 in0.0 mm 0.05 in1.3 mm
02:30 PM 40.7°F4.8°C 38.8°F3.8°C 93% 8.0 mph SE12.9 kmh SE 11.0 mph17.7 kmh 29.73 in1006.8 mb 0.00 in0.0 mm 0.00 in0.0 mm 0.05 in1.3 mm
02:31 PM 40.7°F4.8°C 38.8°F3.8°C 93% 7.2 mph SE11.6 kmh SE 11.0 mph17.7 kmh 29.73 in1006.8 mb 0.00 in0.0 mm 0.00 in0.0 mm 0.05 in1.3 mm
02:32 PM 40.7°F4.8°C 38.8°F3.8°C 93% 7.6 mph SE12.2 kmh SE 11.0 mph17.7 kmh 29.73 in1006.8 mb 0.00 in0.0 mm 0.00 in0.0 mm 0.05 in1.3 mm
02:33 PM 40.8°F4.9°C 38.9°F3.8°C 93% 9.7 mph SE15.6 kmh SE 12.0 mph19.3 kmh 29.73 in1006.8 mb 0.00 in0.0 mm 0.00 in0.0 mm 0.05 in1.3 mm
02:34 PM 40.8°F4.9°C 38.9°F3.8°C 93% 8.6 mph SE13.8 kmh SE 12.0 mph19.3 kmh 29.72 in1006.4 mb 0.00 in0.0 mm 0.00 in0.0 mm 0.05 in1.3 mm
02:35 PM 40.7°F4.8°C 38.8°F3.8°C 93% 8.2 mph SE13.2 kmh SE 11.0 mph17.7 kmh 29.72 in1006.4 mb 0.00 in0.0 mm 0.00 in0.0 mm 0.05 in1.3 mm
02:36 PM 40.8°F4.9°C 38.9°F3.8°C 93% 9.0 mph SE14.5 kmh SE 11.0 mph17.7 kmh 29.72 in1006.4 mb 0.00 in0.0 mm 0.00 in0.0 mm 0.05 in1.3 mm
02:37 PM 40.8°F4.9°C 38.9°F3.8°C 93% 9.7 mph SE15.6 kmh SE 12.0 mph19.3 kmh 29.72 in1006.4 mb 0.00 in0.0 mm 0.00 in0.0 mm 0.05 in1.3 mm
02:38 PM 40.7°F4.8°C 38.8°F3.8°C 93% 7.9 mph SE12.7 kmh SE 12.0 mph19.3 kmh 29.72 in1006.4 mb 0.00 in0.0 mm 0.00 in0.0 mm 0.05 in1.3 mm
02:39 PM 40.7°F4.8°C 38.8°F3.8°C 93% 9.5 mph SE15.3 kmh SE 12.0 mph19.3 kmh 29.72 in1006.4 mb 0.00 in0.0 mm 0.00 in0.0 mm 0.05 in1.3 mm
02:40 PM 40.7°F4.8°C 38.8°F3.8°C 93% 9.0 mph SE14.5 kmh SE 12.0 mph19.3 kmh 29.72 in1006.4 mb 0.00 in0.0 mm 0.00 in0.0 mm 0.05 in1.3 mm
02:41 PM 40.7°F4.8°C 38.8°F3.8°C 93% 9.1 mph SE14.6 kmh SE 13.0 mph20.9 kmh 29.72 in1006.4 mb 0.00 in0.0 mm 0.00 in0.0 mm 0.05 in1.3 mm
02:42 PM 40.8°F4.9°C 38.9°F3.8°C 93% 11.1 mph SE17.9 kmh SE 13.0 mph20.9 kmh 29.72 in1006.4 mb 0.00 in0.0 mm 0.00 in0.0 mm 0.05 in1.3 mm
02:43 PM 40.8°F4.9°C 38.9°F3.8°C 93% 10.3 mph SE16.6 kmh SE 14.0 mph22.5 kmh 29.72 in1006.4 mb 0.00 in0.0 mm 0.00 in0.0 mm 0.05 in1.3 mm
02:44 PM 40.8°F4.9°C 38.9°F3.8°C 93% 9.3 mph SE15.0 kmh SE 14.0 mph22.5 kmh 29.72 in1006.4 mb 0.00 in0.0 mm 0.00 in0.0 mm 0.05 in1.3 mm
02:45 PM 40.7°F4.8°C 38.8°F3.8°C 93% 10.1 mph SE16.3 kmh SE 13.0 mph20.9 kmh 29.72 in1006.4 mb 0.00 in0.0 mm 0.00 in0.0 mm 0.05 in1.3 mm
02:46 PM 40.7°F4.8°C 38.8°F3.8°C 93% 9.6 mph SE15.4 kmh SE 12.0 mph19.3 kmh 29.72 in1006.4 mb 0.00 in0.0 mm 0.00 in0.0 mm 0.05 in1.3 mm
02:47 PM 40.8°F4.9°C 38.9°F3.8°C 93% 10.1 mph SE16.3 kmh SE 13.0 mph20.9 kmh 29.71 in1006.1 mb 0.00 in0.0 mm 0.00 in0.0 mm 0.05 in1.3 mm
02:48 PM 40.8°F4.9°C 38.9°F3.8°C 93% 9.8 mph SE15.8 kmh SE 13.0 mph20.9 kmh 29.71 in1006.1 mb 0.00 in0.0 mm 0.00 in0.0 mm 0.05 in1.3 mm
02:49 PM 40.8°F4.9°C 38.9°F3.8°C 93% 10.3 mph SE16.6 kmh SE 14.0 mph22.5 kmh 29.71 in1006.1 mb 0.00 in0.0 mm 0.00 in0.0 mm 0.05 in1.3 mm
02:50 PM 40.8°F4.9°C 38.9°F3.8°C 93% 10.1 mph SE16.3 kmh SE 14.0 mph22.5 kmh 29.72 in1006.4 mb 0.00 in0.0 mm 0.00 in0.0 mm 0.05 in1.3 mm
02:51 PM 40.8°F4.9°C 38.9°F3.8°C 93% 9.1 mph SE14.6 kmh SE 12.0 mph19.3 kmh 29.72 in1006.4 mb 0.00 in0.0 mm 0.00 in0.0 mm 0.05 in1.3 mm
02:52 PM 40.8°F4.9°C 38.9°F3.8°C 93% 9.2 mph SE14.8 kmh SE 13.0 mph20.9 kmh 29.72 in1006.4 mb 0.00 in0.0 mm 0.00 in0.0 mm 0.05 in1.3 mm
02:53 PM 40.8°F4.9°C 38.9°F3.8°C 93% 7.7 mph SE12.4 kmh SE 12.0 mph19.3 kmh 29.72 in1006.4 mb 0.00 in0.0 mm 0.00 in0.0 mm 0.05 in1.3 mm
02:54 PM 40.8°F4.9°C 38.9°F3.8°C 93% 10.7 mph SE17.2 kmh SE 13.0 mph20.9 kmh 29.71 in1006.1 mb 0.00 in0.0 mm 0.00 in0.0 mm 0.05 in1.3 mm
02:55 PM 40.8°F4.9°C 38.9°F3.8°C 93% 9.3 mph SE15.0 kmh SE 13.0 mph20.9 kmh 29.71 in1006.1 mb 0.00 in0.0 mm 0.00 in0.0 mm 0.05 in1.3 mm
02:56 PM 40.8°F4.9°C 38.9°F3.8°C 93% 10.4 mph SE16.7 kmh SE 14.0 mph22.5 kmh 29.71 in1006.1 mb 0.00 in0.0 mm 0.00 in0.0 mm 0.05 in1.3 mm
02:57 PM 40.8°F4.9°C 38.9°F3.8°C 93% 10.7 mph SE17.2 kmh SE 14.0 mph22.5 kmh 29.71 in1006.1 mb 0.00 in0.0 mm 0.00 in0.0 mm 0.05 in1.3 mm
02:58 PM 40.8°F4.9°C 38.9°F3.8°C 93% 7.8 mph SE12.6 kmh SE 13.0 mph20.9 kmh 29.71 in1006.1 mb 0.00 in0.0 mm 0.00 in0.0 mm 0.05 in1.3 mm
02:59 PM 40.8°F4.9°C 38.9°F3.8°C 93% 8.1 mph SE13.0 kmh SE 13.0 mph20.9 kmh 29.71 in1006.1 mb 0.00 in0.0 mm 0.00 in0.0 mm 0.05 in1.3 mm
03:00 PM 40.8°F4.9°C 38.9°F3.8°C 93% 8.7 mph SE14.0 kmh SE 13.0 mph20.9 kmh 29.71 in1006.1 mb 0.00 in0.0 mm 0.00 in0.0 mm 0.05 in1.3 mm
03:01 PM 40.8°F4.9°C 38.9°F3.8°C 93% 8.8 mph SE14.2 kmh SE 13.0 mph20.9 kmh 29.71 in1006.1 mb 0.01 in0.3 mm 0.60 in15.2 mm 0.06 in1.5 mm
03:02 PM 40.8°F4.9°C 38.9°F3.8°C 93% 9.7 mph SE15.6 kmh SE 13.0 mph20.9 kmh 29.71 in1006.1 mb 0.01 in0.3 mm 0.00 in0.0 mm 0.06 in1.5 mm
03:03 PM 40.8°F4.9°C 38.9°F3.8°C 93% 8.3 mph SE13.4 kmh SE 13.0 mph20.9 kmh 29.71 in1006.1 mb 0.01 in0.3 mm 0.00 in0.0 mm 0.06 in1.5 mm
03:04 PM 40.8°F4.9°C 38.9°F3.8°C 93% 10.9 mph SE17.5 kmh SE 14.0 mph22.5 kmh 29.71 in1006.1 mb 0.01 in0.3 mm 0.00 in0.0 mm 0.06 in1.5 mm
03:05 PM 40.8°F4.9°C 38.9°F3.8°C 93% 9.8 mph SE15.8 kmh SE 14.0 mph22.5 kmh 29.71 in1006.1 mb 0.01 in0.3 mm 0.00 in0.0 mm 0.06 in1.5 mm
03:06 PM 40.8°F4.9°C 38.9°F3.8°C 93% 10.1 mph SE16.3 kmh SE 13.0 mph20.9 kmh 29.70 in1005.8 mb 0.01 in0.3 mm 0.00 in0.0 mm 0.06 in1.5 mm
03:07 PM 40.8°F4.9°C 38.9°F3.8°C 93% 9.2 mph SE14.8 kmh SE 13.0 mph20.9 kmh 29.70 in1005.8 mb 0.01 in0.3 mm 0.00 in0.0 mm 0.06 in1.5 mm
03:08 PM 40.8°F4.9°C 38.9°F3.8°C 93% 10.2 mph SE16.4 kmh SE 13.0 mph20.9 kmh 29.70 in1005.8 mb 0.01 in0.3 mm 0.00 in0.0 mm 0.06 in1.5 mm
03:09 PM 40.8°F4.9°C 38.9°F3.8°C 93% 9.1 mph SE14.6 kmh SE 13.0 mph20.9 kmh 29.70 in1005.8 mb 0.01 in0.3 mm 0.00 in0.0 mm 0.06 in1.5 mm
03:10 PM 40.8°F4.9°C 38.9°F3.8°C 93% 10.9 mph SE17.5 kmh SE 14.0 mph22.5 kmh 29.70 in1005.8 mb 0.01 in0.3 mm 0.00 in0.0 mm 0.06 in1.5 mm
03:11 PM 40.9°F4.9°C 39.0°F3.9°C 93% 8.7 mph SE14.0 kmh SE 14.0 mph22.5 kmh 29.70 in1005.8 mb 0.01 in0.3 mm 0.00 in0.0 mm 0.06 in1.5 mm
03:12 PM 40.8°F4.9°C 38.9°F3.8°C 93% 10.0 mph SE16.1 kmh SE 13.0 mph20.9 kmh 29.70 in1005.8 mb 0.01 in0.3 mm 0.00 in0.0 mm 0.06 in1.5 mm
03:13 PM 40.8°F4.9°C 38.9°F3.8°C 93% 9.9 mph SE15.9 kmh SE 13.0 mph20.9 kmh 29.70 in1005.8 mb 0.01 in0.3 mm 0.00 in0.0 mm 0.06 in1.5 mm
03:14 PM 40.8°F4.9°C 38.9°F3.8°C 93% 10.0 mph SE16.1 kmh SE 14.0 mph22.5 kmh 29.70 in1005.8 mb 0.01 in0.3 mm 0.00 in0.0 mm 0.06 in1.5 mm
03:15 PM 40.8°F4.9°C 39.2°F4.0°C 94% 10.5 mph SE16.9 kmh SE 14.0 mph22.5 kmh 29.70 in1005.8 mb 0.01 in0.3 mm 0.00 in0.0 mm 0.06 in1.5 mm
03:16 PM 40.8°F4.9°C 39.2°F4.0°C 94% 10.4 mph SE16.7 kmh SE 13.0 mph20.9 kmh 29.70 in1005.8 mb 0.01 in0.3 mm 0.00 in0.0 mm 0.06 in1.5 mm
03:17 PM 40.8°F4.9°C 39.2°F4.0°C 94% 9.6 mph SE15.4 kmh SE 14.0 mph22.5 kmh 29.70 in1005.8 mb 0.01 in0.3 mm 0.00 in0.0 mm 0.06 in1.5 mm
03:18 PM 40.8°F4.9°C 39.2°F4.0°C 94% 9.6 mph SE15.4 kmh SE 14.0 mph22.5 kmh 29.70 in1005.8 mb 0.01 in0.3 mm 0.00 in0.0 mm 0.06 in1.5 mm
03:19 PM 40.8°F4.9°C 39.2°F4.0°C 94% 10.0 mph SE16.1 kmh SE 12.0 mph19.3 kmh 29.70 in1005.8 mb 0.01 in0.3 mm 0.00 in0.0 mm 0.06 in1.5 mm
03:20 PM 40.8°F4.9°C 38.9°F3.8°C 93% 9.3 mph SE15.0 kmh SE 12.0 mph19.3 kmh 29.70 in1005.8 mb 0.01 in0.3 mm 0.00 in0.0 mm 0.06 in1.5 mm
03:21 PM 40.9°F4.9°C 39.3°F4.1°C 94% 10.1 mph SE16.3 kmh SE 13.0 mph20.9 kmh 29.70 in1005.8 mb 0.01 in0.3 mm 0.00 in0.0 mm 0.06 in1.5 mm
03:22 PM 40.9°F4.9°C 39.3°F4.1°C 94% 8.1 mph SE13.0 kmh SE 13.0 mph20.9 kmh 29.70 in1005.8 mb 0.01 in0.3 mm 0.00 in0.0 mm 0.06 in1.5 mm
03:23 PM 40.9°F4.9°C 39.3°F4.1°C 94% 8.2 mph SE13.2 kmh SE 12.0 mph19.3 kmh 29.70 in1005.8 mb 0.01 in0.3 mm 0.00 in0.0 mm 0.06 in1.5 mm
03:24 PM 40.9°F4.9°C 39.3°F4.1°C 94% 9.7 mph SE15.6 kmh SE 13.0 mph20.9 kmh 29.70 in1005.8 mb 0.01 in0.3 mm 0.00 in0.0 mm 0.06 in1.5 mm
03:25 PM 40.9°F4.9°C 39.3°F4.1°C 94% 8.7 mph SE14.0 kmh SE 13.0 mph20.9 kmh 29.70 in1005.8 mb 0.01 in0.3 mm 0.00 in0.0 mm 0.06 in1.5 mm
03:26 PM 40.9°F4.9°C 39.3°F4.1°C 94% 9.2 mph SE14.8 kmh SE 12.0 mph19.3 kmh 29.70 in1005.8 mb 0.01 in0.3 mm 0.00 in0.0 mm 0.06 in1.5 mm
03:27 PM 40.9°F4.9°C 39.3°F4.1°C 94% 9.1 mph SE14.6 kmh SE 12.0 mph19.3 kmh 29.70 in1005.8 mb 0.01 in0.3 mm 0.00 in0.0 mm 0.06 in1.5 mm
03:28 PM 40.9°F4.9°C 39.3°F4.1°C 94% 9.3 mph SE15.0 kmh SE 13.0 mph20.9 kmh 29.70 in1005.8 mb 0.01 in0.3 mm 0.00 in0.0 mm 0.06 in1.5 mm
03:29 PM 40.9°F4.9°C 39.3°F4.1°C 94% 9.2 mph SE14.8 kmh SE 13.0 mph20.9 kmh 29.70 in1005.8 mb 0.01 in0.3 mm 0.00 in0.0 mm 0.06 in1.5 mm
03:30 PM 41.0°F5.0°C 39.4°F4.1°C 94% 9.8 mph SE15.8 kmh SE 14.0 mph22.5 kmh 29.70 in1005.8 mb 0.01 in0.3 mm 0.00 in0.0 mm 0.06 in1.5 mm
03:31 PM 41.0°F5.0°C 39.4°F4.1°C 94% 9.5 mph SE15.3 kmh SE 14.0 mph22.5 kmh 29.70 in1005.8 mb 0.01 in0.3 mm 0.00 in0.0 mm 0.06 in1.5 mm
03:32 PM 41.0°F5.0°C 39.4°F4.1°C 94% 8.8 mph SE14.2 kmh SE 13.0 mph20.9 kmh 29.70 in1005.8 mb 0.01 in0.3 mm 0.00 in0.0 mm 0.06 in1.5 mm
03:33 PM 40.9°F4.9°C 39.3°F4.1°C 94% 9.6 mph SE15.4 kmh SE 12.0 mph19.3 kmh 29.70 in1005.8 mb 0.01 in0.3 mm 0.00 in0.0 mm 0.06 in1.5 mm
03:34 PM 41.0°F5.0°C 39.4°F4.1°C 94% 9.9 mph SE15.9 kmh SE 14.0 mph22.5 kmh 29.70 in1005.8 mb 0.01 in0.3 mm 0.00 in0.0 mm 0.06 in1.5 mm
03:35 PM 41.0°F5.0°C 39.4°F4.1°C 94% 10.5 mph SE16.9 kmh SE 14.0 mph22.5 kmh 29.69 in1005.4 mb 0.01 in0.3 mm 0.00 in0.0 mm 0.06 in1.5 mm
03:36 PM 41.0°F5.0°C 39.4°F4.1°C 94% 11.2 mph SE18.0 kmh SE 14.0 mph22.5 kmh 29.69 in1005.4 mb 0.01 in0.3 mm 0.00 in0.0 mm 0.06 in1.5 mm
03:37 PM 41.0°F5.0°C 39.4°F4.1°C 94% 9.2 mph SE14.8 kmh SE 14.0 mph22.5 kmh 29.69 in1005.4 mb 0.01 in0.3 mm 0.00 in0.0 mm 0.06 in1.5 mm
03:38 PM 41.0°F5.0°C 39.4°F4.1°C 94% 7.2 mph SSE11.6 kmh SSE 13.0 mph20.9 kmh 29.69 in1005.4 mb 0.01 in0.3 mm 0.00 in0.0 mm 0.06 in1.5 mm
03:39 PM 41.0°F5.0°C 39.4°F4.1°C 94% 9.6 mph SE15.4 kmh SE 12.0 mph19.3 kmh 29.69 in1005.4 mb 0.02 in0.5 mm 0.60 in15.2 mm 0.06 in1.5 mm
03:40 PM 41.0°F5.0°C 39.4°F4.1°C 94% 8.5 mph SE13.7 kmh SE 13.0 mph20.9 kmh 29.69 in1005.4 mb 0.02 in0.5 mm 0.00 in0.0 mm 0.06 in1.5 mm
03:41 PM 41.0°F5.0°C 39.4°F4.1°C 94% 8.6 mph SE13.8 kmh SE 13.0 mph20.9 kmh 29.69 in1005.4 mb 0.02 in0.5 mm 0.00 in0.0 mm 0.06 in1.5 mm
03:42 PM 41.0°F5.0°C 39.4°F4.1°C 94% 9.4 mph SE15.1 kmh SE 13.0 mph20.9 kmh 29.69 in1005.4 mb 0.02 in0.5 mm 0.00 in0.0 mm 0.06 in1.5 mm
03:43 PM 41.0°F5.0°C 39.4°F4.1°C 94% 8.4 mph SE13.5 kmh SE 13.0 mph20.9 kmh 29.69 in1005.4 mb 0.02 in0.5 mm 0.00 in0.0 mm 0.06 in1.5 mm
03:44 PM 41.0°F5.0°C 39.4°F4.1°C 94% 7.6 mph SE12.2 kmh SE 12.0 mph19.3 kmh 29.69 in1005.4 mb 0.02 in0.5 mm 0.00 in0.0 mm 0.06 in1.5 mm
03:45 PM 41.0°F5.0°C 39.4°F4.1°C 94% 7.8 mph SE12.6 kmh SE 11.0 mph17.7 kmh 29.69 in1005.4 mb 0.02 in0.5 mm 0.00 in0.0 mm 0.06 in1.5 mm
03:46 PM 41.0°F5.0°C 39.4°F4.1°C 94% 10.1 mph SE16.3 kmh SE 15.0 mph24.1 kmh 29.69 in1005.4 mb 0.02 in0.5 mm 0.00 in0.0 mm 0.06 in1.5 mm
03:47 PM 41.1°F5.1°C 39.5°F4.2°C 94% 7.9 mph SSE12.7 kmh SSE 15.0 mph24.1 kmh 29.69 in1005.4 mb 0.02 in0.5 mm 0.00 in0.0 mm 0.06 in1.5 mm
03:48 PM 41.0°F5.0°C 39.4°F4.1°C 94% 8.1 mph SE13.0 kmh SE 11.0 mph17.7 kmh 29.69 in1005.4 mb 0.02 in0.5 mm 0.00 in0.0 mm 0.06 in1.5 mm
03:49 PM 41.1°F5.1°C 39.5°F4.2°C 94% 8.6 mph SE13.8 kmh SE 14.0 mph22.5 kmh 29.69 in1005.4 mb 0.02 in0.5 mm 0.00 in0.0 mm 0.06 in1.5 mm
03:50 PM 41.1°F5.1°C 39.5°F4.2°C 94% 8.1 mph SE13.0 kmh SE 14.0 mph22.5 kmh 29.69 in1005.4 mb 0.02 in0.5 mm 0.00 in0.0 mm 0.06 in1.5 mm
03:51 PM 41.0°F5.0°C 39.4°F4.1°C 94% 8.7 mph SE14.0 kmh SE 11.0 mph17.7 kmh 29.69 in1005.4 mb 0.02 in0.5 mm 0.00 in0.0 mm 0.06 in1.5 mm
03:52 PM 41.1°F5.1°C 39.5°F4.2°C 94% 7.9 mph SE12.7 kmh SE 11.0 mph17.7 kmh 29.69 in1005.4 mb 0.02 in0.5 mm 0.00 in0.0 mm 0.06 in1.5 mm
03:53 PM 41.1°F5.1°C 39.5°F4.2°C 94% 9.2 mph SE14.8 kmh SE 12.0 mph19.3 kmh 29.69 in1005.4 mb 0.02 in0.5 mm 0.00 in0.0 mm 0.06 in1.5 mm
03:54 PM 41.1°F5.1°C 39.5°F4.2°C 94% 7.7 mph SE12.4 kmh SE 12.0 mph19.3 kmh 29.69 in1005.4 mb 0.02 in0.5 mm 0.00 in0.0 mm 0.06 in1.5 mm
03:55 PM 41.1°F5.1°C 39.5°F4.2°C 94% 7.4 mph SE11.9 kmh SE 9.0 mph14.5 kmh 29.69 in1005.4 mb 0.02 in0.5 mm 0.00 in0.0 mm 0.06 in1.5 mm
03:56 PM 41.1°F5.1°C 39.5°F4.2°C 94% 9.0 mph SE14.5 kmh SE 12.0 mph19.3 kmh 29.69 in1005.4 mb 0.02 in0.5 mm 0.00 in0.0 mm 0.06 in1.5 mm
03:57 PM 41.1°F5.1°C 39.5°F4.2°C 94% 6.9 mph SSE11.1 kmh SSE 12.0 mph19.3 kmh 29.69 in1005.4 mb 0.02 in0.5 mm 0.00 in0.0 mm 0.06 in1.5 mm
03:58 PM 41.1°F5.1°C 39.5°F4.2°C 94% 6.6 mph SSE10.6 kmh SSE 10.0 mph16.1 kmh 29.69 in1005.4 mb 0.02 in0.5 mm 0.00 in0.0 mm 0.06 in1.5 mm
03:59 PM 41.1°F5.1°C 39.5°F4.2°C 94% 8.2 mph SE13.2 kmh SE 13.0 mph20.9 kmh 29.69 in1005.4 mb 0.02 in0.5 mm 0.00 in0.0 mm 0.06 in1.5 mm
04:00 PM 41.1°F5.1°C 39.5°F4.2°C 94% 9.0 mph SE14.5 kmh SE 13.0 mph20.9 kmh 29.68 in1005.1 mb 0.02 in0.5 mm 0.00 in0.0 mm 0.06 in1.5 mm
04:01 PM 41.1°F5.1°C 39.5°F4.2°C 94% 8.3 mph SE13.4 kmh SE 10.0 mph16.1 kmh 29.68 in1005.1 mb 0.01 in0.3 mm 0.00 in0.0 mm 0.06 in1.5 mm
04:02 PM 41.1°F5.1°C 39.5°F4.2°C 94% 8.6 mph SE13.8 kmh SE 11.0 mph17.7 kmh 29.68 in1005.1 mb 0.01 in0.3 mm 0.00 in0.0 mm 0.06 in1.5 mm
04:03 PM 41.1°F5.1°C 39.5°F4.2°C 94% 8.8 mph SE14.2 kmh SE 12.0 mph19.3 kmh 29.68 in1005.1 mb 0.01 in0.3 mm 0.00 in0.0 mm 0.06 in1.5 mm
04:04 PM 41.1°F5.1°C 39.5°F4.2°C 94% 8.7 mph SE14.0 kmh SE 12.0 mph19.3 kmh 29.68 in1005.1 mb 0.01 in0.3 mm 0.00 in0.0 mm 0.06 in1.5 mm
04:05 PM 41.1°F5.1°C 39.5°F4.2°C 94% 8.6 mph SE13.8 kmh SE 12.0 mph19.3 kmh 29.68 in1005.1 mb 0.01 in0.3 mm 0.00 in0.0 mm 0.06 in1.5 mm
04:06 PM 41.2°F5.1°C 39.6°F4.2°C 94% 7.5 mph SE12.1 kmh SE 12.0 mph19.3 kmh 29.68 in1005.1 mb 0.01 in0.3 mm 0.00 in0.0 mm 0.06 in1.5 mm
04:07 PM 41.1°F5.1°C 39.5°F4.2°C 94% 7.0 mph SE11.3 kmh SE 11.0 mph17.7 kmh 29.68 in1005.1 mb 0.01 in0.3 mm 0.00 in0.0 mm 0.06 in1.5 mm
04:08 PM 41.1°F5.1°C 39.5°F4.2°C 94% 7.0 mph SE11.3 kmh SE 10.0 mph16.1 kmh 29.68 in1005.1 mb 0.01 in0.3 mm 0.00 in0.0 mm 0.06 in1.5 mm
04:09 PM 41.1°F5.1°C 39.5°F4.2°C 94% 7.5 mph SE12.1 kmh SE 11.0 mph17.7 kmh 29.68 in1005.1 mb 0.01 in0.3 mm 0.00 in0.0 mm 0.06 in1.5 mm
04:10 PM 41.1°F5.1°C 39.5°F4.2°C 94% 7.1 mph SE11.4 kmh SE 11.0 mph17.7 kmh 29.68 in1005.1 mb 0.01 in0.3 mm 0.00 in0.0 mm 0.06 in1.5 mm
04:11 PM 41.1°F5.1°C 39.5°F4.2°C 94% 7.9 mph SE12.7 kmh SE 10.0 mph16.1 kmh 29.68 in1005.1 mb 0.01 in0.3 mm 0.00 in0.0 mm 0.06 in1.5 mm
04:12 PM 41.2°F5.1°C 39.6°F4.2°C 94% 7.8 mph SE12.6 kmh SE 11.0 mph17.7 kmh 29.68 in1005.1 mb 0.01 in0.3 mm 0.00 in0.0 mm 0.06 in1.5 mm
04:13 PM 41.2°F5.1°C 39.6°F4.2°C 94% 8.5 mph SE13.7 kmh SE 12.0 mph19.3 kmh 29.68 in1005.1 mb 0.01 in0.3 mm 0.00 in0.0 mm 0.06 in1.5 mm
04:14 PM 41.2°F5.1°C 39.6°F4.2°C 94% 8.3 mph SE13.4 kmh SE 12.0 mph19.3 kmh 29.68 in1005.1 mb 0.01 in0.3 mm 0.00 in0.0 mm 0.06 in1.5 mm
04:15 PM 41.2°F5.1°C 39.6°F4.2°C 94% 9.0 mph SE14.5 kmh SE 12.0 mph19.3 kmh 29.68 in1005.1 mb 0.01 in0.3 mm 0.00 in0.0 mm 0.06 in1.5 mm
04:16 PM 41.2°F5.1°C 39.6°F4.2°C 94% 7.8 mph SSE12.6 kmh SSE 12.0 mph19.3 kmh 29.68 in1005.1 mb 0.01 in0.3 mm 0.00 in0.0 mm 0.06 in1.5 mm
04:17 PM 41.2°F5.1°C 39.6°F4.2°C 94% 7.6 mph SSE12.2 kmh SSE 11.0 mph17.7 kmh 29.68 in1005.1 mb 0.01 in0.3 mm 0.00 in0.0 mm 0.06 in1.5 mm
04:18 PM 41.2°F5.1°C 39.6°F4.2°C 94% 7.9 mph SSE12.7 kmh SSE 11.0 mph17.7 kmh 29.68 in1005.1 mb 0.01 in0.3 mm 0.00 in0.0 mm 0.06 in1.5 mm
04:19 PM 41.2°F5.1°C 39.6°F4.2°C 94% 7.5 mph SE12.1 kmh SE 11.0 mph17.7 kmh 29.68 in1005.1 mb 0.01 in0.3 mm 0.00 in0.0 mm 0.06 in1.5 mm
04:20 PM 41.2°F5.1°C 39.6°F4.2°C 94% 8.1 mph SE13.0 kmh SE 10.0 mph16.1 kmh 29.68 in1005.1 mb 0.01 in0.3 mm 0.00 in0.0 mm 0.06 in1.5 mm
04:21 PM 41.3°F5.2°C 39.7°F4.3°C 94% 9.5 mph SE15.3 kmh SE 12.0 mph19.3 kmh 29.68 in1005.1 mb 0.01 in0.3 mm 0.00 in0.0 mm 0.06 in1.5 mm
04:22 PM 41.2°F5.1°C 39.6°F4.2°C 94% 7.5 mph SSE12.1 kmh SSE 12.0 mph19.3 kmh 29.68 in1005.1 mb 0.01 in0.3 mm 0.00 in0.0 mm 0.06 in1.5 mm
04:23 PM 41.3°F5.2°C 39.7°F4.3°C 94% 7.8 mph SSE12.6 kmh SSE 11.0 mph17.7 kmh 29.68 in1005.1 mb 0.01 in0.3 mm 0.00 in0.0 mm 0.06 in1.5 mm
04:24 PM 41.3°F5.2°C 39.7°F4.3°C 94% 7.6 mph SSE12.2 kmh SSE 11.0 mph17.7 kmh 29.68 in1005.1 mb 0.01 in0.3 mm 0.00 in0.0 mm 0.06 in1.5 mm
04:25 PM 41.3°F5.2°C 39.7°F4.3°C 94% 7.8 mph SSE12.6 kmh SSE 10.0 mph16.1 kmh 29.68 in1005.1 mb 0.01 in0.3 mm 0.00 in0.0 mm 0.06 in1.5 mm
04:26 PM 41.3°F5.2°C 39.7°F4.3°C 94% 10.0 mph SSE16.1 kmh SSE 13.0 mph20.9 kmh 29.68 in1005.1 mb 0.01 in0.3 mm 0.00 in0.0 mm 0.06 in1.5 mm
04:27 PM 41.3°F5.2°C 39.7°F4.3°C 94% 9.0 mph SE14.5 kmh SE 13.0 mph20.9 kmh 29.67 in1004.7 mb 0.01 in0.3 mm 0.00 in0.0 mm 0.06 in1.5 mm
04:28 PM 41.3°F5.2°C 39.7°F4.3°C 94% 6.1 mph SE9.8 kmh SE 11.0 mph17.7 kmh 29.67 in1004.7 mb 0.01 in0.3 mm 0.00 in0.0 mm 0.06 in1.5 mm
04:29 PM 41.3°F5.2°C 39.7°F4.3°C 94% 8.2 mph SE13.2 kmh SE 12.0 mph19.3 kmh 29.67 in1004.7 mb 0.01 in0.3 mm 0.00 in0.0 mm 0.06 in1.5 mm
04:30 PM 41.3°F5.2°C 39.7°F4.3°C 94% 8.8 mph SE14.2 kmh SE 12.0 mph19.3 kmh 29.67 in1004.7 mb 0.01 in0.3 mm 0.00 in0.0 mm 0.06 in1.5 mm
04:31 PM 41.3°F5.2°C 39.7°F4.3°C 94% 8.0 mph SE12.9 kmh SE 11.0 mph17.7 kmh 29.67 in1004.7 mb 0.01 in0.3 mm 0.00 in0.0 mm 0.06 in1.5 mm
04:32 PM 41.4°F5.2°C 39.8°F4.3°C 94% 7.5 mph SE12.1 kmh SE 11.0 mph17.7 kmh 29.67 in1004.7 mb 0.01 in0.3 mm 0.00 in0.0 mm 0.06 in1.5 mm
04:33 PM 41.4°F5.2°C 39.8°F4.3°C 94% 7.1 mph SE11.4 kmh SE 11.0 mph17.7 kmh 29.67 in1004.7 mb 0.01 in0.3 mm 0.00 in0.0 mm 0.06 in1.5 mm
04:34 PM 41.4°F5.2°C 39.8°F4.3°C 94% 8.0 mph SE12.9 kmh SE 12.0 mph19.3 kmh 29.67 in1004.7 mb 0.01 in0.3 mm 0.00 in0.0 mm 0.06 in1.5 mm
04:35 PM 41.3°F5.2°C 39.7°F4.3°C 94% 7.6 mph SSE12.2 kmh SSE 12.0 mph19.3 kmh 29.67 in1004.7 mb 0.01 in0.3 mm 0.00 in0.0 mm 0.06 in1.5 mm
04:36 PM 41.4°F5.2°C 39.8°F4.3°C 94% 7.5 mph SE12.1 kmh SE 11.0 mph17.7 kmh 29.67 in1004.7 mb 0.01 in0.3 mm 0.00 in0.0 mm 0.06 in1.5 mm
04:37 PM 41.4°F5.2°C 39.8°F4.3°C 94% 7.9 mph SE12.7 kmh SE 12.0 mph19.3 kmh 29.67 in1004.7 mb 0.01 in0.3 mm 0.00 in0.0 mm 0.06 in1.5 mm
04:38 PM 41.4°F5.2°C 39.8°F4.3°C 94% 5.9 mph SSE9.5 kmh SSE 12.0 mph19.3 kmh 29.67 in1004.7 mb 0.01 in0.3 mm 0.00 in0.0 mm 0.06 in1.5 mm
04:39 PM 41.4°F5.2°C 39.8°F4.3°C 94% 10.1 mph SSE16.3 kmh SSE 14.0 mph22.5 kmh 29.67 in1004.7 mb 0.00 in0.0 mm 0.00 in0.0 mm 0.06 in1.5 mm
04:40 PM 41.5°F5.3°C 39.9°F4.4°C 94% 8.3 mph SSE13.4 kmh SSE 14.0 mph22.5 kmh 29.67 in1004.7 mb 0.00 in0.0 mm 0.00 in0.0 mm 0.06 in1.5 mm
04:41 PM 41.5°F5.3°C 39.9°F4.4°C 94% 10.2 mph SSE16.4 kmh SSE 14.0 mph22.5 kmh 29.67 in1004.7 mb 0.00 in0.0 mm 0.00 in0.0 mm 0.06 in1.5 mm
04:42 PM 41.6°F5.3°C 40.0°F4.4°C 94% 10.0 mph SSE16.1 kmh SSE 14.0 mph22.5 kmh 29.66 in1004.4 mb 0.00 in0.0 mm 0.00 in0.0 mm 0.06 in1.5 mm
04:43 PM 41.6°F5.3°C 40.0°F4.4°C 94% 9.6 mph SSE15.4 kmh SSE 13.0 mph20.9 kmh 29.66 in1004.4 mb 0.00 in0.0 mm 0.00 in0.0 mm 0.06 in1.5 mm
04:44 PM 41.8°F5.4°C 40.2°F4.6°C 94% 7.2 mph SSE11.6 kmh SSE 12.0 mph19.3 kmh 29.66 in1004.4 mb 0.00 in0.0 mm 0.00 in0.0 mm 0.06 in1.5 mm
04:45 PM 41.8°F5.4°C 40.2°F4.6°C 94% 6.5 mph SSE10.5 kmh SSE 10.0 mph16.1 kmh 29.66 in1004.4 mb 0.00 in0.0 mm 0.00 in0.0 mm 0.06 in1.5 mm
04:46 PM 41.8°F5.4°C 40.2°F4.6°C 94% 8.6 mph SSE13.8 kmh SSE 12.0 mph19.3 kmh 29.66 in1004.4 mb 0.00 in0.0 mm 0.00 in0.0 mm 0.06 in1.5 mm
04:47 PM 41.8°F5.4°C 40.2°F4.6°C 94% 7.1 mph SSE11.4 kmh SSE 12.0 mph19.3 kmh 29.66 in1004.4 mb 0.00 in0.0 mm 0.00 in0.0 mm 0.06 in1.5 mm
04:48 PM 41.8°F5.4°C 40.2°F4.6°C 94% 7.2 mph SSE11.6 kmh SSE 11.0 mph17.7 kmh 29.66 in1004.4 mb 0.00 in0.0 mm 0.00 in0.0 mm 0.06 in1.5 mm
04:49 PM 41.9°F5.5°C 40.3°F4.6°C 94% 9.6 mph SSE15.4 kmh SSE 14.0 mph22.5 kmh 29.66 in1004.4 mb 0.00 in0.0 mm 0.00 in0.0 mm 0.06 in1.5 mm
04:50 PM 41.9°F5.5°C 40.3°F4.6°C 94% 6.9 mph SSE11.1 kmh SSE 13.0 mph20.9 kmh 29.66 in1004.4 mb 0.00 in0.0 mm 0.00 in0.0 mm 0.06 in1.5 mm
04:51 PM 41.9°F5.5°C 40.3°F4.6°C 94% 9.4 mph SE15.1 kmh SE 13.0 mph20.9 kmh 29.66 in1004.4 mb 0.00 in0.0 mm 0.00 in0.0 mm 0.06 in1.5 mm
04:52 PM 41.9°F5.5°C 40.3°F4.6°C 94% 8.3 mph SSE13.4 kmh SSE 13.0 mph20.9 kmh 29.66 in1004.4 mb 0.00 in0.0 mm 0.00 in0.0 mm 0.06 in1.5 mm
04:53 PM 41.9°F5.5°C 40.3°F4.6°C 94% 9.3 mph SSE15.0 kmh SSE 12.0 mph19.3 kmh 29.66 in1004.4 mb 0.00 in0.0 mm 0.00 in0.0 mm 0.06 in1.5 mm
04:54 PM 42.0°F5.6°C 40.4°F4.7°C 94% 6.4 mph SSE10.3 kmh SSE 12.0 mph19.3 kmh 29.66 in1004.4 mb 0.00 in0.0 mm 0.00 in0.0 mm 0.06 in1.5 mm
04:55 PM 42.0°F5.6°C 40.4°F4.7°C 94% 9.0 mph SSE14.5 kmh SSE 13.0 mph20.9 kmh 29.66 in1004.4 mb 0.00 in0.0 mm 0.00 in0.0 mm 0.06 in1.5 mm
04:56 PM 42.0°F5.6°C 40.4°F4.7°C 94% 7.4 mph SSE11.9 kmh SSE 13.0 mph20.9 kmh 29.66 in1004.4 mb 0.00 in0.0 mm 0.00 in0.0 mm 0.06 in1.5 mm
04:57 PM 42.0°F5.6°C 40.4°F4.7°C 94% 8.6 mph SSE13.8 kmh SSE 12.0 mph19.3 kmh 29.66 in1004.4 mb 0.00 in0.0 mm 0.00 in0.0 mm 0.06 in1.5 mm
04:58 PM 42.0°F5.6°C 40.4°F4.7°C 94% 7.1 mph SSE11.4 kmh SSE 12.0 mph19.3 kmh 29.66 in1004.4 mb 0.00 in0.0 mm 0.00 in0.0 mm 0.06 in1.5 mm
04:59 PM 42.0°F5.6°C 40.4°F4.7°C 94% 6.9 mph SSE11.1 kmh SSE 12.0 mph19.3 kmh 29.66 in1004.4 mb 0.00 in0.0 mm 0.00 in0.0 mm 0.06 in1.5 mm
05:00 PM 42.0°F5.6°C 40.4°F4.7°C 94% 7.4 mph SSE11.9 kmh SSE 10.0 mph16.1 kmh 29.66 in1004.4 mb 0.00 in0.0 mm 0.00 in0.0 mm 0.06 in1.5 mm
05:01 PM 42.0°F5.6°C 40.4°F4.7°C 94% 6.5 mph SSE10.5 kmh SSE 10.0 mph16.1 kmh 29.66 in1004.4 mb 0.00 in0.0 mm 0.00 in0.0 mm 0.06 in1.5 mm
05:02 PM 42.0°F5.6°C 40.4°F4.7°C 94% 6.9 mph SSE11.1 kmh SSE 11.0 mph17.7 kmh 29.66 in1004.4 mb 0.00 in0.0 mm 0.00 in0.0 mm 0.06 in1.5 mm
05:03 PM 42.0°F5.6°C 40.4°F4.7°C 94% 7.1 mph SSE11.4 kmh SSE 11.0 mph17.7 kmh 29.66 in1004.4 mb 0.00 in0.0 mm 0.00 in0.0 mm 0.06 in1.5 mm
05:04 PM 42.0°F5.6°C 40.4°F4.7°C 94% 7.5 mph SSE12.1 kmh SSE 9.0 mph14.5 kmh 29.66 in1004.4 mb 0.00 in0.0 mm 0.00 in0.0 mm 0.06 in1.5 mm
05:05 PM 42.0°F5.6°C 40.4°F4.7°C 94% 8.3 mph SE13.4 kmh SE 10.0 mph16.1 kmh 29.66 in1004.4 mb 0.00 in0.0 mm 0.00 in0.0 mm 0.06 in1.5 mm
05:06 PM 41.9°F5.5°C 40.3°F4.6°C 94% 7.6 mph SSE12.2 kmh SSE 10.0 mph16.1 kmh 29.66 in1004.4 mb 0.00 in0.0 mm 0.00 in0.0 mm 0.06 in1.5 mm
05:07 PM 42.0°F5.6°C 40.4°F4.7°C 94% 9.0 mph SSE14.5 kmh SSE 11.0 mph17.7 kmh 29.66 in1004.4 mb 0.00 in0.0 mm 0.00 in0.0 mm 0.06 in1.5 mm
05:08 PM 42.0°F5.6°C 40.4°F4.7°C 94% 9.6 mph SSE15.4 kmh SSE 12.0 mph19.3 kmh 29.66 in1004.4 mb 0.00 in0.0 mm 0.00 in0.0 mm 0.06 in1.5 mm
05:09 PM 42.0°F5.6°C 40.4°F4.7°C 94% 7.0 mph SSE11.3 kmh SSE 12.0 mph19.3 kmh 29.66 in1004.4 mb 0.00 in0.0 mm 0.00 in0.0 mm 0.06 in1.5 mm
05:10 PM 42.0°F5.6°C 40.4°F4.7°C 94% 7.0 mph SSE11.3 kmh SSE 11.0 mph17.7 kmh 29.66 in1004.4 mb 0.00 in0.0 mm 0.00 in0.0 mm 0.06 in1.5 mm
05:11 PM 42.0°F5.6°C 40.4°F4.7°C 94% 8.0 mph SSE12.9 kmh SSE 9.0 mph14.5 kmh 29.66 in1004.4 mb 0.00 in0.0 mm 0.00 in0.0 mm 0.06 in1.5 mm
05:12 PM 42.0°F5.6°C 40.4°F4.7°C 94% 10.0 mph SSE16.1 kmh SSE 13.0 mph20.9 kmh 29.66 in1004.4 mb 0.00 in0.0 mm 0.00 in0.0 mm 0.06 in1.5 mm
05:13 PM 42.0°F5.6°C 40.4°F4.7°C 94% 8.4 mph SSE13.5 kmh SSE 13.0 mph20.9 kmh 29.66 in1004.4 mb 0.00 in0.0 mm 0.00 in0.0 mm 0.06 in1.5 mm
05:14 PM 42.0°F5.6°C 40.4°F4.7°C 94% 7.4 mph SSE11.9 kmh SSE 12.0 mph19.3 kmh 29.66 in1004.4 mb 0.00 in0.0 mm 0.00 in0.0 mm 0.06 in1.5 mm
05:15 PM 42.0°F5.6°C 40.4°F4.7°C 94% 7.7 mph S12.4 kmh S 12.0 mph19.3 kmh 29.66 in1004.4 mb 0.00 in0.0 mm 0.00 in0.0 mm 0.06 in1.5 mm
05:16 PM 42.0°F5.6°C 40.4°F4.7°C 94% 8.1 mph SSE13.0 kmh SSE 12.0 mph19.3 kmh 29.66 in1004.4 mb 0.00 in0.0 mm 0.00 in0.0 mm 0.06 in1.5 mm
05:17 PM 42.1°F5.6°C 40.5°F4.7°C 94% 8.5 mph SSE13.7 kmh SSE 12.0 mph19.3 kmh 29.66 in1004.4 mb 0.00 in0.0 mm 0.00 in0.0 mm 0.06 in1.5 mm
05:18 PM 42.1°F5.6°C 40.5°F4.7°C 94% 6.9 mph SSE11.1 kmh SSE 12.0 mph19.3 kmh 29.66 in1004.4 mb 0.00 in0.0 mm 0.00 in0.0 mm 0.06 in1.5 mm
05:19 PM 42.1°F5.6°C 40.5°F4.7°C 94% 6.9 mph SSE11.1 kmh SSE 10.0 mph16.1 kmh 29.66 in1004.4 mb 0.00 in0.0 mm 0.00 in0.0 mm 0.06 in1.5 mm
05:20 PM 42.0°F5.6°C 40.4°F4.7°C 94% 6.4 mph SSE10.3 kmh SSE 10.0 mph16.1 kmh 29.66 in1004.4 mb 0.00 in0.0 mm 0.00 in0.0 mm 0.06 in1.5 mm
05:21 PM 42.1°F5.6°C 40.5°F4.7°C 94% 6.8 mph SE10.9 kmh SE 9.0 mph14.5 kmh 29.66 in1004.4 mb 0.00 in0.0 mm 0.00 in0.0 mm 0.06 in1.5 mm
05:22 PM 42.1°F5.6°C 40.5°F4.7°C 94% 6.7 mph SSE10.8 kmh SSE 11.0 mph17.7 kmh 29.66 in1004.4 mb 0.00 in0.0 mm 0.00 in0.0 mm 0.06 in1.5 mm
05:23 PM 42.1°F5.6°C 40.5°F4.7°C 94% 7.7 mph SSE12.4 kmh SSE 11.0 mph17.7 kmh 29.66 in1004.4 mb 0.00 in0.0 mm 0.00 in0.0 mm 0.06 in1.5 mm
05:24 PM 42.1°F5.6°C 40.5°F4.7°C 94% 6.5 mph SSE10.5 kmh SSE 11.0 mph17.7 kmh 29.66 in1004.4 mb 0.00 in0.0 mm 0.00 in0.0 mm 0.06 in1.5 mm
05:25 PM 42.1°F5.6°C 40.5°F4.7°C 94% 6.7 mph SSE10.8 kmh SSE 9.0 mph14.5 kmh 29.66 in1004.4 mb 0.00 in0.0 mm 0.00 in0.0 mm 0.06 in1.5 mm
05:26 PM 42.1°F5.6°C 40.5°F4.7°C 94% 5.9 mph SSE9.5 kmh SSE 9.0 mph14.5 kmh 29.66 in1004.4 mb 0.00 in0.0 mm 0.00 in0.0 mm 0.06 in1.5 mm
05:27 PM 42.1°F5.6°C 40.5°F4.7°C 94% 6.7 mph SSE10.8 kmh SSE 9.0 mph14.5 kmh 29.66 in1004.4 mb 0.00 in0.0 mm 0.00 in0.0 mm 0.06 in1.5 mm
05:28 PM 42.1°F5.6°C 40.5°F4.7°C 94% 6.8 mph SSE10.9 kmh SSE 9.0 mph14.5 kmh 29.66 in1004.4 mb 0.00 in0.0 mm 0.00 in0.0 mm 0.06 in1.5 mm
05:29 PM 42.2°F5.7°C 40.6°F4.8°C 94% 6.5 mph SSE10.5 kmh SSE 9.0 mph14.5 kmh 29.66 in1004.4 mb 0.00 in0.0 mm 0.00 in0.0 mm 0.06 in1.5 mm
05:30 PM 42.2°F5.7°C 40.6°F4.8°C 94% 5.8 mph SSE9.3 kmh SSE 9.0 mph14.5 kmh 29.66 in1004.4 mb 0.00 in0.0 mm 0.00 in0.0 mm 0.06 in1.5 mm
05:31 PM 42.2°F5.7°C 40.6°F4.8°C 94% 6.9 mph SSE11.1 kmh SSE 9.0 mph14.5 kmh 29.65 in1004.1 mb 0.00 in0.0 mm 0.00 in0.0 mm 0.06 in1.5 mm
05:32 PM 42.2°F5.7°C 40.6°F4.8°C 94% 6.5 mph SSE10.5 kmh SSE 9.0 mph14.5 kmh 29.65 in1004.1 mb 0.00 in0.0 mm 0.00 in0.0 mm 0.06 in1.5 mm
05:33 PM 42.3°F5.7°C 40.7°F4.8°C 94% 6.6 mph SSE10.6 kmh SSE 9.0 mph14.5 kmh 29.65 in1004.1 mb 0.00 in0.0 mm 0.00 in0.0 mm 0.06 in1.5 mm
05:34 PM 42.2°F5.7°C 40.6°F4.8°C 94% 5.8 mph SSE9.3 kmh SSE 9.0 mph14.5 kmh 29.65 in1004.1 mb 0.00 in0.0 mm 0.00 in0.0 mm 0.06 in1.5 mm
05:35 PM 42.3°F5.7°C 40.7°F4.8°C 94% 5.2 mph SSE8.4 kmh SSE 8.0 mph12.9 kmh 29.65 in1004.1 mb 0.00 in0.0 mm 0.00 in0.0 mm 0.06 in1.5 mm
05:36 PM 42.3°F5.7°C 40.7°F4.8°C 94% 5.5 mph SSE8.9 kmh SSE 10.0 mph16.1 kmh 29.65 in1004.1 mb 0.00 in0.0 mm 0.00 in0.0 mm 0.06 in1.5 mm
05:37 PM 42.3°F5.7°C 40.7°F4.8°C 94% 5.9 mph SSE9.5 kmh SSE 10.0 mph16.1 kmh 29.65 in1004.1 mb 0.00 in0.0 mm 0.00 in0.0 mm 0.06 in1.5 mm
05:38 PM 42.4°F5.8°C 40.8°F4.9°C 94% 5.7 mph SSE9.2 kmh SSE 8.0 mph12.9 kmh 29.65 in1004.1 mb 0.00 in0.0 mm 0.00 in0.0 mm 0.06 in1.5 mm
05:39 PM 42.4°F5.8°C 40.8°F4.9°C 94% 4.7 mph SSE7.6 kmh SSE 8.0 mph12.9 kmh 29.65 in1004.1 mb 0.00 in0.0 mm 0.00 in0.0 mm 0.06 in1.5 mm
05:40 PM 42.4°F5.8°C 40.8°F4.9°C 94% 5.1 mph SSE8.2 kmh SSE 7.0 mph11.3 kmh 29.65 in1004.1 mb 0.01 in0.3 mm 0.60 in15.2 mm 0.07 in1.8 mm
05:41 PM 42.5°F5.8°C 40.9°F4.9°C 94% 5.0 mph S8.0 kmh S 9.0 mph14.5 kmh 29.65 in1004.1 mb 0.01 in0.3 mm 0.00 in0.0 mm 0.07 in1.8 mm
05:42 PM 42.5°F5.8°C 40.9°F4.9°C 94% 6.4 mph S10.3 kmh S 9.0 mph14.5 kmh 29.65 in1004.1 mb 0.01 in0.3 mm 0.00 in0.0 mm 0.07 in1.8 mm
05:43 PM 42.6°F5.9°C 41.0°F5.0°C 94% 6.2 mph SSE10.0 kmh SSE 9.0 mph14.5 kmh 29.65 in1004.1 mb 0.01 in0.3 mm 0.00 in0.0 mm 0.07 in1.8 mm
05:44 PM 42.7°F5.9°C 41.1°F5.1°C 94% 6.4 mph S10.3 kmh S 9.0 mph14.5 kmh 29.65 in1004.1 mb 0.01 in0.3 mm 0.00 in0.0 mm 0.07 in1.8 mm
05:45 PM 42.7°F5.9°C 41.1°F5.1°C 94% 6.1 mph S9.8 kmh S 10.0 mph16.1 kmh 29.64 in1003.7 mb 0.01 in0.3 mm 0.00 in0.0 mm 0.07 in1.8 mm
05:46 PM 42.9°F6.1°C 41.3°F5.2°C 94% 8.7 mph S14.0 kmh S 12.0 mph19.3 kmh 29.64 in1003.7 mb 0.01 in0.3 mm 0.00 in0.0 mm 0.07 in1.8 mm
05:47 PM 43.1°F6.2°C 41.8°F5.4°C 95% 7.5 mph S12.1 kmh S 12.0 mph19.3 kmh 29.64 in1003.7 mb 0.01 in0.3 mm 0.00 in0.0 mm 0.07 in1.8 mm
05:48 PM 43.1°F6.2°C 41.8°F5.4°C 95% 7.1 mph S11.4 kmh S 11.0 mph17.7 kmh 29.64 in1003.7 mb 0.01 in0.3 mm 0.00 in0.0 mm 0.07 in1.8 mm
05:49 PM 43.3°F6.3°C 42.0°F5.6°C 95% 6.4 mph S10.3 kmh S 11.0 mph17.7 kmh 29.64 in1003.7 mb 0.01 in0.3 mm 0.00 in0.0 mm 0.07 in1.8 mm
05:50 PM 43.3°F6.3°C 42.0°F5.6°C 95% 6.6 mph S10.6 kmh S 9.0 mph14.5 kmh 29.64 in1003.7 mb 0.01 in0.3 mm 0.00 in0.0 mm 0.07 in1.8 mm
05:51 PM 43.4°F6.3°C 42.1°F5.6°C 95% 6.0 mph S9.7 kmh S 9.0 mph14.5 kmh 29.64 in1003.7 mb 0.01 in0.3 mm 0.00 in0.0 mm 0.07 in1.8 mm
05:52 PM 43.5°F6.4°C 42.2°F5.7°C 95% 6.8 mph S10.9 kmh S 9.0 mph14.5 kmh 29.63 in1003.4 mb 0.01 in0.3 mm 0.00 in0.0 mm 0.07 in1.8 mm
05:53 PM 43.5°F6.4°C 42.2°F5.7°C 95% 7.1 mph SSE11.4 kmh SSE 10.0 mph16.1 kmh 29.63 in1003.4 mb 0.01 in0.3 mm 0.00 in0.0 mm 0.07 in1.8 mm
05:54 PM 43.6°F6.4°C 42.0°F5.6°C 94% 7.2 mph SSE11.6 kmh SSE 10.0 mph16.1 kmh 29.63 in1003.4 mb 0.01 in0.3 mm 0.00 in0.0 mm 0.07 in1.8 mm
05:55 PM 43.6°F6.4°C 42.0°F5.6°C 94% 6.6 mph S10.6 kmh S 10.0 mph16.1 kmh 29.63 in1003.4 mb 0.01 in0.3 mm 0.00 in0.0 mm 0.07 in1.8 mm
05:56 PM 43.6°F6.4°C 42.0°F5.6°C 94% 4.3 mph S6.9 kmh S 9.0 mph14.5 kmh 29.63 in1003.4 mb 0.01 in0.3 mm 0.00 in0.0 mm 0.07 in1.8 mm
05:57 PM 43.7°F6.5°C 42.1°F5.6°C 94% 6.9 mph S11.1 kmh S 9.0 mph14.5 kmh 29.63 in1003.4 mb 0.01 in0.3 mm 0.00 in0.0 mm 0.07 in1.8 mm
05:58 PM 43.7°F6.5°C 42.4°F5.8°C 95% 6.9 mph S11.1 kmh S 9.0 mph14.5 kmh 29.63 in1003.4 mb 0.01 in0.3 mm 0.00 in0.0 mm 0.07 in1.8 mm
05:59 PM 43.7°F6.5°C 42.4°F5.8°C 95% 7.3 mph S11.7 kmh S 9.0 mph14.5 kmh 29.63 in1003.4 mb 0.01 in0.3 mm 0.00 in0.0 mm 0.07 in1.8 mm
06:00 PM 43.7°F6.5°C 42.4°F5.8°C 95% 6.1 mph S9.8 kmh S 9.0 mph14.5 kmh 29.63 in1003.4 mb 0.01 in0.3 mm 0.00 in0.0 mm 0.07 in1.8 mm
06:01 PM 43.8°F6.6°C 42.5°F5.8°C 95% 8.0 mph S12.9 kmh S 11.0 mph17.7 kmh 29.63 in1003.4 mb 0.01 in0.3 mm 0.00 in0.0 mm 0.07 in1.8 mm
06:02 PM 43.8°F6.6°C 42.5°F5.8°C 95% 7.0 mph S11.3 kmh S 10.0 mph16.1 kmh 29.64 in1003.7 mb 0.01 in0.3 mm 0.00 in0.0 mm 0.07 in1.8 mm
06:03 PM 43.9°F6.6°C 42.6°F5.9°C 95% 8.0 mph S12.9 kmh S 10.0 mph16.1 kmh 29.64 in1003.7 mb 0.01 in0.3 mm 0.00 in0.0 mm 0.07 in1.8 mm
06:04 PM 43.9°F6.6°C 42.3°F5.7°C 94% 7.0 mph S11.3 kmh S 9.0 mph14.5 kmh 29.64 in1003.7 mb 0.01 in0.3 mm 0.00 in0.0 mm 0.07 in1.8 mm
06:05 PM 44.0°F6.7°C 42.4°F5.8°C 94% 8.1 mph S13.0 kmh S 10.0 mph16.1 kmh 29.64 in1003.7 mb 0.01 in0.3 mm 0.00 in0.0 mm 0.07 in1.8 mm
06:06 PM 44.0°F6.7°C 42.4°F5.8°C 94% 7.2 mph S11.6 kmh S 10.0 mph16.1 kmh 29.64 in1003.7 mb 0.01 in0.3 mm 0.00 in0.0 mm 0.07 in1.8 mm
06:07 PM 44.0°F6.7°C 42.4°F5.8°C 94% 6.8 mph S10.9 kmh S 9.0 mph14.5 kmh 29.64 in1003.7 mb 0.01 in0.3 mm 0.00 in0.0 mm 0.07 in1.8 mm
06:08 PM 44.1°F6.7°C 42.5°F5.8°C 94% 7.3 mph S11.7 kmh S 10.0 mph16.1 kmh 29.64 in1003.7 mb 0.01 in0.3 mm 0.00 in0.0 mm 0.07 in1.8 mm
06:09 PM 44.1°F6.7°C 42.5°F5.8°C 94% 6.0 mph S9.7 kmh S 10.0 mph16.1 kmh 29.64 in1003.7 mb 0.01 in0.3 mm 0.00 in0.0 mm 0.07 in1.8 mm
06:10 PM 44.1°F6.7°C 42.5°F5.8°C 94% 7.4 mph S11.9 kmh S 10.0 mph16.1 kmh 29.64 in1003.7 mb 0.01 in0.3 mm 0.00 in0.0 mm 0.07 in1.8 mm
06:11 PM 44.2°F6.8°C 42.6°F5.9°C 94% 7.6 mph S12.2 kmh S 11.0 mph17.7 kmh 29.64 in1003.7 mb 0.01 in0.3 mm 0.00 in0.0 mm 0.07 in1.8 mm
06:12 PM 44.3°F6.8°C 42.7°F5.9°C 94% 6.4 mph S10.3 kmh S 11.0 mph17.7 kmh 29.64 in1003.7 mb 0.01 in0.3 mm 0.00 in0.0 mm 0.07 in1.8 mm
06:13 PM 44.3°F6.8°C 43.0°F6.1°C 95% 7.3 mph S11.7 kmh S 10.0 mph16.1 kmh 29.64 in1003.7 mb 0.01 in0.3 mm 0.00 in0.0 mm 0.07 in1.8 mm
06:14 PM 44.4°F6.9°C 43.1°F6.2°C 95% 7.8 mph S12.6 kmh S 10.0 mph16.1 kmh 29.64 in1003.7 mb 0.01 in0.3 mm 0.00 in0.0 mm 0.07 in1.8 mm
06:15 PM 44.5°F6.9°C 43.2°F6.2°C 95% 7.5 mph SSW12.1 kmh SSW 11.0 mph17.7 kmh 29.64 in1003.7 mb 0.01 in0.3 mm 0.00 in0.0 mm 0.07 in1.8 mm
06:16 PM 44.6°F7.0°C 43.3°F6.3°C 95% 8.1 mph S13.0 kmh S 13.0 mph20.9 kmh 29.64 in1003.7 mb 0.01 in0.3 mm 0.00 in0.0 mm 0.07 in1.8 mm
06:17 PM 44.7°F7.1°C 43.4°F6.3°C 95% 9.7 mph S15.6 kmh S 13.0 mph20.9 kmh 29.64 in1003.7 mb 0.01 in0.3 mm 0.00 in0.0 mm 0.07 in1.8 mm
06:18 PM 44.8°F7.1°C 43.5°F6.4°C 95% 7.7 mph S12.4 kmh S 12.0 mph19.3 kmh 29.64 in1003.7 mb 0.01 in0.3 mm 0.00 in0.0 mm 0.07 in1.8 mm
06:19 PM 44.9°F7.2°C 43.6°F6.4°C 95% 6.8 mph S10.9 kmh S 12.0 mph19.3 kmh 29.64 in1003.7 mb 0.01 in0.3 mm 0.00 in0.0 mm 0.07 in1.8 mm
06:20 PM 45.0°F7.2°C 43.7°F6.5°C 95% 8.0 mph S12.9 kmh S 12.0 mph19.3 kmh 29.64 in1003.7 mb 0.01 in0.3 mm 0.00 in0.0 mm 0.07 in1.8 mm
06:21 PM 45.1°F7.3°C 43.8°F6.6°C 95% 7.8 mph S12.6 kmh S 13.0 mph20.9 kmh 29.64 in1003.7 mb 0.01 in0.3 mm 0.00 in0.0 mm 0.07 in1.8 mm
06:22 PM 45.1°F7.3°C 43.8°F6.6°C 95% 6.3 mph S10.1 kmh S 13.0 mph20.9 kmh 29.64 in1003.7 mb 0.01 in0.3 mm 0.00 in0.0 mm 0.07 in1.8 mm
06:23 PM 45.1°F7.3°C 43.8°F6.6°C 95% 8.7 mph S14.0 kmh S 16.0 mph25.7 kmh 29.64 in1003.7 mb 0.01 in0.3 mm 0.00 in0.0 mm 0.07 in1.8 mm
06:24 PM 45.2°F7.3°C 43.9°F6.6°C 95% 8.6 mph SSW13.8 kmh SSW 16.0 mph25.7 kmh 29.64 in1003.7 mb 0.01 in0.3 mm 0.00 in0.0 mm 0.07 in1.8 mm
06:25 PM 45.2°F7.3°C 43.9°F6.6°C 95% 7.0 mph SSW11.3 kmh SSW 9.0 mph14.5 kmh 29.64 in1003.7 mb 0.01 in0.3 mm 0.00 in0.0 mm 0.07 in1.8 mm
06:26 PM 45.3°F7.4°C 44.0°F6.7°C 95% 8.0 mph SSW12.9 kmh SSW 11.0 mph17.7 kmh 29.64 in1003.7 mb 0.01 in0.3 mm 0.00 in0.0 mm 0.07 in1.8 mm
06:27 PM 45.3°F7.4°C 44.0°F6.7°C 95% 7.0 mph SSW11.3 kmh SSW 9.0 mph14.5 kmh 29.64 in1003.7 mb 0.01 in0.3 mm 0.00 in0.0 mm 0.07 in1.8 mm
06:28 PM 45.4°F7.4°C 44.1°F6.7°C 95% 9.2 mph SSW14.8 kmh SSW 13.0 mph20.9 kmh 29.64 in1003.7 mb 0.01 in0.3 mm 0.00 in0.0 mm 0.07 in1.8 mm
06:29 PM 45.4°F7.4°C 43.8°F6.6°C 94% 8.5 mph S13.7 kmh S 13.0 mph20.9 kmh 29.64 in1003.7 mb 0.01 in0.3 mm 0.00 in0.0 mm 0.07 in1.8 mm
06:30 PM 45.4°F7.4°C 44.1°F6.7°C 95% 8.3 mph S13.4 kmh S 11.0 mph17.7 kmh 29.64 in1003.7 mb 0.01 in0.3 mm 0.00 in0.0 mm 0.07 in1.8 mm
06:31 PM 45.4°F7.4°C 43.8°F6.6°C 94% 5.8 mph SSW9.3 kmh SSW 11.0 mph17.7 kmh 29.64 in1003.7 mb 0.01 in0.3 mm 0.00 in0.0 mm 0.07 in1.8 mm
06:32 PM 45.4°F7.4°C 43.8°F6.6°C 94% 6.8 mph SSW10.9 kmh SSW 9.0 mph14.5 kmh 29.64 in1003.7 mb 0.01 in0.3 mm 0.00 in0.0 mm 0.07 in1.8 mm
06:33 PM 45.4°F7.4°C 43.8°F6.6°C 94% 8.3 mph S13.4 kmh S 11.0 mph17.7 kmh 29.64 in1003.7 mb 0.01 in0.3 mm 0.00 in0.0 mm 0.07 in1.8 mm
06:34 PM 45.4°F7.4°C 43.8°F6.6°C 94% 5.7 mph S9.2 kmh S 11.0 mph17.7 kmh 29.64 in1003.7 mb 0.01 in0.3 mm 0.00 in0.0 mm 0.07 in1.8 mm
06:35 PM 45.5°F7.5°C 44.2°F6.8°C 95% 7.3 mph SSW11.7 kmh SSW 12.0 mph19.3 kmh 29.63 in1003.4 mb 0.01 in0.3 mm 0.00 in0.0 mm 0.07 in1.8 mm
06:36 PM 45.4°F7.4°C 43.8°F6.6°C 94% 6.7 mph S10.8 kmh S 12.0 mph19.3 kmh 29.63 in1003.4 mb 0.01 in0.3 mm 0.00 in0.0 mm 0.07 in1.8 mm
06:37 PM 45.5°F7.5°C 44.2°F6.8°C 95% 9.0 mph S14.5 kmh S 11.0 mph17.7 kmh 29.63 in1003.4 mb 0.01 in0.3 mm 0.00 in0.0 mm 0.07 in1.8 mm
06:38 PM 45.5°F7.5°C 43.9°F6.6°C 94% 7.0 mph SSW11.3 kmh SSW 10.0 mph16.1 kmh 29.63 in1003.4 mb 0.01 in0.3 mm 0.00 in0.0 mm 0.07 in1.8 mm
06:39 PM 45.5°F7.5°C 43.9°F6.6°C 94% 7.8 mph SSW12.6 kmh SSW 9.0 mph14.5 kmh 29.63 in1003.4 mb 0.01 in0.3 mm 0.00 in0.0 mm 0.07 in1.8 mm
06:40 PM 45.6°F7.6°C 44.3°F6.8°C 95% 7.6 mph S12.2 kmh S 12.0 mph19.3 kmh 29.63 in1003.4 mb 0.00 in0.0 mm 0.00 in0.0 mm 0.07 in1.8 mm
06:41 PM 45.6°F7.6°C 44.0°F6.7°C 94% 9.7 mph S15.6 kmh S 15.0 mph24.1 kmh 29.63 in1003.4 mb 0.00 in0.0 mm 0.00 in0.0 mm 0.07 in1.8 mm
06:42 PM 45.6°F7.6°C 44.3°F6.8°C 95% 8.4 mph SSW13.5 kmh SSW 15.0 mph24.1 kmh 29.63 in1003.4 mb 0.00 in0.0 mm 0.00 in0.0 mm 0.07 in1.8 mm
06:43 PM 45.7°F7.6°C 44.4°F6.9°C 95% 9.4 mph SSW15.1 kmh SSW 13.0 mph20.9 kmh 29.63 in1003.4 mb 0.00 in0.0 mm 0.00 in0.0 mm 0.07 in1.8 mm
06:44 PM 45.7°F7.6°C 44.4°F6.9°C 95% 8.8 mph S14.2 kmh S 13.0 mph20.9 kmh 29.63 in1003.4 mb 0.00 in0.0 mm 0.00 in0.0 mm 0.07 in1.8 mm
06:45 PM 45.7°F7.6°C 44.4°F6.9°C 95% 7.5 mph SSW12.1 kmh SSW 12.0 mph19.3 kmh 29.63 in1003.4 mb 0.00 in0.0 mm 0.00 in0.0 mm 0.07 in1.8 mm
06:46 PM 45.7°F7.6°C 44.4°F6.9°C 95% 6.9 mph SSW11.1 kmh SSW 11.0 mph17.7 kmh 29.63 in1003.4 mb 0.00 in0.0 mm 0.00 in0.0 mm 0.07 in1.8 mm
06:47 PM 45.7°F7.6°C 44.4°F6.9°C 95% 8.9 mph SSW14.3 kmh SSW 11.0 mph17.7 kmh 29.63 in1003.4 mb 0.00 in0.0 mm 0.00 in0.0 mm 0.07 in1.8 mm
06:48 PM 45.7°F7.6°C 44.4°F6.9°C 95% 8.7 mph S14.0 kmh S 12.0 mph19.3 kmh 29.63 in1003.4 mb 0.00 in0.0 mm 0.00 in0.0 mm 0.07 in1.8 mm
06:49 PM 45.8°F7.7°C 44.5°F6.9°C 95% 6.5 mph SSW10.5 kmh SSW 12.0 mph19.3 kmh 29.63 in1003.4 mb 0.00 in0.0 mm 0.00 in0.0 mm 0.07 in1.8 mm
06:50 PM 45.8°F7.7°C 44.2°F6.8°C 94% 6.3 mph SSW10.1 kmh SSW 9.0 mph14.5 kmh 29.63 in1003.4 mb 0.00 in0.0 mm 0.00 in0.0 mm 0.07 in1.8 mm
06:51 PM 45.8°F7.7°C 44.2°F6.8°C 94% 7.0 mph SSW11.3 kmh SSW 9.0 mph14.5 kmh 29.63 in1003.4 mb 0.00 in0.0 mm 0.00 in0.0 mm 0.07 in1.8 mm
06:52 PM 45.8°F7.7°C 44.2°F6.8°C 94% 7.0 mph S11.3 kmh S 9.0 mph14.5 kmh 29.63 in1003.4 mb 0.00 in0.0 mm 0.00 in0.0 mm 0.07 in1.8 mm
06:53 PM 45.8°F7.7°C 44.2°F6.8°C 94% 10.7 mph S17.2 kmh S 12.0 mph19.3 kmh 29.63 in1003.4 mb 0.00 in0.0 mm 0.00 in0.0 mm 0.07 in1.8 mm
06:54 PM 45.8°F7.7°C 44.2°F6.8°C 94% 7.7 mph S12.4 kmh S 12.0 mph19.3 kmh 29.63 in1003.4 mb 0.00 in0.0 mm 0.00 in0.0 mm 0.07 in1.8 mm
06:55 PM 45.8°F7.7°C 44.2°F6.8°C 94% 7.9 mph SSW12.7 kmh SSW 12.0 mph19.3 kmh 29.63 in1003.4 mb 0.00 in0.0 mm 0.00 in0.0 mm 0.07 in1.8 mm
06:56 PM 45.8°F7.7°C 44.2°F6.8°C 94% 8.6 mph SSW13.8 kmh SSW 12.0 mph19.3 kmh 29.63 in1003.4 mb 0.00 in0.0 mm 0.00 in0.0 mm 0.07 in1.8 mm
06:57 PM 45.8°F7.7°C 44.2°F6.8°C 94% 8.5 mph SSW13.7 kmh SSW 12.0 mph19.3 kmh 29.63 in1003.4 mb 0.00 in0.0 mm 0.00 in0.0 mm 0.07 in1.8 mm
06:58 PM 45.9°F7.7°C 44.5°F6.9°C 95% 7.5 mph SW12.1 kmh SW 11.0 mph17.7 kmh 29.63 in1003.4 mb 0.00 in0.0 mm 0.00 in0.0 mm 0.07 in1.8 mm
06:59 PM 45.9°F7.7°C 44.5°F6.9°C 95% 7.1 mph SW11.4 kmh SW 10.0 mph16.1 kmh 29.63 in1003.4 mb 0.00 in0.0 mm 0.00 in0.0 mm 0.07 in1.8 mm
07:00 PM 45.9°F7.7°C 44.5°F6.9°C 95% 8.4 mph SW13.5 kmh SW 11.0 mph17.7 kmh 29.63 in1003.4 mb 0.00 in0.0 mm 0.00 in0.0 mm 0.07 in1.8 mm
07:01 PM 45.9°F7.7°C 44.5°F6.9°C 95% 7.5 mph SW12.1 kmh SW 11.0 mph17.7 kmh 29.63 in1003.4 mb 0.00 in0.0 mm 0.00 in0.0 mm 0.07 in1.8 mm
07:02 PM 45.9°F7.7°C 44.3°F6.8°C 94% 7.8 mph SSW12.6 kmh SSW 11.0 mph17.7 kmh 29.63 in1003.4 mb 0.00 in0.0 mm 0.00 in0.0 mm 0.07 in1.8 mm
07:03 PM 45.9°F7.7°C 44.3°F6.8°C 94% 8.8 mph SSW14.2 kmh SSW 11.0 mph17.7 kmh 29.63 in1003.4 mb 0.00 in0.0 mm 0.00 in0.0 mm 0.07 in1.8 mm
07:04 PM 45.9°F7.7°C 44.3°F6.8°C 94% 7.2 mph SSW11.6 kmh SSW 11.0 mph17.7 kmh 29.63 in1003.4 mb 0.00 in0.0 mm 0.00 in0.0 mm 0.07 in1.8 mm
07:05 PM 45.9°F7.7°C 44.3°F6.8°C 94% 8.5 mph SSW13.7 kmh SSW 11.0 mph17.7 kmh 29.63 in1003.4 mb 0.00 in0.0 mm 0.00 in0.0 mm 0.07 in1.8 mm
07:06 PM 45.9°F7.7°C 44.3°F6.8°C 94% 7.3 mph SW11.7 kmh SW 11.0 mph17.7 kmh 29.63 in1003.4 mb 0.00 in0.0 mm 0.00 in0.0 mm 0.07 in1.8 mm
07:07 PM 45.9°F7.7°C 44.3°F6.8°C 94% 11.6 mph SW18.7 kmh SW 14.0 mph22.5 kmh 29.63 in1003.4 mb 0.00 in0.0 mm 0.00 in0.0 mm 0.07 in1.8 mm
07:08 PM 45.9°F7.7°C 44.3°F6.8°C 94% 8.4 mph SW13.5 kmh SW 14.0 mph22.5 kmh 29.63 in1003.4 mb 0.00 in0.0 mm 0.00 in0.0 mm 0.07 in1.8 mm
07:09 PM 45.9°F7.7°C 44.3°F6.8°C 94% 10.1 mph SW16.3 kmh SW 13.0 mph20.9 kmh 29.63 in1003.4 mb 0.00 in0.0 mm 0.00 in0.0 mm 0.07 in1.8 mm
07:10 PM 46.0°F7.8°C 44.4°F6.9°C 94% 10.0 mph SSW16.1 kmh SSW 13.0 mph20.9 kmh 29.63 in1003.4 mb 0.00 in0.0 mm 0.00 in0.0 mm 0.07 in1.8 mm
07:11 PM 46.0°F7.8°C 44.4°F6.9°C 94% 9.0 mph SW14.5 kmh SW 12.0 mph19.3 kmh 29.63 in1003.4 mb 0.00 in0.0 mm 0.00 in0.0 mm 0.07 in1.8 mm
07:12 PM 45.9°F7.7°C 44.3°F6.8°C 94% 10.8 mph SSW17.4 kmh SSW 12.0 mph19.3 kmh 29.63 in1003.4 mb 0.00 in0.0 mm 0.00 in0.0 mm 0.07 in1.8 mm
07:13 PM 46.0°F7.8°C 44.4°F6.9°C 94% 9.3 mph SW15.0 kmh SW 13.0 mph20.9 kmh 29.63 in1003.4 mb 0.00 in0.0 mm 0.00 in0.0 mm 0.07 in1.8 mm
07:14 PM 46.0°F7.8°C 44.4°F6.9°C 94% 9.7 mph SW15.6 kmh SW 13.0 mph20.9 kmh 29.63 in1003.4 mb 0.00 in0.0 mm 0.00 in0.0 mm 0.07 in1.8 mm
07:15 PM 46.0°F7.8°C 44.4°F6.9°C 94% 10.6 mph SW17.1 kmh SW 14.0 mph22.5 kmh 29.63 in1003.4 mb 0.00 in0.0 mm 0.00 in0.0 mm 0.07 in1.8 mm
07:16 PM 46.0°F7.8°C 44.4°F6.9°C 94% 11.2 mph SW18.0 kmh SW 15.0 mph24.1 kmh 29.63 in1003.4 mb 0.00 in0.0 mm 0.00 in0.0 mm 0.07 in1.8 mm
07:17 PM 46.0°F7.8°C 44.4°F6.9°C 94% 8.6 mph SW13.8 kmh SW 15.0 mph24.1 kmh 29.62 in1003.0 mb 0.00 in0.0 mm 0.00 in0.0 mm 0.07 in1.8 mm
07:18 PM 46.0°F7.8°C 44.4°F6.9°C 94% 7.8 mph SW12.6 kmh SW 11.0 mph17.7 kmh 29.62 in1003.0 mb 0.00 in0.0 mm 0.00 in0.0 mm 0.07 in1.8 mm
07:19 PM 46.0°F7.8°C 44.4°F6.9°C 94% 10.2 mph SW16.4 kmh SW 15.0 mph24.1 kmh 29.62 in1003.0 mb 0.00 in0.0 mm 0.00 in0.0 mm 0.07 in1.8 mm
07:20 PM 46.0°F7.8°C 44.4°F6.9°C 94% 9.1 mph SW14.6 kmh SW 15.0 mph24.1 kmh 29.62 in1003.0 mb 0.00 in0.0 mm 0.00 in0.0 mm 0.07 in1.8 mm
07:21 PM 46.0°F7.8°C 44.4°F6.9°C 94% 8.5 mph SW13.7 kmh SW 12.0 mph19.3 kmh 29.62 in1003.0 mb 0.00 in0.0 mm 0.00 in0.0 mm 0.07 in1.8 mm
07:22 PM 46.1°F7.8°C 44.5°F6.9°C 94% 9.1 mph SW14.6 kmh SW 11.0 mph17.7 kmh 29.62 in1003.0 mb 0.00 in0.0 mm 0.00 in0.0 mm 0.07 in1.8 mm
07:23 PM 46.0°F7.8°C 44.4°F6.9°C 94% 6.5 mph SSW10.5 kmh SSW 12.0 mph19.3 kmh 29.62 in1003.0 mb 0.00 in0.0 mm 0.00 in0.0 mm 0.07 in1.8 mm
07:24 PM 46.1°F7.8°C 44.5°F6.9°C 94% 10.7 mph SW17.2 kmh SW 15.0 mph24.1 kmh 29.62 in1003.0 mb 0.00 in0.0 mm 0.00 in0.0 mm 0.07 in1.8 mm
07:25 PM 46.1°F7.8°C 44.5°F6.9°C 94% 9.7 mph SW15.6 kmh SW 15.0 mph24.1 kmh 29.62 in1003.0 mb 0.00 in0.0 mm 0.00 in0.0 mm 0.07 in1.8 mm
07:26 PM 46.1°F7.8°C 44.5°F6.9°C 94% 9.5 mph SW15.3 kmh SW 14.0 mph22.5 kmh 29.62 in1003.0 mb 0.00 in0.0 mm 0.00 in0.0 mm 0.07 in1.8 mm
07:27 PM 46.1°F7.8°C 44.5°F6.9°C 94% 8.8 mph SW14.2 kmh SW 13.0 mph20.9 kmh 29.62 in1003.0 mb 0.00 in0.0 mm 0.00 in0.0 mm 0.07 in1.8 mm
07:28 PM 46.1°F7.8°C 44.7°F7.1°C 95% 11.0 mph SW17.7 kmh SW 16.0 mph25.7 kmh 29.62 in1003.0 mb 0.00 in0.0 mm 0.00 in0.0 mm 0.07 in1.8 mm
07:29 PM 46.2°F7.9°C 44.8°F7.1°C 95% 11.3 mph SW18.2 kmh SW 16.0 mph25.7 kmh 29.62 in1003.0 mb 0.00 in0.0 mm 0.00 in0.0 mm 0.07 in1.8 mm
07:30 PM 46.2°F7.9°C 44.8°F7.1°C 95% 10.0 mph SW16.1 kmh SW 14.0 mph22.5 kmh 29.62 in1003.0 mb 0.00 in0.0 mm 0.00 in0.0 mm 0.07 in1.8 mm
07:31 PM 46.2°F7.9°C 44.8°F7.1°C 95% 11.5 mph SW18.5 kmh SW 16.0 mph25.7 kmh 29.62 in1003.0 mb 0.00 in0.0 mm 0.00 in0.0 mm 0.07 in1.8 mm
07:32 PM 46.2°F7.9°C 44.8°F7.1°C 95% 10.0 mph SW16.1 kmh SW 16.0 mph25.7 kmh 29.62 in1003.0 mb 0.00 in0.0 mm 0.00 in0.0 mm 0.07 in1.8 mm
07:33 PM 46.2°F7.9°C 44.8°F7.1°C 95% 11.0 mph SW17.7 kmh SW 16.0 mph25.7 kmh 29.62 in1003.0 mb 0.00 in0.0 mm 0.00 in0.0 mm 0.07 in1.8 mm
07:34 PM 46.2°F7.9°C 44.8°F7.1°C 95% 9.6 mph SW15.4 kmh SW 16.0 mph25.7 kmh 29.62 in1003.0 mb 0.00 in0.0 mm 0.00 in0.0 mm 0.07 in1.8 mm
07:35 PM 46.2°F